Provisional Data: Lititz Run near Lititz, PA


Please select a monitoring station.
Please select start date.
Please select start date.

Toggle Unit: C/F Toggle Unit: C/F
Sample Time Temperature (C) Temperature (F) Specific Conductivity (mS/cm) pH   Turbidity (NTU+) DO (mg/L)
12/23/2021 12:00:00 AM 8.18 46.724 1.071 7.86 5.64 9.98
12/23/2021 12:15:00 AM 8.15 46.67 1.076 7.86 4.61 9.98
12/23/2021 12:30:00 AM 8.11 46.598 1.081 7.86 5.3 9.97
12/23/2021 12:45:00 AM 8.08 46.544 1.086 7.85 4.98 9.97
12/23/2021 1:00:00 AM 8.04 46.472 1.09 7.85 4.79 9.98
12/23/2021 1:15:00 AM 8.01 46.418 1.093 7.85 4.76 9.99
12/23/2021 1:30:00 AM 7.97 46.346 1.095 7.85 4.28 10
12/23/2021 1:45:00 AM 7.93 46.274 1.098 7.85 4.69 10.01
12/23/2021 2:00:00 AM 7.88 46.184 1.1 7.85 5.35 10.03
12/23/2021 2:15:00 AM 7.84 46.112 1.103 7.85 5.71 10.03
12/23/2021 2:30:00 AM 7.79 46.022 1.105 7.85 6.1 10.05
12/23/2021 2:45:00 AM 7.75 45.95 1.107 7.85 5.73 10.06
12/23/2021 3:00:00 AM 7.71 45.878 1.109 7.85 5.46 10.07
12/23/2021 3:15:00 AM 7.67 45.806 1.11 7.84 7.11 10.09
12/23/2021 3:30:00 AM 7.64 45.752 1.111 7.85 6.13 10.1
12/23/2021 3:45:00 AM 7.61 45.698 1.112 7.85 5.81 10.1
12/23/2021 4:00:00 AM 7.59 45.662 1.112 7.84 6.76 10.11
12/23/2021 4:15:00 AM 7.55 45.59 1.111 7.84 7.06 10.12
12/23/2021 4:30:00 AM 7.52 45.536 1.109 7.85 8.87 10.13
12/23/2021 4:45:00 AM 7.48 45.464 1.106 7.85 9.31 10.14
12/23/2021 5:00:00 AM 7.45 45.41 1.102 7.85 8.08 10.16
12/23/2021 5:15:00 AM 7.41 45.338 1.096 7.85 8.56 10.18
12/23/2021 5:30:00 AM 7.37 45.266 1.09 7.85 7.98 10.2
12/23/2021 5:45:00 AM 7.33 45.194 1.082 7.85 7.64 10.22
12/23/2021 6:00:00 AM 7.28 45.104 1.073 7.85 7.29 10.24
12/23/2021 6:15:00 AM 7.23 45.014 1.062 7.85 6.46 10.28
12/23/2021 6:30:00 AM 7.19 44.942 1.051 7.85 6.49 10.29
12/23/2021 6:45:00 AM 7.14 44.852 1.039 7.86 5.3 10.33
12/23/2021 7:00:00 AM 7.09 44.762 1.027 7.86 5.35 10.36
12/23/2021 7:15:00 AM 7.04 44.672 1.015 7.86 5.18 10.4
12/23/2021 7:30:00 AM 6.99 44.582 1.005 7.87 5.37 10.43
12/23/2021 7:45:00 AM 6.95 44.51 0.994 7.87 4.77 10.48
12/23/2021 8:00:00 AM 6.91 44.438 0.985 7.87 5.87 10.57
12/23/2021 8:15:00 AM 6.88 44.384 0.976 7.88 6.1 10.66
12/23/2021 8:30:00 AM 6.86 44.348 0.967 7.89 5.93 10.75
12/23/2021 8:45:00 AM 6.85 44.33 0.96 7.9 5.78 10.86
12/23/2021 9:00:00 AM 6.85 44.33 0.953 7.91 5.85 10.96
12/23/2021 9:15:00 AM 6.87 44.366 0.948 7.92 6.67 11.07
12/23/2021 9:30:00 AM 6.89 44.402 0.945 7.92 6.21 11.18
12/23/2021 9:45:00 AM 6.94 44.492 0.943 7.93 6.24 11.29
12/23/2021 10:00:00 AM 7.01 44.618 0.942 7.94 6.17 11.38
12/23/2021 10:15:00 AM 7.08 44.744 0.941 7.95 6.1 11.45
12/23/2021 10:30:00 AM 7.18 44.924 0.94 7.96 5.8 11.53
12/23/2021 10:45:00 AM 7.27 45.086 0.939 7.97 6.09 11.61
12/23/2021 11:00:00 AM 7.37 45.266 0.937 7.98 5.88 11.69
12/23/2021 11:15:00 AM 7.48 45.464 0.936 7.98 6.08 11.78
12/23/2021 11:30:00 AM 7.57 45.626 0.934 7.99 5.4 11.86
12/23/2021 11:45:00 AM 7.68 45.824 0.932 8 6.25 11.92
12/23/2021 12:00:00 PM 7.82 46.076 0.93 8.01 5.66 12.05
12/23/2021 12:15:00 PM 7.93 46.274 0.929 8.02 6.15 12.16
12/23/2021 12:30:00 PM 8.01 46.418 0.931 8.03 5.62 12.19
12/23/2021 12:45:00 PM 8.1 46.58 0.936 8.04 5.35 12.22
12/23/2021 1:00:00 PM 8.22 46.796 0.947 8.04 5.2 12.27
12/23/2021 1:15:00 PM 8.33 46.994 0.963 8.05 5.48 12.27
12/23/2021 1:30:00 PM 8.43 47.174 0.984 8.05 5.7 12.24
12/23/2021 1:45:00 PM 8.52 47.336 1.004 8.04 5.88 12.21
12/23/2021 2:00:00 PM 8.63 47.534 1.024 8.04 5.07 12.19
12/23/2021 2:15:00 PM 8.72 47.696 1.039 8.05 5.57 12.16
12/23/2021 2:30:00 PM 8.76 47.768 1.051 8.04 5.6 12.08
12/23/2021 2:45:00 PM 8.8 47.84 1.059 8.04 4.99 12.05
12/23/2021 3:00:00 PM 8.87 47.966 1.065 8.04 5.16 12.01
12/23/2021 3:15:00 PM 8.92 48.056 1.07 8.04 5.47 11.99
12/23/2021 3:30:00 PM 8.97 48.146 1.074 8.05 5.45 11.99
12/23/2021 3:45:00 PM 8.99 48.182 1.079 8.05 5.48 11.94
12/23/2021 4:00:00 PM 9.02 48.236 1.087 8.05 5.62 11.85
12/23/2021 4:15:00 PM 9.07 48.326 1.096 8.04 6.23 11.77
12/23/2021 4:30:00 PM 9.11 48.398 1.109 8.04 5.85 11.67
12/23/2021 4:45:00 PM 9.14 48.452 1.123 8.03 5.01 11.55
12/23/2021 5:00:00 PM 9.16 48.488 1.138 8.02 5.17 11.41
12/23/2021 5:15:00 PM 9.18 48.524 1.152 8.01 7 11.29
12/23/2021 5:30:00 PM 9.19 48.542 1.164 8 5.58 11.19
12/23/2021 5:45:00 PM 9.19 48.542 1.172 8 6.32 11.1
12/23/2021 6:00:00 PM 9.18 48.524 1.175 7.99 7.1 11.02
12/23/2021 6:15:00 PM 9.16 48.488 1.174 7.99 6.78 10.96
12/23/2021 6:30:00 PM 9.13 48.434 1.171 7.98 5.11 10.9
12/23/2021 6:45:00 PM 9.11 48.398 1.168 7.98 5.56 10.83
12/23/2021 7:00:00 PM 9.08 48.344 1.164 7.97 5.38 10.76
12/23/2021 7:15:00 PM 9.05 48.29 1.159 7.96 5.65 10.7
12/23/2021 7:30:00 PM 9.03 48.254 1.152 7.96 5.88 10.64
12/23/2021 7:45:00 PM 9 48.2 1.142 7.95 6.02 10.59
12/23/2021 8:00:00 PM 8.97 48.146 1.133 7.95 5.79 10.54
12/23/2021 8:15:00 PM 8.94 48.092 1.122 7.94 5.44 10.5
12/23/2021 8:30:00 PM 8.91 48.038 1.112 7.94 5.07 10.46
12/23/2021 8:45:00 PM 8.87 47.966 1.103 7.93 6.77 10.42
12/23/2021 9:00:00 PM 8.84 47.912 1.094 7.93 5.66 10.37
12/23/2021 9:15:00 PM 8.8 47.84 1.086 7.92 5.5 10.32
12/23/2021 9:30:00 PM 8.77 47.786 1.08 7.91 5.15 10.28
12/23/2021 9:45:00 PM 8.74 47.732 1.075 7.91 5.2 10.22
12/23/2021 10:00:00 PM 8.71 47.678 1.073 7.91 5 10.18
12/23/2021 10:15:00 PM 8.68 47.624 1.072 7.9 5.57 10.15
12/23/2021 10:30:00 PM 8.67 47.606 1.072 7.89 5.65 10.11
12/23/2021 10:45:00 PM 8.65 47.57 1.071 7.89 5.8 10.08
12/23/2021 11:00:00 PM 8.63 47.534 1.071 7.88 5.26 10.06
12/23/2021 11:15:00 PM 8.62 47.516 1.07 7.88 4.68 10.05
12/23/2021 11:30:00 PM 8.62 47.516 1.071 7.87 5.55 10.02
12/23/2021 11:45:00 PM 8.62 47.516 1.072 7.87 4.97 10
12/24/2021 12:00:00 AM 8.63 47.534 1.073 7.87 5.42 9.99
12/24/2021 12:15:00 AM 8.62 47.516 1.074 7.87 5.5 9.98
12/24/2021 12:30:00 AM 8.63 47.534 1.074 7.86 5.22 9.96
12/24/2021 12:45:00 AM 8.64 47.552 1.074 7.86 5.54 9.95
12/24/2021 1:00:00 AM 8.64 47.552 1.075 7.86 4.84 9.94
12/24/2021 1:15:00 AM 8.65 47.57 1.076 7.86 4.84 9.93
12/24/2021 1:30:00 AM 8.66 47.588 1.076 7.85 4.95 9.93
12/24/2021 1:45:00 AM 8.67 47.606 1.075 7.85 5.2 9.92
12/24/2021 2:00:00 AM 8.67 47.606 1.074 7.85 5.88 9.91
12/24/2021 2:15:00 AM 8.67 47.606 1.071 7.85 6.54 9.91
12/24/2021 2:30:00 AM 8.67 47.606 1.068 7.85 6.62 9.92
12/24/2021 2:45:00 AM 8.66 47.588 1.065 7.85 5.07 9.92
12/24/2021 3:00:00 AM 8.65 47.57 1.062 7.84 5.08 9.92
12/24/2021 3:15:00 AM 8.64 47.552 1.06 7.85 5.16 9.91
12/24/2021 3:30:00 AM 8.64 47.552 1.057 7.85 5.87 9.91
12/24/2021 3:45:00 AM 8.63 47.534 1.054 7.85 6.12 9.92
12/24/2021 4:00:00 AM 8.62 47.516 1.052 7.85 5.81 9.92
12/24/2021 4:15:00 AM 8.61 47.498 1.049 7.85 5.59 9.92
12/24/2021 4:30:00 AM 8.6 47.48 1.046 7.85 7.53 9.93
12/24/2021 4:45:00 AM 8.6 47.48 1.042 7.85 5.34 9.93
12/24/2021 5:00:00 AM 8.59 47.462 1.038 7.85 6.5 9.94
12/24/2021 5:15:00 AM 8.59 47.462 1.034 7.85 5.89 9.95
12/24/2021 5:30:00 AM 8.59 47.462 1.03 7.85 5.44 9.95
12/24/2021 5:45:00 AM 8.59 47.462 1.026 7.85 5.64 9.96
12/24/2021 6:00:00 AM 8.59 47.462 1.022 7.85 5.23 9.95
12/24/2021 6:15:00 AM 8.59 47.462 1.019 7.85 5.08 9.97
12/24/2021 6:30:00 AM 8.57 47.426 1.015 7.85 5.43 9.97
12/24/2021 6:45:00 AM 8.53 47.354 1.011 7.85 5.82 9.97
12/24/2021 7:00:00 AM 8.5 47.3 1.007 7.85 5.14 9.99
12/24/2021 7:15:00 AM 8.45 47.21 1 7.85 5.05 10
12/24/2021 7:30:00 AM 8.4 47.12 0.994 7.86 5.91 10.02
12/24/2021 7:45:00 AM 8.35 47.03 0.986 7.86 5.5 10.07
12/24/2021 8:00:00 AM 8.31 46.958 0.979 7.86 5.2 10.14
12/24/2021 8:15:00 AM 8.27 46.886 0.972 7.87 5.78 10.23
12/24/2021 8:30:00 AM 8.24 46.832 0.963 7.88 5.71 10.33
12/24/2021 8:45:00 AM 8.22 46.796 0.956 7.89 5.46 10.45
12/24/2021 9:00:00 AM 8.22 46.796 0.949 7.9 5.23 10.59
12/24/2021 9:15:00 AM 8.22 46.796 0.942 7.91 4.66 10.74
12/24/2021 9:30:00 AM 8.24 46.832 0.936 7.92 4.56 10.84
12/24/2021 9:45:00 AM 8.27 46.886 0.931 7.94 4.78 10.96
12/24/2021 10:00:00 AM 8.33 46.994 0.927 7.95 6.78 11.09
12/24/2021 10:15:00 AM 8.39 47.102 0.924 7.95 6.09 11.18
12/24/2021 10:30:00 AM 8.47 47.246 0.923 7.97 5.68 11.26
12/24/2021 10:45:00 AM 8.56 47.408 0.922 7.97 5.72 11.33
12/24/2021 11:00:00 AM 8.67 47.606 0.92 7.98 5.1 11.4
12/24/2021 11:15:00 AM 8.77 47.786 0.918 7.99 5.43 11.49
12/24/2021 11:30:00 AM 8.87 47.966 0.915 7.99 6.75 11.55
12/24/2021 11:45:00 AM 8.96 48.128 0.911 8 5.14 11.63
12/24/2021 12:00:00 PM 9.06 48.308 0.906 8.01 6.13 11.69
12/24/2021 12:15:00 PM 9.14 48.452 0.903 8.02 5.9 11.74
12/24/2021 12:30:00 PM 9.23 48.614 0.901 8.03 5.84 11.79
12/24/2021 12:45:00 PM 9.32 48.776 0.902 8.03 5.3 11.86
12/24/2021 1:00:00 PM 9.4 48.92 0.908 8.04 5.81 11.92
12/24/2021 1:15:00 PM 9.48 49.064 0.92 8.04 5.09 11.94
12/24/2021 1:30:00 PM 9.55 49.19 0.939 8.05 5.19 11.94
12/24/2021 1:45:00 PM 9.64 49.352 0.962 8.05 5.13 11.95
12/24/2021 2:00:00 PM 9.74 49.532 0.985 8.05 5.22 11.96
12/24/2021 2:15:00 PM 9.84 49.712 1.005 8.05 4.66 11.95
12/24/2021 2:30:00 PM 9.92 49.856 1.02 8.05 4.9 11.92
12/24/2021 2:45:00 PM 9.98 49.964 1.032 8.05 4.53 11.85
12/24/2021 3:00:00 PM 10.05 50.09 1.043 8.05 4.23 11.79
12/24/2021 3:15:00 PM 10.12 50.216 1.053 8.05 4.6 11.75
12/24/2021 3:30:00 PM 10.18 50.324 1.064 8.04 4.28 11.66
12/24/2021 3:45:00 PM 10.25 50.45 1.075 8.04 4.26 11.59
12/24/2021 4:00:00 PM 10.31 50.558 1.085 8.03 4.61 11.5
12/24/2021 4:15:00 PM 10.36 50.648 1.093 8.03 4.82 11.37
12/24/2021 4:30:00 PM 10.4 50.72 1.098 8.02 4.19 11.25
12/24/2021 4:45:00 PM 10.44 50.792 1.101 8.02 4.87 11.13
12/24/2021 5:00:00 PM 10.45 50.81 1.102 8.01 3.85 11.03
12/24/2021 5:15:00 PM 10.47 50.846 1.102 8 4.15 10.94
12/24/2021 5:30:00 PM 10.49 50.882 1.102 8 4.05 10.85
12/24/2021 5:45:00 PM 10.5 50.9 1.103 7.99 4.38 10.77
12/24/2021 6:00:00 PM 10.51 50.918 1.106 7.99 6.4 10.68
12/24/2021 6:15:00 PM 10.53 50.954 1.112 7.98 6.38 10.61
12/24/2021 6:30:00 PM 10.54 50.972 1.12 7.97 4.47 10.53
12/24/2021 6:45:00 PM 10.56 51.008 1.128 7.96 5.08 10.45
12/24/2021 7:00:00 PM 10.57 51.026 1.132 7.96 5.06 10.37
12/24/2021 7:15:00 PM 10.57 51.026 1.132 7.95 4.93 10.29
12/24/2021 7:30:00 PM 10.56 51.008 1.128 7.94 5.19 10.21
12/24/2021 7:45:00 PM 10.54 50.972 1.122 7.93 5.54 10.14
12/24/2021 8:00:00 PM 10.52 50.936 1.117 7.93 4.62 10.07
12/24/2021 8:15:00 PM 10.48 50.864 1.112 7.92 4.76 10.01
12/24/2021 8:30:00 PM 10.44 50.792 1.108 7.91 5.39 9.96
12/24/2021 8:45:00 PM 10.4 50.72 1.104 7.91 5.31 9.9
12/24/2021 9:00:00 PM 10.35 50.63 1.102 7.9 5.59 9.86
12/24/2021 9:15:00 PM 10.31 50.558 1.101 7.89 5.73 9.79
12/24/2021 9:30:00 PM 10.28 50.504 1.101 7.89 5.78 9.74
12/24/2021 9:45:00 PM 10.25 50.45 1.101 7.88 5.54 9.68
12/24/2021 10:00:00 PM 10.23 50.414 1.1 7.87 5.67 9.64
12/24/2021 10:15:00 PM 10.22 50.396 1.1 7.87 4.89 9.6
12/24/2021 10:30:00 PM 10.2 50.36 1.099 7.86 5.07 9.56
12/24/2021 10:45:00 PM 10.19 50.342 1.098 7.86 4.98 9.54
12/24/2021 11:00:00 PM 10.19 50.342 1.095 7.85 5.27 9.51
12/24/2021 11:15:00 PM 10.19 50.342 1.092 7.85 5.15 9.49
12/24/2021 11:30:00 PM 10.19 50.342 1.088 7.85 6.11 9.48
12/24/2021 11:45:00 PM 10.19 50.342 1.083 7.85 5.58 9.46
12/25/2021 12:00:00 AM 10.19 50.342 1.079 7.84 4.3 9.45
12/25/2021 12:15:00 AM 10.18 50.324 1.075 7.84 6.48 9.45
12/25/2021 12:30:00 AM 10.17 50.306 1.071 7.84 4.8 9.44
12/25/2021 12:45:00 AM 10.16 50.288 1.068 7.84 4.95 9.43
12/25/2021 1:00:00 AM 10.15 50.27 1.064 7.84 4.62 9.43
12/25/2021 1:15:00 AM 10.14 50.252 1.06 7.83 5.91 9.43
12/25/2021 1:30:00 AM 10.13 50.234 1.055 7.83 5.36 9.43
12/25/2021 1:45:00 AM 10.11 50.198 1.051 7.83 6.55 9.44
12/25/2021 2:00:00 AM 10.1 50.18 1.046 7.83 4.66 9.43
12/25/2021 2:15:00 AM 10.08 50.144 1.041 7.83 4.52 9.43
12/25/2021 2:30:00 AM 10.08 50.144 1.037 7.83 4.41 9.44
12/25/2021 2:45:00 AM 10.07 50.126 1.032 7.83 4.34 9.44
12/25/2021 3:00:00 AM 10.07 50.126 1.028 7.83 4.03 9.43
12/25/2021 3:15:00 AM 10.06 50.108 1.024 7.83 5.28 9.43
12/25/2021 3:30:00 AM 10.06 50.108 1.022 7.83 5.1 9.44
12/25/2021 3:45:00 AM 10.06 50.108 1.021 7.83 4.78 9.43
12/25/2021 4:00:00 AM 10.06 50.108 1.021 7.83 5.35 9.43
12/25/2021 4:15:00 AM 10.06 50.108 1.021 7.82 5.46 9.43
12/25/2021 4:30:00 AM 10.06 50.108 1.021 7.83 5.07 9.42
12/25/2021 4:45:00 AM 10.06 50.108 1.02 7.82 5.52 9.41
12/25/2021 5:00:00 AM 10.07 50.126 1.019 7.82 6.18 9.4
12/25/2021 5:15:00 AM 10.07 50.126 1.017 7.82 6.73 9.4
12/25/2021 5:30:00 AM 10.08 50.144 1.015 7.82 7.35 9.4
12/25/2021 5:45:00 AM 10.09 50.162 1.012 7.82 7.23 9.4
12/25/2021 6:00:00 AM 10.1 50.18 1.009 7.82 7.39 9.4
12/25/2021 6:15:00 AM 10.1 50.18 1.005 7.82 7.71 9.4
12/25/2021 6:30:00 AM 10.11 50.198 1.001 7.82 6.89 9.39
12/25/2021 6:45:00 AM 10.1 50.18 0.997 7.82 5.84 9.39
12/25/2021 7:00:00 AM 10.11 50.198 0.993 7.82 6.08 9.39
12/25/2021 7:15:00 AM 10.1 50.18 0.988 7.82 5.26 9.39
12/25/2021 7:30:00 AM 10.1 50.18 0.982 7.83 5.62 9.41
12/25/2021 7:45:00 AM 10.1 50.18 0.975 7.83 5.01 9.42
12/25/2021 8:00:00 AM 10.1 50.18 0.968 7.83 6.43 9.44
12/25/2021 8:15:00 AM 10.1 50.18 0.96 7.83 5.27 9.45
12/25/2021 8:30:00 AM 10.1 50.18 0.952 7.84 5.42 9.49
12/25/2021 8:45:00 AM 10.1 50.18 0.945 7.84 5.3 9.52
12/25/2021 9:00:00 AM 10.1 50.18 0.938 7.84 5.6 9.57
12/25/2021 9:15:00 AM 10.1 50.18 0.933 7.85 5.42 9.65
12/25/2021 9:30:00 AM 10.11 50.198 0.929 7.85 5.43 9.71
12/25/2021 9:45:00 AM 10.14 50.252 0.926 7.86 4.92 9.83
12/25/2021 10:00:00 AM 10.17 50.306 0.924 7.87 4.62 9.98
12/25/2021 10:15:00 AM 10.2 50.36 0.922 7.88 4.46 10.03
12/25/2021 10:30:00 AM 10.24 50.432 0.919 7.88 4.82 10.06
12/25/2021 10:45:00 AM 10.28 50.504 0.916 7.89 4.55 10.06
12/25/2021 11:00:00 AM 10.31 50.558 0.913 7.89 4.48 10.08
12/25/2021 11:15:00 AM 10.34 50.612 0.909 7.89 4.63 10.13
12/25/2021 11:30:00 AM 10.37 50.666 0.903 7.9 4.52 10.12
12/25/2021 11:45:00 AM 10.4 50.72 0.897 7.9 4.47 10.15
12/25/2021 12:00:00 PM 10.44 50.792 0.892 7.91 4.33 10.27
12/25/2021 12:15:00 PM 10.47 50.846 0.887 7.91 4.21 10.34
12/25/2021 12:30:00 PM 10.49 50.882 0.884 7.91 4.17 10.28
12/25/2021 12:45:00 PM 10.55 50.99 0.882 7.92 4.37 10.4
12/25/2021 1:00:00 PM 10.61 51.098 0.883 7.93 5.13 10.6
12/25/2021 1:15:00 PM 10.73 51.314 0.885 7.95 4.73 10.83
12/25/2021 1:30:00 PM 10.81 51.458 0.892 7.96 4.7 10.9
12/25/2021 1:45:00 PM 10.88 51.584 0.904 7.96 4.51 10.8
12/25/2021 2:00:00 PM 10.96 51.728 0.921 7.96 4.71 10.75
12/25/2021 2:15:00 PM 11.07 51.926 0.939 7.96 4.83 10.77
12/25/2021 2:30:00 PM 11.17 52.106 0.955 7.96 4.09 10.84
12/25/2021 2:45:00 PM 11.24 52.232 0.969 7.97 4.04 10.84
12/25/2021 3:00:00 PM 11.3 52.34 0.98 7.96 4.1 10.78
12/25/2021 3:15:00 PM 11.38 52.484 0.992 7.96 4.14 10.7
12/25/2021 3:30:00 PM 11.45 52.61 1.002 7.95 4.82 10.59
12/25/2021 3:45:00 PM 11.5 52.7 1.011 7.95 4.31 10.48
12/25/2021 4:00:00 PM 11.55 52.79 1.019 7.94 4.93 10.39
12/25/2021 4:15:00 PM 11.59 52.862 1.026 7.93 4.26 10.3
12/25/2021 4:30:00 PM 11.63 52.934 1.032 7.93 4.5 10.2
12/25/2021 4:45:00 PM 11.67 53.006 1.037 7.92 4.58 10.13
12/25/2021 5:00:00 PM 11.7 53.06 1.039 7.92 4.17 10.06
12/25/2021 5:15:00 PM 11.72 53.096 1.039 7.92 4.23 10
12/25/2021 5:30:00 PM 11.74 53.132 1.039 7.91 5.36 9.97
12/25/2021 5:45:00 PM 11.77 53.186 1.039 7.91 5.59 9.92
12/25/2021 6:00:00 PM 11.78 53.204 1.04 7.91 10.95 9.87
12/25/2021 6:15:00 PM 11.8 53.24 1.041 7.9 6.25 9.84
12/25/2021 6:30:00 PM 11.82 53.276 1.044 7.9 6.12 9.79
12/25/2021 6:45:00 PM 11.84 53.312 1.046 7.9 5.22 9.74
12/25/2021 7:00:00 PM 11.85 53.33 1.047 7.89 5.6 9.69
12/25/2021 7:15:00 PM 11.86 53.348 1.046 7.89 5.14 9.64
12/25/2021 7:30:00 PM 11.86 53.348 1.044 7.89 5.01 9.59
12/25/2021 7:45:00 PM 11.86 53.348 1.042 7.88 5.32 9.54
12/25/2021 8:00:00 PM 11.85 53.33 1.039 7.87 4.87 9.49
12/25/2021 8:15:00 PM 11.84 53.312 1.037 7.87 4.96 9.44
12/25/2021 8:30:00 PM 11.83 53.294 1.035 7.86 5.45 9.39
12/25/2021 8:45:00 PM 11.81 53.258 1.034 7.86 5.66 9.34
12/25/2021 9:00:00 PM 11.8 53.24 1.034 7.85 5.72 9.28
12/25/2021 9:15:00 PM 11.77 53.186 1.034 7.84 5.98 9.23
12/25/2021 9:30:00 PM 11.73 53.114 1.033 7.83 5.79 9.18
12/25/2021 9:45:00 PM 11.69 53.042 1.03 7.83 6.27 9.15
12/25/2021 10:00:00 PM 11.66 52.988 1.029 7.82 5.73 9.12
12/25/2021 10:15:00 PM 11.64 52.952 1.029 7.82 5.54 9.09
12/25/2021 10:30:00 PM 11.62 52.916 1.031 7.81 6.1 9.07
12/25/2021 10:45:00 PM 11.61 52.898 1.033 7.81 5.84 9.05
12/25/2021 11:00:00 PM 11.6 52.88 1.034 7.8 5.85 9.04
12/25/2021 11:15:00 PM 11.59 52.862 1.035 7.8 6.05 9.04
12/25/2021 11:30:00 PM 11.58 52.844 1.035 7.8 5.82 9.03
12/25/2021 11:45:00 PM 11.58 52.844 1.033 7.8 5.97 9.02
12/26/2021 12:00:00 AM 11.57 52.826 1.032 7.79 6.41 9.02
12/26/2021 12:15:00 AM 11.54 52.772 1.031 7.79 5.62 9.02
12/26/2021 12:30:00 AM 11.5 52.7 1.03 7.79 6.03 9.03
12/26/2021 12:45:00 AM 11.46 52.628 1.026 7.79 5.74 9.04
12/26/2021 1:00:00 AM 11.41 52.538 1.022 7.79 5.89 9.06
12/26/2021 1:15:00 AM 11.35 52.43 1.018 7.79 6.98 9.07
12/26/2021 1:30:00 AM 11.3 52.34 1.014 7.79 5.96 9.08
12/26/2021 1:45:00 AM 11.24 52.232 1.012 7.79 5.79 9.09
12/26/2021 2:00:00 AM 11.18 52.124 1.01 7.79 6.36 9.1
12/26/2021 2:15:00 AM 11.12 52.016 1.01 7.79 5.74 9.1
12/26/2021 2:30:00 AM 11.07 51.926 1.009 7.78 6.19 9.1
12/26/2021 2:45:00 AM 11.01 51.818 1.006 7.78 6.25 9.1
12/26/2021 3:00:00 AM 10.95 51.71 1.003 7.78 5.94 9.1
12/26/2021 3:15:00 AM 10.89 51.602 0.998 7.77 5.65 9.09
12/26/2021 3:30:00 AM 10.83 51.494 0.993 7.77 5.81 9.08
12/26/2021 3:45:00 AM 10.77 51.386 0.987 7.76 5.12 9.08
12/26/2021 4:00:00 AM 10.72 51.296 0.983 7.76 6.28 9.09
12/26/2021 4:15:00 AM 10.67 51.206 0.978 7.76 7.51 9.09
12/26/2021 4:30:00 AM 10.62 51.116 0.974 7.75 5.85 9.1
12/26/2021 4:45:00 AM 10.56 51.008 0.971 7.75 6.31 9.11
12/26/2021 5:00:00 AM 10.51 50.918 0.968 7.75 5.4 9.13
12/26/2021 5:15:00 AM 10.46 50.828 0.966 7.75 5.32 9.15
12/26/2021 5:30:00 AM 10.4 50.72 0.963 7.75 5.22 9.16
12/26/2021 5:45:00 AM 10.35 50.63 0.96 7.75 6.13 9.18
12/26/2021 6:00:00 AM 10.29 50.522 0.958 7.75 5.31 9.2
12/26/2021 6:15:00 AM 10.24 50.432 0.955 7.75 5.02 9.22
12/26/2021 6:30:00 AM 10.19 50.342 0.952 7.75 5.25 9.25
12/26/2021 6:45:00 AM 10.13 50.234 0.948 7.75 5.31 9.27
12/26/2021 7:00:00 AM 10.08 50.144 0.945 7.76 4.78 9.3
12/26/2021 7:15:00 AM 10.02 50.036 0.943 7.76 4.68 9.34
12/26/2021 7:30:00 AM 9.96 49.928 0.94 7.77 4.65 9.38
12/26/2021 7:45:00 AM 9.91 49.838 0.937 7.77 5 9.44
12/26/2021 8:00:00 AM 9.86 49.748 0.934 7.78 5.04 9.52
12/26/2021 8:15:00 AM 9.82 49.676 0.932 7.79 4.99 9.61
12/26/2021 8:30:00 AM 9.79 49.622 0.929 7.8 5.14 9.71
12/26/2021 8:45:00 AM 9.77 49.586 0.927 7.81 5.04 9.83
12/26/2021 9:00:00 AM 9.76 49.568 0.926 7.82 5.28 9.97
12/26/2021 9:15:00 AM 9.76 49.568 0.926 7.83 5.51 10.11
12/26/2021 9:30:00 AM 9.78 49.604 0.926 7.85 6.7 10.24
12/26/2021 9:45:00 AM 9.8 49.64 0.927 7.86 6.42 10.37
12/26/2021 10:00:00 AM 9.84 49.712 0.928 7.88 5.85 10.51
12/26/2021 10:15:00 AM 9.89 49.802 0.929 7.89 5.3 10.65
12/26/2021 10:30:00 AM 9.97 49.946 0.929 7.91 5.16 10.74
12/26/2021 10:45:00 AM 10.04 50.072 0.929 7.92 5.04 10.85
12/26/2021 11:00:00 AM 10.13 50.234 0.929 7.93 5.07 10.95
12/26/2021 11:15:00 AM 10.22 50.396 0.927 7.94 4.8 11.04
12/26/2021 11:30:00 AM 10.31 50.558 0.923 7.95 4.95 11.11
12/26/2021 11:45:00 AM 10.4 50.72 0.919 7.97 5.49 11.19
12/26/2021 12:00:00 PM 10.49 50.882 0.914 7.98 4.66 11.27
12/26/2021 12:15:00 PM 10.57 51.026 0.909 7.99 4.98 11.34
12/26/2021 12:30:00 PM 10.65 51.17 0.907 8 5.37 11.4
12/26/2021 12:45:00 PM 10.71 51.278 0.909 8.01 5.59 11.45
12/26/2021 1:00:00 PM 10.78 51.404 0.914 8.01 5.3 11.48
12/26/2021 1:15:00 PM 10.85 51.53 0.923 8.02 5.12 11.52
12/26/2021 1:30:00 PM 10.92 51.656 0.935 8.02 5.34 11.54
12/26/2021 1:45:00 PM 10.97 51.746 0.948 8.03 4.77 11.55
12/26/2021 2:00:00 PM 11 51.8 0.963 8.03 4.85 11.55
12/26/2021 2:15:00 PM 11.03 51.854 0.979 8.03 5.05 11.54
12/26/2021 2:30:00 PM 11.06 51.908 0.996 8.03 4.89 11.51
12/26/2021 2:45:00 PM 11.09 51.962 1.014 8.03 5.24 11.46
12/26/2021 3:00:00 PM 11.1 51.98 1.031 8.03 5.17 11.39
12/26/2021 3:15:00 PM 11.11 51.998 1.049 8.02 5.28 11.3
12/26/2021 3:30:00 PM 11.1 51.98 1.065 8.02 5.08 11.19
12/26/2021 3:45:00 PM 11.1 51.98 1.079 8.01 4.68 11.06
12/26/2021 4:00:00 PM 11.09 51.962 1.091 8 4.44 10.94
12/26/2021 4:15:00 PM 11.09 51.962 1.101 7.99 4.41 10.85
12/26/2021 4:30:00 PM 11.11 51.998 1.109 7.99 4.76 10.78
12/26/2021 4:45:00 PM 11.12 52.016 1.115 7.99 4.19 10.71
12/26/2021 5:00:00 PM 11.13 52.034 1.119 7.98 4.15 10.62
12/26/2021 5:15:00 PM 11.12 52.016 1.122 7.97 4.21 10.51
12/26/2021 5:30:00 PM 11.11 51.998 1.123 7.97 4.32 10.44
12/26/2021 5:45:00 PM 11.08 51.944 1.122 7.96 4.5 10.37
12/26/2021 6:00:00 PM 11.05 51.89 1.121 7.96 4.56 10.32
12/26/2021 6:15:00 PM 11.01 51.818 1.119 7.95 5.14 10.27
12/26/2021 6:30:00 PM 10.97 51.746 1.117 7.95 4.76 10.23
12/26/2021 6:45:00 PM 10.92 51.656 1.113 7.95 4.67 10.19
12/26/2021 7:00:00 PM 10.88 51.584 1.11 7.94 4.96 10.15
12/26/2021 7:15:00 PM 10.83 51.494 1.107 7.94 5.26 10.11
12/26/2021 7:30:00 PM 10.78 51.404 1.106 7.94 4.96 10.07
12/26/2021 7:45:00 PM 10.73 51.314 1.108 7.93 6.56 10.02
12/26/2021 8:00:00 PM 10.69 51.242 1.11 7.93 5.1 9.99
12/26/2021 8:15:00 PM 10.64 51.152 1.11 7.92 5.99 9.94
12/26/2021 8:30:00 PM 10.58 51.044 1.109 7.92 5.68 9.91
12/26/2021 8:45:00 PM 10.53 50.954 1.107 7.91 5.54 9.88
12/26/2021 9:00:00 PM 10.47 50.846 1.103 7.91 5.49 9.85
12/26/2021 9:15:00 PM 10.41 50.738 1.099 7.9 5.89 9.83
12/26/2021 9:30:00 PM 10.35 50.63 1.096 7.9 5.23 9.81
12/26/2021 9:45:00 PM 10.29 50.522 1.092 7.9 6.2 9.78
12/26/2021 10:00:00 PM 10.23 50.414 1.09 7.89 5.65 9.76
12/26/2021 10:15:00 PM 10.16 50.288 1.088 7.89 5.75 9.74
12/26/2021 10:30:00 PM 10.09 50.162 1.085 7.88 5.99 9.72
12/26/2021 10:45:00 PM 10.03 50.054 1.082 7.88 5.76 9.71
12/26/2021 11:00:00 PM 9.96 49.928 1.078 7.88 6.57 9.7
12/26/2021 11:15:00 PM 9.9 49.82 1.075 7.87 6.61 9.69
12/26/2021 11:30:00 PM 9.84 49.712 1.073 7.87 5.73 9.7
12/26/2021 11:45:00 PM 9.78 49.604 1.071 7.87 5.42 9.7
12/27/2021 12:00:00 AM 9.72 49.496 1.07 7.87 5.46 9.71
12/27/2021 12:15:00 AM 9.66 49.388 1.069 7.86 5.24 9.72
12/27/2021 12:30:00 AM 9.62 49.316 1.068 7.86 5.03 9.73
12/27/2021 12:45:00 AM 9.56 49.208 1.068 7.86 5.08 9.73
12/27/2021 1:00:00 AM 9.51 49.118 1.067 7.86 5.79 9.74
12/27/2021 1:15:00 AM 9.46 49.028 1.067 7.86 6.26 9.75
12/27/2021 1:30:00 AM 9.41 48.938 1.067 7.86 5.29 9.76
12/27/2021 1:45:00 AM 9.36 48.848 1.066 7.86 4.56 9.77
12/27/2021 2:00:00 AM 9.3 48.74 1.066 7.85 5.01 9.79
12/27/2021 2:15:00 AM 9.25 48.65 1.065 7.85 5.19 9.81
12/27/2021 2:30:00 AM 9.19 48.542 1.065 7.85 5.75 9.81
12/27/2021 2:45:00 AM 9.14 48.452 1.064 7.85 7.68 9.82
12/27/2021 3:00:00 AM 9.09 48.362 1.063 7.85 6.05 9.84
12/27/2021 3:15:00 AM 9.05 48.29 1.062 7.85 5.94 9.86
12/27/2021 3:30:00 AM 9.02 48.236 1.059 7.86 5.29 9.87
12/27/2021 3:45:00 AM 8.98 48.164 1.056 7.85 5.98 9.89
12/27/2021 4:00:00 AM 8.95 48.11 1.052 7.85 5.61 9.9
12/27/2021 4:15:00 AM 8.92 48.056 1.048 7.85 5.19 9.91
12/27/2021 4:30:00 AM 8.89 48.002 1.043 7.85 5.27 9.93
12/27/2021 4:45:00 AM 8.86 47.948 1.037 7.85 4.81 9.94
12/27/2021 5:00:00 AM 8.84 47.912 1.032 7.86 5.36 9.96
12/27/2021 5:15:00 AM 8.81 47.858 1.027 7.86 5.85 9.97
12/27/2021 5:30:00 AM 8.78 47.804 1.022 7.86 5.8 9.99
12/27/2021 5:45:00 AM 8.76 47.768 1.017 7.86 5.98 10
12/27/2021 6:00:00 AM 8.74 47.732 1.013 7.86 5.69 10.01
12/27/2021 6:15:00 AM 8.72 47.696 1.008 7.86 5.19 10.03
12/27/2021 6:30:00 AM 8.7 47.66 1.004 7.86 5.47 10.03
12/27/2021 6:45:00 AM 8.68 47.624 1 7.86 5.54 10.04
12/27/2021 7:00:00 AM 8.67 47.606 0.996 7.86 5.04 10.05
12/27/2021 7:15:00 AM 8.65 47.57 0.934 7.86 5.1 10.06
12/27/2021 7:30:00 AM 8.64 47.552 0.989 7.86 4.93 10.08
12/27/2021 7:45:00 AM 8.63 47.534 0.985 7.86 4.94 10.09
12/27/2021 8:00:00 AM 8.62 47.516 0.981 7.87 4.81 10.11
12/27/2021 8:15:00 AM 8.61 47.498 0.977 7.87 5.03 10.16
12/27/2021 8:30:00 AM 8.61 47.498 0.972 7.87 6.01 10.2
12/27/2021 8:45:00 AM 8.6 47.48 0.968 7.88 5.34 10.23
12/27/2021 9:00:00 AM 8.6 47.48 0.963 7.88 5.14 10.27
12/27/2021 9:15:00 AM 8.61 47.498 0.958 7.89 5.07 10.37
12/27/2021 9:30:00 AM 8.64 47.552 0.953 7.9 5.06 10.55
12/27/2021 9:45:00 AM 8.68 47.624 0.949 7.92 5.39 10.76
12/27/2021 10:00:00 AM 8.72 47.696 0.946 7.93 5.07 10.87
12/27/2021 10:15:00 AM 8.75 47.75 0.945 7.93 5.31 10.8
12/27/2021 10:30:00 AM 8.79 47.822 0.943 7.93 5.41 10.74
12/27/2021 10:45:00 AM 8.81 47.858 0.94 7.92 5.11 10.67
12/27/2021 11:00:00 AM 8.84 47.912 0.937 7.92 5.03 10.67
12/27/2021 11:15:00 AM 8.84 47.912 0.933 7.93 5.45 10.73
12/27/2021 11:30:00 AM 8.78 47.804 0.929 7.93 7.23 10.76
12/27/2021 11:45:00 AM 8.78 47.804 0.925 7.94 7.2 10.82
12/27/2021 12:00:00 PM 8.76 47.768 0.921 7.94 7.29 10.83
12/27/2021 12:15:00 PM 8.7 47.66 0.918 7.95 7.59 10.88
12/27/2021 12:30:00 PM 8.7 47.66 0.916 7.95 7.99 10.96
12/27/2021 12:45:00 PM 8.72 47.696 0.915 7.96 8.19 11.04
12/27/2021 1:00:00 PM 8.74 47.732 0.916 7.96 7.25 11.1
12/27/2021 1:15:00 PM 8.78 47.804 0.92 7.97 6.68 11.13
12/27/2021 1:30:00 PM 8.83 47.894 0.927 7.97 7.22 11.14
12/27/2021 1:45:00 PM 8.89 48.002 0.937 7.97 6.05 11.16
12/27/2021 2:00:00 PM 8.96 48.128 0.949 7.98 6.56 11.16
12/27/2021 2:15:00 PM 9.02 48.236 0.962 7.98 6.65 11.12
12/27/2021 2:30:00 PM 9.09 48.362 0.974 7.97 6.22 11.09
12/27/2021 2:45:00 PM 9.14 48.452 0.985 7.97 6.03 11.07
12/27/2021 3:00:00 PM 9.2 48.56 0.995 7.97 5.7 11.08
12/27/2021 3:15:00 PM 9.24 48.632 1.004 7.97 5.06 11.05
12/27/2021 3:30:00 PM 9.28 48.704 1.011 7.97 5.53 10.97
12/27/2021 3:45:00 PM 9.32 48.776 1.02 7.97 5.12 10.93
12/27/2021 4:00:00 PM 9.35 48.83 1.029 7.96 4.99 10.86
12/27/2021 4:15:00 PM 9.37 48.866 1.038 7.95 5.15 10.78
12/27/2021 4:30:00 PM 9.4 48.92 1.048 7.95 5.05 10.72
12/27/2021 4:45:00 PM 9.42 48.956 1.057 7.94 4.79 10.65
12/27/2021 5:00:00 PM 9.45 49.01 1.066 7.94 4.98 10.58
12/27/2021 5:15:00 PM 9.48 49.064 1.075 7.93 5.54 10.53
12/27/2021 5:30:00 PM 9.51 49.118 1.082 7.93 7.75 10.47
12/27/2021 5:45:00 PM 9.54 49.172 1.088 7.92 8.26 10.44
12/27/2021 6:00:00 PM 9.56 49.208 1.091 7.92 5.45 10.4
12/27/2021 6:15:00 PM 9.58 49.244 1.092 7.92 5.21 10.35
12/27/2021 6:30:00 PM 9.6 49.28 1.092 7.92 5.69 10.32
12/27/2021 6:45:00 PM 9.61 49.298 1.093 7.91 5.28 10.28
12/27/2021 7:00:00 PM 9.62 49.316 1.096 7.91 5.29 10.24
12/27/2021 7:15:00 PM 9.63 49.334 1.1 7.91 5.33 10.2
12/27/2021 7:30:00 PM 9.64 49.352 1.103 7.9 5.01 10.16
12/27/2021 7:45:00 PM 9.65 49.37 1.104 7.9 5.25 10.12
12/27/2021 8:00:00 PM 9.66 49.388 1.103 7.9 5.54 10.09
12/27/2021 8:15:00 PM 9.65 49.37 1.101 7.89 6.39 10.06
12/27/2021 8:30:00 PM 9.65 49.37 1.098 7.89 4.9 10.02
12/27/2021 8:45:00 PM 9.64 49.352 1.096 7.89 5.23 9.99
12/27/2021 9:00:00 PM 9.64 49.352 1.094 7.88 5.31 9.95
12/27/2021 9:15:00 PM 9.63 49.334 1.091 7.88 4.72 9.92
12/27/2021 9:30:00 PM 9.62 49.316 1.088 7.87 5.17 9.89
12/27/2021 9:45:00 PM 9.61 49.298 1.084 7.87 5.08 9.87
12/27/2021 10:00:00 PM 9.6 49.28 1.08 7.87 5.7 9.84
12/27/2021 10:15:00 PM 9.59 49.262 1.078 7.86 4.91 9.82
12/27/2021 10:30:00 PM 9.58 49.244 1.074 7.86 4.88 9.8
12/27/2021 10:45:00 PM 9.57 49.226 1.072 7.85 5.19 9.79
12/27/2021 11:00:00 PM 9.57 49.226 1.071 7.85 5.48 9.76
12/27/2021 11:15:00 PM 9.56 49.208 1.071 7.84 5.84 9.74
12/27/2021 11:30:00 PM 9.56 49.208 1.071 7.84 5.45 9.72
12/27/2021 11:45:00 PM 9.56 49.208 1.072 7.83 6.57 9.7
12/28/2021 12:00:00 AM 9.56 49.208 1.073 7.82 6.83 9.69
12/28/2021 12:15:00 AM 9.56 49.208 1.073 7.82 5.75 9.67
12/28/2021 12:30:00 AM 9.55 49.19 1.074 7.81 5.84 9.66
12/28/2021 12:45:00 AM 9.54 49.172 1.075 7.81 6.02 9.66
12/28/2021 1:00:00 AM 9.55 49.19 1.078 7.81 6.27 9.65
12/28/2021 1:15:00 AM 9.55 49.19 1.079 7.81 6.11 9.64
12/28/2021 1:30:00 AM 9.55 49.19 1.081 7.8 6.08 9.64
12/28/2021 1:45:00 AM 9.54 49.172 1.082 7.8 5.86 9.64
12/28/2021 2:00:00 AM 9.53 49.154 1.083 7.8 5.4 9.64
12/28/2021 2:15:00 AM 9.53 49.154 1.085 7.8 6.13 9.64
12/28/2021 2:30:00 AM 9.53 49.154 1.086 7.81 6.08 9.64
12/28/2021 2:45:00 AM 9.53 49.154 1.086 7.81 5.49 9.65
12/28/2021 3:00:00 AM 9.52 49.136 1.085 7.81 4.84 9.65
12/28/2021 3:15:00 AM 9.52 49.136 1.084 7.81 5.01 9.65
12/28/2021 3:30:00 AM 9.52 49.136 1.084 7.81 5.58 9.65
12/28/2021 3:45:00 AM 9.53 49.154 1.085 7.81 5.85 9.66
12/28/2021 4:00:00 AM 9.53 49.154 1.085 7.81 5.05 9.65
12/28/2021 4:15:00 AM 9.52 49.136 1.086 7.81 5.43 9.66
12/28/2021 4:30:00 AM 9.5 49.1 1.085 7.81 5.74 9.65
12/28/2021 4:45:00 AM 9.47 49.046 1.082 7.81 4.92 9.66
12/28/2021 5:00:00 AM 9.44 48.992 1.078 7.82 5.59 9.67
12/28/2021 5:15:00 AM 9.4 48.92 1.074 7.82 5.9 9.67
12/28/2021 5:30:00 AM 9.36 48.848 1.069 7.82 6.24 9.68
12/28/2021 5:45:00 AM 9.32 48.776 1.064 7.82 5.86 9.7
12/28/2021 6:00:00 AM 9.29 48.722 1.058 7.82 5.89 9.72
12/28/2021 6:15:00 AM 9.25 48.65 1.05 7.82 5.61 9.73
12/28/2021 6:30:00 AM 9.22 48.596 1.042 7.83 5.86 9.74
12/28/2021 6:45:00 AM 9.19 48.542 1.034 7.83 5.72 9.76
12/28/2021 7:00:00 AM 9.17 48.506 1.026 7.83 5.73 9.74
12/28/2021 7:15:00 AM 9.14 48.452 1.016 7.83 5.63 9.76
12/28/2021 7:30:00 AM 9.11 48.398 1.006 7.83 5.33 9.81
12/28/2021 7:45:00 AM 9.09 48.362 0.995 7.84 6.03 9.86
12/28/2021 8:00:00 AM 9.07 48.326 0.985 7.84 5.69 9.91
12/28/2021 8:15:00 AM 9.05 48.29 0.976 7.85 5.63 9.99
12/28/2021 8:30:00 AM 9.04 48.272 0.967 7.86 5.57 10.09
12/28/2021 8:45:00 AM 9.04 48.272 0.959 7.87 6.41 10.21
12/28/2021 9:00:00 AM 9.02 48.236 0.952 7.88 6.11 10.32
12/28/2021 9:15:00 AM 9 48.2 0.947 7.88 6.39 10.35
12/28/2021 9:30:00 AM 8.99 48.182 0.945 7.88 7.12 10.38
12/28/2021 9:45:00 AM 8.98 48.164 0.944 7.89 6.28 10.44
12/28/2021 10:00:00 AM 9.01 48.218 0.945 7.9 6.62 10.62
12/28/2021 10:15:00 AM 9.04 48.272 0.945 7.91 6.29 10.78
12/28/2021 10:30:00 AM 9.08 48.344 0.945 7.91 6.75 10.87
12/28/2021 10:45:00 AM 9.13 48.434 0.945 7.92 6.11 10.89
12/28/2021 11:00:00 AM 9.17 48.506 0.943 7.92 6.01 10.88
12/28/2021 11:15:00 AM 9.21 48.578 0.943 7.92 5.86 10.86
12/28/2021 11:30:00 AM 9.24 48.632 0.943 7.92 5.7 10.85
12/28/2021 11:45:00 AM 9.26 48.668 0.943 7.92 5.44 10.83
12/28/2021 12:00:00 PM 9.3 48.74 0.945 7.92 5.7 10.85
12/28/2021 12:15:00 PM 9.33 48.794 0.947 7.92 5.6 10.9
12/28/2021 12:30:00 PM 9.37 48.866 0.951 7.93 5.64 10.95
12/28/2021 12:45:00 PM 9.41 48.938 0.957 7.93 5.35 11.02
12/28/2021 1:00:00 PM 9.48 49.064 0.967 7.94 6.13 11.1
12/28/2021 1:15:00 PM 9.54 49.172 0.98 7.95 6.47 11.13
12/28/2021 1:30:00 PM 9.6 49.28 0.996 7.95 5.7 11.08
12/28/2021 1:45:00 PM 9.66 49.388 1.013 7.94 5.8 11
12/28/2021 2:00:00 PM 9.73 49.514 1.031 7.94 5.55 10.96
12/28/2021 2:15:00 PM 9.79 49.622 1.047 7.94 5.67 10.93
12/28/2021 2:30:00 PM 9.85 49.73 1.062 7.94 5.88 10.94
12/28/2021 2:45:00 PM 9.92 49.856 1.075 7.94 5.48 10.92
12/28/2021 3:00:00 PM 9.98 49.964 1.089 7.94 6.14 10.87
12/28/2021 3:15:00 PM 10.05 50.09 1.102 7.94 6 10.81
12/28/2021 3:30:00 PM 10.1 50.18 1.115 7.94 5.7 10.75
12/28/2021 3:45:00 PM 10.16 50.288 1.128 7.94 5.45 10.7
12/28/2021 4:00:00 PM 10.2 50.36 1.141 7.94 4.99 10.64
12/28/2021 4:15:00 PM 10.25 50.45 1.153 7.93 7.21 10.55
12/28/2021 4:30:00 PM 10.28 50.504 1.166 7.92 5.65 10.47
12/28/2021 4:45:00 PM 10.31 50.558 1.177 7.92 7.37 10.4
12/28/2021 5:00:00 PM 10.34 50.612 1.189 7.92 5.22 10.33
12/28/2021 5:15:00 PM 10.37 50.666 1.201 7.91 5.54 10.26
12/28/2021 5:30:00 PM 10.39 50.702 1.217 7.91 5.28 10.19
12/28/2021 5:45:00 PM 10.42 50.756 1.233 7.9 5.62 10.12
12/28/2021 6:00:00 PM 10.45 50.81 1.251 7.9 6.33 10.06
12/28/2021 6:15:00 PM 10.47 50.846 1.266 7.89 5.74 10
12/28/2021 6:30:00 PM 10.5 50.9 1.279 7.89 5.58 9.94
12/28/2021 6:45:00 PM 10.53 50.954 1.289 7.88 5.26 9.89
12/28/2021 7:00:00 PM 10.55 50.99 1.297 7.88 5.99 9.84
12/28/2021 7:15:00 PM 10.56 51.008 1.302 7.88 5.28 9.79
12/28/2021 7:30:00 PM 10.58 51.044 1.304 7.87 4.99 9.75
12/28/2021 7:45:00 PM 10.59 51.062 1.305 7.87 5.35 9.71
12/28/2021 8:00:00 PM 10.59 51.062 1.303 7.86 5.4 9.67
12/28/2021 8:15:00 PM 10.59 51.062 1.298 7.86 5.4 9.64
12/28/2021 8:30:00 PM 10.59 51.062 1.288 7.86 4.99 9.61
12/28/2021 8:45:00 PM 10.58 51.044 1.276 7.86 4.97 9.59
12/28/2021 9:00:00 PM 10.56 51.008 1.263 7.86 4.87 9.57
12/28/2021 9:15:00 PM 10.56 51.008 1.253 7.85 5.42 9.55
12/28/2021 9:30:00 PM 10.55 50.99 1.246 7.85 5.15 9.52
12/28/2021 9:45:00 PM 10.54 50.972 1.242 7.85 4.98 9.5
12/28/2021 10:00:00 PM 10.52 50.936 1.241 7.85 4.94 9.47
12/28/2021 10:15:00 PM 10.52 50.936 1.241 7.84 4.71 9.47
12/28/2021 10:30:00 PM 10.51 50.918 1.243 7.84 5.04 9.46
12/28/2021 10:45:00 PM 10.52 50.936 1.245 7.84 4.84 9.45
12/28/2021 11:00:00 PM 10.52 50.936 1.246 7.84 4.92 9.43
12/28/2021 11:15:00 PM 10.52 50.936 1.246 7.84 5.41 9.42
12/28/2021 11:30:00 PM 10.52 50.936 1.244 7.84 5.45 9.42
12/28/2021 11:45:00 PM 10.51 50.918 1.242 7.84 4.88 9.41
12/29/2021 12:00:00 AM 10.51 50.918 1.24 7.84 4.89 9.41
12/29/2021 12:15:00 AM 10.51 50.918 1.239 7.83 4.7 9.41
12/29/2021 12:30:00 AM 10.51 50.918 1.24 7.83 4.77 9.4
12/29/2021 12:45:00 AM 10.5 50.9 1.24 7.83 5.58 9.4
12/29/2021 1:00:00 AM 10.5 50.9 1.242 7.83 5.24 9.39
12/29/2021 1:15:00 AM 10.5 50.9 1.244 7.83 5.1 9.39
12/29/2021 1:30:00 AM 10.5 50.9 1.246 7.83 5.32 9.39
12/29/2021 1:45:00 AM 10.5 50.9 1.248 7.83 5.17 9.39
12/29/2021 2:00:00 AM 10.5 50.9 1.249 7.83 5.05 9.38
12/29/2021 2:15:00 AM 10.5 50.9 1.249 7.83 5.67 9.38
12/29/2021 2:30:00 AM 10.49 50.882 1.247 7.83 5.57 9.39
12/29/2021 2:45:00 AM 10.48 50.864 1.245 7.83 4.81 9.39
12/29/2021 3:00:00 AM 10.47 50.846 1.243 7.83 4.91 9.39
12/29/2021 3:15:00 AM 10.48 50.864 1.241 7.83 4.86 9.39
12/29/2021 3:30:00 AM 10.48 50.864 1.238 7.84 4.63 9.39
12/29/2021 3:45:00 AM 10.47 50.846 1.235 7.83 4.68 9.39
12/29/2021 4:00:00 AM 10.46 50.828 1.231 7.83 4.54 9.39
12/29/2021 4:15:00 AM 10.46 50.828 1.227 7.84 4.76 9.4
12/29/2021 4:30:00 AM 10.45 50.81 1.223 7.84 4.96 9.4
12/29/2021 4:45:00 AM 10.44 50.792 1.219 7.84 4.89 9.41
12/29/2021 5:00:00 AM 10.44 50.792 1.215 7.84 5.78 9.41
12/29/2021 5:15:00 AM 10.42 50.756 1.21 7.84 5.92 9.42
12/29/2021 5:30:00 AM 10.41 50.738 1.205 7.84 5.73 9.42
12/29/2021 5:45:00 AM 10.4 50.72 1.199 7.84 5.9 9.43
12/29/2021 6:00:00 AM 10.39 50.702 1.191 7.84 5.15 9.44
12/29/2021 6:15:00 AM 10.36 50.648 1.182 7.84 4.91 9.45
12/29/2021 6:30:00 AM 10.34 50.612 1.172 7.84 5.38 9.47
12/29/2021 6:45:00 AM 10.31 50.558 1.161 7.85 5.02 9.48
12/29/2021 7:00:00 AM 10.29 50.522 1.15 7.85 5.08 9.5
12/29/2021 7:15:00 AM 10.26 50.468 1.139 7.84 5.39 9.51
12/29/2021 7:30:00 AM 10.24 50.432 1.129 7.85 5.06 9.53
12/29/2021 7:45:00 AM 10.22 50.396 1.117 7.85 4.89 9.56
12/29/2021 8:00:00 AM 10.2 50.36 1.106 7.86 5.02 9.59
12/29/2021 8:15:00 AM 10.19 50.342 1.095 7.86 5.65 9.69
12/29/2021 8:30:00 AM 10.19 50.342 1.085 7.87 5.87 9.84
12/29/2021 8:45:00 AM 10.19 50.342 1.077 7.88 6.37 9.95
12/29/2021 9:00:00 AM 10.2 50.36 1.07 7.89 6.17 10.02
12/29/2021 9:15:00 AM 10.21 50.378 1.066 7.9 6.16 10.05
12/29/2021 9:30:00 AM 10.23 50.414 1.064 7.9 5.94 10.08
12/29/2021 9:45:00 AM 10.26 50.468 1.064 7.91 6.14 10.19
12/29/2021 10:00:00 AM 10.3 50.54 1.066 7.92 6.01 10.33
12/29/2021 10:15:00 AM 10.34 50.612 1.069 7.92 5.52 10.37
12/29/2021 10:30:00 AM 10.39 50.702 1.071 7.93 5.69 10.43
12/29/2021 10:45:00 AM 10.43 50.774 1.07 7.94 5.53 10.51
12/29/2021 11:00:00 AM 10.49 50.882 1.067 7.94 6 10.6
12/29/2021 11:15:00 AM 10.55 50.99 1.062 7.96 5.59 10.76
12/29/2021 11:30:00 AM 10.62 51.116 1.057 7.97 5.5 10.9
12/29/2021 11:45:00 AM 10.68 51.224 1.051 7.98 5.8 10.95
12/29/2021 12:00:00 PM 10.74 51.332 1.045 7.99 5.91 11
12/29/2021 12:15:00 PM 10.82 51.476 1.041 8 5.73 11.14
12/29/2021 12:30:00 PM 10.9 51.62 1.04 8.01 5.72 11.23
12/29/2021 12:45:00 PM 10.98 51.764 1.045 8.02 5.53 11.31
12/29/2021 1:00:00 PM 11.08 51.944 1.056 8.03 5.5 11.38
12/29/2021 1:15:00 PM 11.17 52.106 1.074 8.04 5.27 11.43
12/29/2021 1:30:00 PM 11.24 52.232 1.096 8.04 5.51 11.39
12/29/2021 1:45:00 PM 11.3 52.34 1.121 8.04 5.76 11.37
12/29/2021 2:00:00 PM 11.38 52.484 1.147 8.04 6.07 11.38
12/29/2021 2:15:00 PM 11.48 52.664 1.175 8.04 5.98 11.43
12/29/2021 2:30:00 PM 11.54 52.772 1.203 8.05 5.67 11.47
12/29/2021 2:45:00 PM 11.58 52.844 1.231 8.04 5.38 11.4
12/29/2021 3:00:00 PM 11.63 52.934 1.255 8.04 5.44 11.33
12/29/2021 3:15:00 PM 11.69 53.042 1.273 8.04 5.48 11.3
12/29/2021 3:30:00 PM 11.76 53.168 1.283 8.04 6.24 11.25
12/29/2021 3:45:00 PM 11.8 53.24 1.289 8.03 6.09 11.13
12/29/2021 4:00:00 PM 11.83 53.294 1.293 8.03 6.05 11.04
12/29/2021 4:15:00 PM 11.86 53.348 1.295 8.02 5.61 10.93
12/29/2021 4:30:00 PM 11.86 53.348 1.298 8.01 5.58 10.81
12/29/2021 4:45:00 PM 11.85 53.33 1.301 8.01 5.73 10.69
12/29/2021 5:00:00 PM 11.84 53.312 1.308 8 6 10.58
12/29/2021 5:15:00 PM 11.83 53.294 1.32 7.99 7.27 10.49
12/29/2021 5:30:00 PM 11.84 53.312 1.337 7.98 6.58 10.42
12/29/2021 5:45:00 PM 11.85 53.33 1.356 7.98 8.91 10.34
12/29/2021 6:00:00 PM 11.86 53.348 1.375 7.97 6.49 10.26
12/29/2021 6:15:00 PM 11.87 53.366 1.389 7.96 5.89 10.19
12/29/2021 6:30:00 PM 11.88 53.384 1.401 7.96 5.7 10.12
12/29/2021 6:45:00 PM 11.89 53.402 1.409 7.95 5.8 10.06
12/29/2021 7:00:00 PM 11.89 53.402 1.414 7.94 5.96 9.99
12/29/2021 7:15:00 PM 11.89 53.402 1.417 7.94 6.39 9.93
12/29/2021 7:30:00 PM 11.88 53.384 1.419 7.93 5.76 9.87
12/29/2021 7:45:00 PM 11.87 53.366 1.418 7.93 6.15 9.81
12/29/2021 8:00:00 PM 11.85 53.33 1.414 7.92 5.75 9.75
12/29/2021 8:15:00 PM 11.83 53.294 1.406 7.91 5.64 9.69
12/29/2021 8:30:00 PM 11.8 53.24 1.392 7.91 5.79 9.64
12/29/2021 8:45:00 PM 11.76 53.168 1.376 7.9 5.39 9.59
12/29/2021 9:00:00 PM 11.72 53.096 1.359 7.9 5.88 9.54
12/29/2021 9:15:00 PM 11.68 53.024 1.344 7.89 6.32 9.5
12/29/2021 9:30:00 PM 11.63 52.934 1.331 7.88 6.16 9.46
12/29/2021 9:45:00 PM 11.59 52.862 1.321 7.88 5.94 9.42
12/29/2021 10:00:00 PM 11.56 52.808 1.315 7.87 5.83 9.39
12/29/2021 10:15:00 PM 11.53 52.754 1.313 7.87 6.4 9.35
12/29/2021 10:30:00 PM 11.5 52.7 1.313 7.86 6.44 9.31
12/29/2021 10:45:00 PM 11.48 52.664 1.316 7.85 5.47 9.28
12/29/2021 11:00:00 PM 11.46 52.628 1.319 7.85 5.88 9.25
12/29/2021 11:15:00 PM 11.45 52.61 1.322 7.84 6.45 9.23
12/29/2021 11:30:00 PM 11.44 52.592 1.325 7.84 5.67 9.21
12/29/2021 11:45:00 PM 11.44 52.592 1.327 7.84 5.78 9.2
12/30/2021 12:00:00 AM 11.43 52.574 1.327 7.83 5.77 9.19
12/30/2021 12:15:00 AM 11.43 52.574 1.326 7.83 5.81 9.18
12/30/2021 12:30:00 AM 11.42 52.556 1.323 7.83 5.61 9.18
12/30/2021 12:45:00 AM 11.41 52.538 1.321 7.83 5.75 9.18
12/30/2021 1:00:00 AM 11.4 52.52 1.319 7.83 5.83 9.19
12/30/2021 1:15:00 AM 11.39 52.502 1.32 7.83 5.63 9.19
12/30/2021 1:30:00 AM 11.38 52.484 1.321 7.83 5.48 9.2
12/30/2021 1:45:00 AM 11.37 52.466 1.323 7.82 5.35 9.19
12/30/2021 2:00:00 AM 11.36 52.448 1.323 7.82 6.23 9.19
12/30/2021 2:15:00 AM 11.35 52.43 1.322 7.82 5.44 9.19
12/30/2021 2:30:00 AM 11.34 52.412 1.319 7.82 6.03 9.19
12/30/2021 2:45:00 AM 11.33 52.394 1.316 7.82 5.78 9.19
12/30/2021 3:00:00 AM 11.31 52.358 1.312 7.82 5.77 9.19
12/30/2021 3:15:00 AM 11.3 52.34 1.308 7.82 5.87 9.19
12/30/2021 3:30:00 AM 11.29 52.322 1.304 7.81 5.51 9.19
12/30/2021 3:45:00 AM 11.28 52.304 1.298 7.81 5.97 9.19
12/30/2021 4:00:00 AM 11.27 52.286 1.293 7.81 5.73 9.19
12/30/2021 4:15:00 AM 11.26 52.268 1.287 7.81 5.76 9.19
12/30/2021 4:30:00 AM 11.26 52.268 1.281 7.81 5.86 9.18
12/30/2021 4:45:00 AM 11.25 52.25 1.275 7.81 5.88 9.19
12/30/2021 5:00:00 AM 11.25 52.25 1.268 7.81 6.07 9.18
12/30/2021 5:15:00 AM 11.25 52.25 1.259 7.81 6.57 9.18
12/30/2021 5:30:00 AM 11.25 52.25 1.249 7.81 6.47 9.19
12/30/2021 5:45:00 AM 11.25 52.25 1.237 7.81 6.78 9.19
12/30/2021 6:00:00 AM 11.24 52.232 1.226 7.81 6.74 9.2
12/30/2021 6:15:00 AM 11.24 52.232 1.216 7.81 6.98 9.21
12/30/2021 6:30:00 AM 11.23 52.214 1.204 7.81 6.79 9.21
12/30/2021 6:45:00 AM 11.22 52.196 1.19 7.81 6.58 9.23
12/30/2021 7:00:00 AM 11.21 52.178 1.177 7.82 7.15 9.24
12/30/2021 7:15:00 AM 11.2 52.16 1.161 7.82 7.08 9.26
12/30/2021 7:30:00 AM 11.18 52.124 1.147 7.82 6.97 9.27
12/30/2021 7:45:00 AM 11.16 52.088 1.133 7.82 6.31 9.3
12/30/2021 8:00:00 AM 11.15 52.07 1.119 7.82 7.14 9.33
12/30/2021 8:15:00 AM 11.14 52.052 1.106 7.83 6.76 9.39
12/30/2021 8:30:00 AM 11.13 52.034 1.095 7.84 7.91 9.48
12/30/2021 8:45:00 AM 11.13 52.034 1.085 7.84 8.11 9.57
12/30/2021 9:00:00 AM 11.13 52.034 1.078 7.85 8.33 9.65
12/30/2021 9:15:00 AM 11.15 52.07 1.071 7.86 8.5 9.73
12/30/2021 9:30:00 AM 11.17 52.106 1.068 7.87 7.86 9.84
12/30/2021 9:45:00 AM 11.2 52.16 1.066 7.88 7.66 9.99
12/30/2021 10:00:00 AM 11.23 52.214 1.066 7.89 7.61 10.07
12/30/2021 10:15:00 AM 11.26 52.268 1.068 7.89 7.24 10.06
12/30/2021 10:30:00 AM 11.29 52.322 1.068 7.88 6.78 10.02
12/30/2021 10:45:00 AM 11.33 52.394 1.067 7.89 6.96 10.15
12/30/2021 11:00:00 AM 11.38 52.484 1.065 7.9 6.91 10.31
12/30/2021 11:15:00 AM 11.42 52.556 1.06 7.9 7.59 10.39
12/30/2021 11:30:00 AM 11.46 52.628 1.054 7.9 7.12 10.4
12/30/2021 11:45:00 AM 11.51 52.718 1.046 7.9 7.78 10.47
12/30/2021 12:00:00 PM 11.56 52.808 1.037 7.9 7.76 10.53
12/30/2021 12:15:00 PM 11.63 52.934 1.03 7.9 7.95 10.64
12/30/2021 12:30:00 PM 11.69 53.042 1.028 7.9 7.91 10.69
12/30/2021 12:45:00 PM 11.73 53.114 1.032 7.9 7.5 10.66
12/30/2021 1:00:00 PM 11.78 53.204 1.042 7.9 8.12 10.64
12/30/2021 1:15:00 PM 11.84 53.312 1.06 7.9 7.86 10.62
12/30/2021 1:30:00 PM 11.92 53.456 1.086 7.91 8.2 10.69
12/30/2021 1:45:00 PM 11.99 53.582 1.117 7.91 7.83 10.73
12/30/2021 2:00:00 PM 12.07 53.726 1.151 7.91 7.26 10.69
12/30/2021 2:15:00 PM 12.14 53.852 1.184 7.91 6.96 10.61
12/30/2021 2:30:00 PM 12.22 53.996 1.215 7.91 7.11 10.56
12/30/2021 2:45:00 PM 12.29 54.122 1.244 7.91 7.42 10.51
12/30/2021 3:00:00 PM 12.36 54.248 1.274 7.91 7.47 10.46
12/30/2021 3:15:00 PM 12.43 54.374 1.304 7.91 7.11 10.37
12/30/2021 3:30:00 PM 12.49 54.482 1.333 7.91 7.69 10.29
12/30/2021 3:45:00 PM 12.56 54.608 1.359 7.91 7.53 10.24
12/30/2021 4:00:00 PM 12.62 54.716 1.384 7.91 7.64 10.2
12/30/2021 4:15:00 PM 12.67 54.806 1.404 7.9 7.89 10.13
12/30/2021 4:30:00 PM 12.72 54.896 1.422 7.9 8.34 10.05
12/30/2021 4:45:00 PM 12.77 54.986 1.435 7.9 8.15 9.95
12/30/2021 5:00:00 PM 12.8 55.04 1.444 7.89 9.3 9.86
12/30/2021 5:15:00 PM 12.81 55.058 1.453 7.89 9.14 9.77
12/30/2021 5:30:00 PM 12.83 55.094 1.459 7.88 9.3 9.69
12/30/2021 5:45:00 PM 12.84 55.112 1.465 7.88 9.23 9.61
12/30/2021 6:00:00 PM 12.84 55.112 1.47 7.87 7.29 9.54
12/30/2021 6:15:00 PM 12.84 55.112 1.474 7.87 7.51 9.48
12/30/2021 6:30:00 PM 12.84 55.112 1.473 7.86 6.53 9.42
12/30/2021 6:45:00 PM 12.83 55.094 1.466 7.86 6.63 9.35
12/30/2021 7:00:00 PM 12.82 55.076 1.453 7.86 6.34 9.3
12/30/2021 7:15:00 PM 12.8 55.04 1.436 7.85 6.48 9.26
12/30/2021 7:30:00 PM 12.77 54.986 1.418 7.85 6.41 9.22
12/30/2021 7:45:00 PM 12.75 54.95 1.403 7.85 6.04 9.18
12/30/2021 8:00:00 PM 12.72 54.896 1.397 7.84 6.56 9.14
12/30/2021 8:15:00 PM 12.7 54.86 1.397 7.84 6.1 9.11
12/30/2021 8:30:00 PM 12.69 54.842 1.401 7.84 6.21 9.07
12/30/2021 8:45:00 PM 12.67 54.806 1.403 7.83 6.42 9.04
12/30/2021 9:00:00 PM 12.66 54.788 1.399 7.83 6.37 9.01
12/30/2021 9:15:00 PM 12.64 54.752 1.388 7.83 6.47 8.99
12/30/2021 9:30:00 PM 12.62 54.716 1.371 7.82 6.68 8.97
12/30/2021 9:45:00 PM 12.59 54.662 1.352 7.82 6.53 8.97
12/30/2021 10:00:00 PM 12.56 54.608 1.334 7.82 6.52 8.96
12/30/2021 10:15:00 PM 12.53 54.554 1.32 7.82 5.92 8.95
12/30/2021 10:30:00 PM 12.51 54.518 1.31 7.82 6.01 8.95
12/30/2021 10:45:00 PM 12.49 54.482 1.304 7.82 5.99 8.93
12/30/2021 11:00:00 PM 12.47 54.446 1.299 7.82 5.72 8.93
12/30/2021 11:15:00 PM 12.45 54.41 1.295 7.82 5.86 8.92
12/30/2021 11:30:00 PM 12.43 54.374 1.293 7.82 5.92 8.92
12/30/2021 11:45:00 PM 12.41 54.338 1.292 7.82 5.93 8.91
12/31/2021 12:00:00 AM 12.4 54.32 1.292 7.82 5.93 8.91
12/31/2021 12:15:00 AM 12.38 54.284 1.294 7.82 6.06 8.91
12/31/2021 12:30:00 AM 12.36 54.248 1.295 7.81 6.12 8.9
12/31/2021 12:45:00 AM 12.35 54.23 1.297 7.81 5.53 8.9
12/31/2021 1:00:00 AM 12.33 54.194 1.3 7.81 5.95 8.9
12/31/2021 1:15:00 AM 12.31 54.158 1.302 7.81 5.69 8.9
12/31/2021 1:30:00 AM 12.3 54.14 1.304 7.81 5.84 8.9
12/31/2021 1:45:00 AM 12.29 54.122 1.306 7.81 5.89 8.9
12/31/2021 2:00:00 AM 12.28 54.104 1.306 7.81 6.04 8.9
12/31/2021 2:15:00 AM 12.27 54.086 1.304 7.81 5.93 8.91
12/31/2021 2:30:00 AM 12.25 54.05 1.302 7.81 5.66 8.91
12/31/2021 2:45:00 AM 12.24 54.032 1.298 7.81 5.78 8.92
12/31/2021 3:00:00 AM 12.23 54.014 1.294 7.81 6.17 8.91
12/31/2021 3:15:00 AM 12.22 53.996 1.29 7.81 6.16 8.92
12/31/2021 3:30:00 AM 12.2 53.96 1.285 7.81 6.38 8.92
12/31/2021 3:45:00 AM 12.19 53.942 1.279 7.81 6.6 8.93
12/31/2021 4:00:00 AM 12.17 53.906 1.273 7.81 6.96 8.94
12/31/2021 4:15:00 AM 12.15 53.87 1.268 7.81 7.32 8.94
12/31/2021 4:30:00 AM 12.14 53.852 1.262 7.81 7.19 8.95
12/31/2021 4:45:00 AM 12.12 53.816 1.257 7.82 7.93 8.95
12/31/2021 5:00:00 AM 12.1 53.78 1.251 7.82 8 8.96
12/31/2021 5:15:00 AM 12.09 53.762 1.246 7.82 7.72 8.96
12/31/2021 5:30:00 AM 12.07 53.726 1.24 7.81 7.74 8.97
12/31/2021 5:45:00 AM 12.06 53.708 1.233 7.82 7.94 8.98
12/31/2021 6:00:00 AM 12.04 53.672 1.225 7.82 8.16 8.99
12/31/2021 6:15:00 AM 12.02 53.636 1.216 7.82 8.31 9
12/31/2021 6:30:00 AM 12 53.6 1.205 7.82 8.72 9.01
12/31/2021 6:45:00 AM 11.97 53.546 1.195 7.82 8.6 9.03
12/31/2021 7:00:00 AM 11.95 53.51 1.184 7.83 7.83 9.04
12/31/2021 7:15:00 AM 11.93 53.474 1.173 7.83 7.56 9.05
12/31/2021 7:30:00 AM 11.91 53.438 1.161 7.83 7.76 9.07
12/31/2021 7:45:00 AM 11.89 53.402 1.15 7.83 7.32 9.1
12/31/2021 8:00:00 AM 11.87 53.366 1.136 7.83 7.86 9.14
12/31/2021 8:15:00 AM 11.85 53.33 1.121 7.84 7.68 9.19
12/31/2021 8:30:00 AM 11.82 53.276 1.102 7.84 7.2 9.27
12/31/2021 8:45:00 AM 11.79 53.222 1.084 7.85 8 9.36
12/31/2021 9:00:00 AM 11.77 53.186 1.069 7.86 8.43 9.41
12/31/2021 9:15:00 AM 11.76 53.168 1.06 7.86 7.29 9.43
12/31/2021 9:30:00 AM 11.75 53.15 1.055 7.86 7.02 9.45
12/31/2021 9:45:00 AM 11.76 53.168 1.052 7.86 7.45 9.46
12/31/2021 10:00:00 AM 11.77 53.186 1.052 7.87 7.35 9.5
12/31/2021 10:15:00 AM 11.78 53.204 1.053 7.87 6.91 9.54
12/31/2021 10:30:00 AM 11.8 53.24 1.054 7.87 7.67 9.59
12/31/2021 10:45:00 AM 11.82 53.276 1.055 7.88 7.66 9.67
12/31/2021 11:00:00 AM 11.85 53.33 1.055 7.88 7.7 9.72
12/31/2021 11:15:00 AM 11.87 53.366 1.054 7.89 8.94 9.75
12/31/2021 11:30:00 AM 11.89 53.402 1.05 7.89 9.21 9.76
12/31/2021 11:45:00 AM 11.92 53.456 1.044 7.89 8.06 9.84
12/31/2021 12:00:00 PM 11.94 53.492 1.036 7.9 7.35 9.93
12/31/2021 12:15:00 PM 11.96 53.528 1.028 7.91 6.95 9.98
12/31/2021 12:30:00 PM 11.98 53.564 1.021 7.92 7.31 10.05
12/31/2021 12:45:00 PM 12 53.6 1.016 7.92 7.93 10.12
12/31/2021 1:00:00 PM 12.04 53.672 1.015 7.93 7.42 10.22
12/31/2021 1:15:00 PM 12.06 53.708 1.021 7.93 7.92 10.22
12/31/2021 1:30:00 PM 12.1 53.78 1.036 7.93 7.49 10.2
12/31/2021 1:45:00 PM 12.13 53.834 1.062 7.93 7.29 10.14
12/31/2021 2:00:00 PM 12.18 53.924 1.095 7.92 7 10.09
12/31/2021 2:15:00 PM 12.24 54.032 1.129 7.92 7.2 10.08
12/31/2021 2:30:00 PM 12.29 54.122 1.159 7.91 7.16 10.06
12/31/2021 2:45:00 PM 12.35 54.23 1.181 7.91 6.87 10.07
12/31/2021 3:00:00 PM 12.41 54.338 1.195 7.92 6.59 10.11
12/31/2021 3:15:00 PM 12.46 54.428 1.203 7.92 6.95 10.12
12/31/2021 3:30:00 PM 12.51 54.518 1.21 7.92 7.21 10.18
12/31/2021 3:45:00 PM 12.55 54.59 1.216 7.93 7.34 10.18
12/31/2021 4:00:00 PM 12.58 54.644 1.223 7.92 6.87 10.14
12/31/2021 4:15:00 PM 12.61 54.698 1.23 7.93 6.95 10.12
12/31/2021 4:30:00 PM 12.63 54.734 1.236 7.92 6.72 10.03
12/31/2021 4:45:00 PM 12.64 54.752 1.24 7.91 6.49 9.91
12/31/2021 5:00:00 PM 12.65 54.77 1.241 7.9 7 9.81
12/31/2021 5:15:00 PM 12.65 54.77 1.24 7.9 6.48 9.75
12/31/2021 5:30:00 PM 12.65 54.77 1.238 7.9 6.97 9.71
12/31/2021 5:45:00 PM 12.65 54.77 1.235 7.89 6.62 9.67
12/31/2021 6:00:00 PM 12.65 54.77 1.233 7.89 7.03 9.64
12/31/2021 6:15:00 PM 12.64 54.752 1.23 7.89 6.64 9.61
12/31/2021 6:30:00 PM 12.64 54.752 1.226 7.89 6.21 9.58
12/31/2021 6:45:00 PM 12.64 54.752 1.222 7.88 6.37 9.54
12/31/2021 7:00:00 PM 12.63 54.734 1.218 7.88 6.13 9.51
12/31/2021 7:15:00 PM 12.62 54.716 1.214 7.88 5.92 9.47
12/31/2021 7:30:00 PM 12.61 54.698 1.212 7.87 5.83 9.43
12/31/2021 7:45:00 PM 12.59 54.662 1.209 7.87 5.72 9.39
12/31/2021 8:00:00 PM 12.59 54.662 1.206 7.87 6.18 9.35
12/31/2021 8:15:00 PM 12.58 54.644 1.203 7.86 6.01 9.32
12/31/2021 8:30:00 PM 12.57 54.626 1.199 7.86 6.08 9.29
12/31/2021 8:45:00 PM 12.56 54.608 1.196 7.86 6.75 9.25
12/31/2021 9:00:00 PM 12.55 54.59 1.194 7.85 6 9.22
12/31/2021 9:15:00 PM 12.54 54.572 1.192 7.85 5.7 9.19
12/31/2021 9:30:00 PM 12.53 54.554 1.19 7.85 5.63 9.15
12/31/2021 9:45:00 PM 12.52 54.536 1.188 7.84 5.71 9.12
12/31/2021 10:00:00 PM 12.5 54.5 1.187 7.84 6.02 9.09
12/31/2021 10:15:00 PM 12.49 54.482 1.185 7.84 5.59 9.06
12/31/2021 10:30:00 PM -99999.99 -179968 -99999.99 -99999.99 -99999.99 -99999.99
12/31/2021 10:45:00 PM -99999.99 -179968 -99999.99 -99999.99 -99999.99 -99999.99
12/31/2021 11:00:00 PM -99999.99 -179968 -99999.99 -99999.99 -99999.99 -99999.99
12/31/2021 11:15:00 PM -99999.99 -179968 -99999.99 -99999.99 -99999.99 -99999.99
12/31/2021 11:30:00 PM -99999.99 -179968 -99999.99 -99999.99 -99999.99 -99999.99
12/31/2021 11:45:00 PM -99999.99 -179968 -99999.99 -99999.99 -99999.99 -99999.99
1/1/2022 12:00:00 AM -99999.99 -179968 -99999.99 -99999.99 -99999.99 -99999.99
1/1/2022 12:15:00 AM -99999.99 -179968 -99999.99 -99999.99 -99999.99 -99999.99
1/1/2022 12:30:00 AM -99999.99 -179968 -99999.99 -99999.99 -99999.99 -99999.99
1/1/2022 12:45:00 AM -99999.99 -179968 -99999.99 -99999.99 -99999.99 -99999.99
1/1/2022 1:00:00 AM -99999.99 -179968 -99999.99 -99999.99 -99999.99 -99999.99
1/1/2022 1:15:00 AM -99999.99 -179968 -99999.99 -99999.99 -99999.99 -99999.99
1/1/2022 1:30:00 AM -99999.99 -179968 -99999.99 -99999.99 -99999.99 -99999.99
1/1/2022 1:45:00 AM -99999.99 -179968 -99999.99 -99999.99 -99999.99 -99999.99
1/1/2022 2:00:00 AM -99999.99 -179968 -99999.99 -99999.99 -99999.99 -99999.99
1/1/2022 2:15:00 AM -99999.99 -179968 -99999.99 -99999.99 -99999.99 -99999.99
1/1/2022 2:30:00 AM -99999.99 -179968 -99999.99 -99999.99 -99999.99 -99999.99
1/1/2022 2:45:00 AM -99999.99 -179968 -99999.99 -99999.99 -99999.99 -99999.99
1/1/2022 3:00:00 AM -99999.99 -179968 -99999.99 -99999.99 -99999.99 -99999.99
1/1/2022 3:15:00 AM -99999.99 -179968 -99999.99 -99999.99 -99999.99 -99999.99
1/1/2022 3:30:00 AM -99999.99 -179968 -99999.99 -99999.99 -99999.99 -99999.99
1/1/2022 3:45:00 AM -99999.99 -179968 -99999.99 -99999.99 -99999.99 -99999.99
1/1/2022 4:00:00 AM -99999.99 -179968 -99999.99 -99999.99 -99999.99 -99999.99
1/1/2022 4:15:00 AM -99999.99 -179968 -99999.99 -99999.99 -99999.99 -99999.99
1/1/2022 4:30:00 AM -99999.99 -179968 -99999.99 -99999.99 -99999.99 -99999.99
1/1/2022 4:45:00 AM -99999.99 -179968 -99999.99 -99999.99 -99999.99 -99999.99
1/1/2022 5:00:00 AM -99999.99 -179968 -99999.99 -99999.99 -99999.99 -99999.99
1/1/2022 5:15:00 AM -99999.99 -179968 -99999.99 -99999.99 -99999.99 -99999.99
1/1/2022 5:30:00 AM -99999.99 -179968 -99999.99 -99999.99 -99999.99 -99999.99
1/1/2022 5:45:00 AM -99999.99 -179968 -99999.99 -99999.99 -99999.99 -99999.99
1/1/2022 6:00:00 AM -99999.99 -179968 -99999.99 -99999.99 -99999.99 -99999.99
1/1/2022 6:15:00 AM -99999.99 -179968 -99999.99 -99999.99 -99999.99 -99999.99
1/1/2022 6:30:00 AM -99999.99 -179968 -99999.99 -99999.99 -99999.99 -99999.99
1/1/2022 6:45:00 AM -99999.99 -179968 -99999.99 -99999.99 -99999.99 -99999.99
1/1/2022 7:00:00 AM -99999.99 -179968 -99999.99 -99999.99 -99999.99 -99999.99
1/1/2022 7:15:00 AM -99999.99 -179968 -99999.99 -99999.99 -99999.99 -99999.99
1/1/2022 7:30:00 AM -99999.99 -179968 -99999.99 -99999.99 -99999.99 -99999.99
1/1/2022 7:45:00 AM -99999.99 -179968 -99999.99 -99999.99 -99999.99 -99999.99
1/1/2022 8:00:00 AM -99999.99 -179968 -99999.99 -99999.99 -99999.99 -99999.99
1/1/2022 8:15:00 AM -99999.99 -179968 -99999.99 -99999.99 -99999.99 -99999.99
1/1/2022 8:30:00 AM -99999.99 -179968 -99999.99 -99999.99 -99999.99 -99999.99
1/1/2022 8:45:00 AM -99999.99 -179968 -99999.99 -99999.99 -99999.99 -99999.99
1/1/2022 9:00:00 AM -99999.99 -179968 -99999.99 -99999.99 -99999.99 -99999.99
1/1/2022 9:15:00 AM -99999.99 -179968 -99999.99 -99999.99 -99999.99 -99999.99
1/1/2022 9:30:00 AM -99999.99 -179968 -99999.99 -99999.99 -99999.99 -99999.99
1/1/2022 9:45:00 AM -99999.99 -179968 -99999.99 -99999.99 -99999.99 -99999.99
1/1/2022 10:00:00 AM -99999.99 -179968 -99999.99 -99999.99 -99999.99 -99999.99
1/1/2022 10:15:00 AM -99999.99 -179968 -99999.99 -99999.99 -99999.99 -99999.99
1/1/2022 10:30:00 AM -99999.99 -179968 -99999.99 -99999.99 -99999.99 -99999.99
1/1/2022 10:45:00 AM -99999.99 -179968 -99999.99 -99999.99 -99999.99 -99999.99
1/1/2022 11:00:00 AM -99999.99 -179968 -99999.99 -99999.99 -99999.99 -99999.99
1/1/2022 11:15:00 AM -99999.99 -179968 -99999.99 -99999.99 -99999.99 -99999.99
1/1/2022 11:30:00 AM -99999.99 -179968 -99999.99 -99999.99 -99999.99 -99999.99
1/1/2022 11:45:00 AM -99999.99 -179968 -99999.99 -99999.99 -99999.99 -99999.99
1/1/2022 12:00:00 PM -99999.99 -179968 -99999.99 -99999.99 -99999.99 -99999.99
1/1/2022 12:15:00 PM -99999.99 -179968 -99999.99 -99999.99 -99999.99 -99999.99
1/1/2022 12:30:00 PM -99999.99 -179968 -99999.99 -99999.99 -99999.99 -99999.99
1/1/2022 12:45:00 PM -99999.99 -179968 -99999.99 -99999.99 -99999.99 -99999.99
1/1/2022 1:00:00 PM -99999.99 -179968 -99999.99 -99999.99 -99999.99 -99999.99
1/1/2022 1:15:00 PM -99999.99 -179968 -99999.99 -99999.99 -99999.99 -99999.99
1/1/2022 1:30:00 PM -99999.99 -179968 -99999.99 -99999.99 -99999.99 -99999.99
1/1/2022 1:45:00 PM -99999.99 -179968 -99999.99 -99999.99 -99999.99 -99999.99
1/1/2022 2:00:00 PM -99999.99 -179968 -99999.99 -99999.99 -99999.99 -99999.99
1/1/2022 2:15:00 PM -99999.99 -179968 -99999.99 -99999.99 -99999.99 -99999.99
1/1/2022 2:30:00 PM -99999.99 -179968 -99999.99 -99999.99 -99999.99 -99999.99
1/1/2022 2:45:00 PM -99999.99 -179968 -99999.99 -99999.99 -99999.99 -99999.99
1/1/2022 3:00:00 PM -99999.99 -179968 -99999.99 -99999.99 -99999.99 -99999.99
1/1/2022 3:15:00 PM -99999.99 -179968 -99999.99 -99999.99 -99999.99 -99999.99
1/1/2022 3:30:00 PM -99999.99 -179968 -99999.99 -99999.99 -99999.99 -99999.99
1/1/2022 3:45:00 PM -99999.99 -179968 -99999.99 -99999.99 -99999.99 -99999.99
1/1/2022 4:00:00 PM -99999.99 -179968 -99999.99 -99999.99 -99999.99 -99999.99
1/1/2022 4:15:00 PM -99999.99 -179968 -99999.99 -99999.99 -99999.99 -99999.99
1/1/2022 4:30:00 PM -99999.99 -179968 -99999.99 -99999.99 -99999.99 -99999.99
1/1/2022 4:45:00 PM -99999.99 -179968 -99999.99 -99999.99 -99999.99 -99999.99
1/1/2022 5:00:00 PM -99999.99 -179968 -99999.99 -99999.99 -99999.99 -99999.99
1/1/2022 5:15:00 PM -99999.99 -179968 -99999.99 -99999.99 -99999.99 -99999.99
1/1/2022 5:30:00 PM -99999.99 -179968 -99999.99 -99999.99 -99999.99 -99999.99
1/1/2022 5:45:00 PM -99999.99 -179968 -99999.99 -99999.99 -99999.99 -99999.99
1/1/2022 6:00:00 PM -99999.99 -179968 -99999.99 -99999.99 -99999.99 -99999.99
1/1/2022 6:15:00 PM -99999.99 -179968 -99999.99 -99999.99 -99999.99 -99999.99
1/1/2022 6:30:00 PM -99999.99 -179968 -99999.99 -99999.99 -99999.99 -99999.99
1/1/2022 6:45:00 PM -99999.99 -179968 -99999.99 -99999.99 -99999.99 -99999.99
1/1/2022 7:00:00 PM -99999.99 -179968 -99999.99 -99999.99 -99999.99 -99999.99
1/1/2022 7:15:00 PM -99999.99 -179968 -99999.99 -99999.99 -99999.99 -99999.99
1/1/2022 7:30:00 PM -99999.99 -179968 -99999.99 -99999.99 -99999.99 -99999.99
1/1/2022 7:45:00 PM -99999.99 -179968 -99999.99 -99999.99 -99999.99 -99999.99
1/1/2022 8:00:00 PM -99999.99 -179968 -99999.99 -99999.99 -99999.99 -99999.99
1/1/2022 8:15:00 PM -99999.99 -179968 -99999.99 -99999.99 -99999.99 -99999.99
1/1/2022 8:30:00 PM -99999.99 -179968 -99999.99 -99999.99 -99999.99 -99999.99
1/1/2022 8:45:00 PM -99999.99 -179968 -99999.99 -99999.99 -99999.99 -99999.99
1/1/2022 9:00:00 PM -99999.99 -179968 -99999.99 -99999.99 -99999.99 -99999.99
1/1/2022 9:15:00 PM -99999.99 -179968 -99999.99 -99999.99 -99999.99 -99999.99
1/1/2022 9:30:00 PM -99999.99 -179968 -99999.99 -99999.99 -99999.99 -99999.99
1/1/2022 9:45:00 PM -99999.99 -179968 -99999.99 -99999.99 -99999.99 -99999.99
1/1/2022 10:00:00 PM -99999.99 -179968 -99999.99 -99999.99 -99999.99 -99999.99
1/1/2022 10:15:00 PM -99999.99 -179968 -99999.99 -99999.99 -99999.99 -99999.99
1/1/2022 10:30:00 PM -99999.99 -179968 -99999.99 -99999.99 -99999.99 -99999.99
1/1/2022 10:45:00 PM -99999.99 -179968 -99999.99 -99999.99 -99999.99 -99999.99
1/1/2022 11:00:00 PM -99999.99 -179968 -99999.99 -99999.99 -99999.99 -99999.99
1/1/2022 11:15:00 PM -99999.99 -179968 -99999.99 -99999.99 -99999.99 -99999.99
1/1/2022 11:30:00 PM -99999.99 -179968 -99999.99 -99999.99 -99999.99 -99999.99
1/1/2022 11:45:00 PM -99999.99 -179968 -99999.99 -99999.99 -99999.99 -99999.99
1/2/2022 12:00:00 AM -99999.99 -179968 -99999.99 -99999.99 -99999.99 -99999.99
1/2/2022 12:15:00 AM -99999.99 -179968 -99999.99 -99999.99 -99999.99 -99999.99
1/2/2022 12:30:00 AM -99999.99 -179968 -99999.99 -99999.99 -99999.99 -99999.99
1/2/2022 12:45:00 AM -99999.99 -179968 -99999.99 -99999.99 -99999.99 -99999.99
1/2/2022 1:00:00 AM -99999.99 -179968 -99999.99 -99999.99 -99999.99 -99999.99
1/2/2022 1:15:00 AM -99999.99 -179968 -99999.99 -99999.99 -99999.99 -99999.99
1/2/2022 1:30:00 AM -99999.99 -179968 -99999.99 -99999.99 -99999.99 -99999.99
1/2/2022 1:45:00 AM -99999.99 -179968 -99999.99 -99999.99 -99999.99 -99999.99
1/2/2022 2:00:00 AM -99999.99 -179968 -99999.99 -99999.99 -99999.99 -99999.99
1/2/2022 2:15:00 AM -99999.99 -179968 -99999.99 -99999.99 -99999.99 -99999.99
1/2/2022 2:30:00 AM -99999.99 -179968 -99999.99 -99999.99 -99999.99 -99999.99
1/2/2022 2:45:00 AM -99999.99 -179968 -99999.99 -99999.99 -99999.99 -99999.99
1/2/2022 3:00:00 AM -99999.99 -179968 -99999.99 -99999.99 -99999.99 -99999.99
1/2/2022 3:15:00 AM -99999.99 -179968 -99999.99 -99999.99 -99999.99 -99999.99
1/2/2022 3:30:00 AM -99999.99 -179968 -99999.99 -99999.99 -99999.99 -99999.99
1/2/2022 3:45:00 AM -99999.99 -179968 -99999.99 -99999.99 -99999.99 -99999.99
1/2/2022 4:00:00 AM -99999.99 -179968 -99999.99 -99999.99 -99999.99 -99999.99
1/2/2022 4:15:00 AM -99999.99 -179968 -99999.99 -99999.99 -99999.99 -99999.99
1/2/2022 4:30:00 AM -99999.99 -179968 -99999.99 -99999.99 -99999.99 -99999.99
1/2/2022 4:45:00 AM -99999.99 -179968 -99999.99 -99999.99 -99999.99 -99999.99
1/2/2022 5:00:00 AM -99999.99 -179968 -99999.99 -99999.99 -99999.99 -99999.99
1/2/2022 5:15:00 AM -99999.99 -179968 -99999.99 -99999.99 -99999.99 -99999.99
1/2/2022 5:30:00 AM -99999.99 -179968 -99999.99 -99999.99 -99999.99 -99999.99
1/2/2022 5:45:00 AM -99999.99 -179968 -99999.99 -99999.99 -99999.99 -99999.99
1/2/2022 6:00:00 AM -99999.99 -179968 -99999.99 -99999.99 -99999.99 -99999.99
1/2/2022 6:15:00 AM -99999.99 -179968 -99999.99 -99999.99 -99999.99 -99999.99
1/2/2022 6:30:00 AM -99999.99 -179968 -99999.99 -99999.99 -99999.99 -99999.99
1/2/2022 6:45:00 AM -99999.99 -179968 -99999.99 -99999.99 -99999.99 -99999.99
1/2/2022 7:00:00 AM -99999.99 -179968 -99999.99 -99999.99 -99999.99 -99999.99
1/2/2022 7:15:00 AM -99999.99 -179968 -99999.99 -99999.99 -99999.99 -99999.99
1/2/2022 7:30:00 AM -99999.99 -179968 -99999.99 -99999.99 -99999.99 -99999.99
1/2/2022 7:45:00 AM -99999.99 -179968 -99999.99 -99999.99 -99999.99 -99999.99
1/2/2022 8:00:00 AM -99999.99 -179968 -99999.99 -99999.99 -99999.99 -99999.99
1/2/2022 8:15:00 AM -99999.99 -179968 -99999.99 -99999.99 -99999.99 -99999.99
1/2/2022 8:30:00 AM -99999.99 -179968 -99999.99 -99999.99 -99999.99 -99999.99
1/2/2022 8:45:00 AM -99999.99 -179968 -99999.99 -99999.99 -99999.99 -99999.99
1/2/2022 9:00:00 AM -99999.99 -179968 -99999.99 -99999.99 -99999.99 -99999.99
1/2/2022 9:15:00 AM -99999.99 -179968 -99999.99 -99999.99 -99999.99 -99999.99
1/2/2022 9:30:00 AM -99999.99 -179968 -99999.99 -99999.99 -99999.99 -99999.99
1/2/2022 9:45:00 AM -99999.99 -179968 -99999.99 -99999.99 -99999.99 -99999.99
1/2/2022 10:00:00 AM -99999.99 -179968 -99999.99 -99999.99 -99999.99 -99999.99
1/2/2022 10:15:00 AM 12.12 53.816 0.804 7.75 9.45 9.63
1/2/2022 10:30:00 AM -99999.99 -179968 -99999.99 -99999.99 -99999.99 -99999.99
1/2/2022 10:45:00 AM -99999.99 -179968 -99999.99 -99999.99 -99999.99 -99999.99
1/2/2022 11:00:00 AM -99999.99 -179968 -99999.99 -99999.99 -99999.99 -99999.99
1/2/2022 11:15:00 AM -99999.99 -179968 -99999.99 -99999.99 -99999.99 -99999.99
1/2/2022 11:30:00 AM -99999.99 -179968 -99999.99 -99999.99 -99999.99 -99999.99
1/2/2022 11:45:00 AM -99999.99 -179968 -99999.99 -99999.99 -99999.99 -99999.99
1/2/2022 12:00:00 PM -99999.99 -179968 -99999.99 -99999.99 -99999.99 -99999.99
1/2/2022 12:15:00 PM -99999.99 -179968 -99999.99 -99999.99 -99999.99 -99999.99
1/2/2022 12:30:00 PM -99999.99 -179968 -99999.99 -99999.99 -99999.99 -99999.99
1/2/2022 12:45:00 PM -99999.99 -179968 -99999.99 -99999.99 -99999.99 -99999.99
1/2/2022 1:00:00 PM -99999.99 -179968 -99999.99 -99999.99 -99999.99 -99999.99
1/2/2022 1:15:00 PM 12.73 54.914 0.837 7.83 7.68 10.34
1/2/2022 1:30:00 PM 12.82 55.076 0.847 7.84 6.57 10.45
1/2/2022 1:45:00 PM 12.9 55.22 0.857 7.85 6.01 10.52
1/2/2022 2:00:00 PM 12.97 55.346 0.868 7.86 6.36 10.55
1/2/2022 2:15:00 PM 13.04 55.472 0.878 7.86 6.32 10.56
1/2/2022 2:30:00 PM 13.11 55.598 0.889 7.86 6.05 10.53
1/2/2022 2:45:00 PM -99999.99 -179968 -99999.99 -99999.99 -99999.99 -99999.99
1/2/2022 3:00:00 PM -99999.99 -179968 -99999.99 -99999.99 -99999.99 -99999.99
1/2/2022 3:15:00 PM -99999.99 -179968 -99999.99 -99999.99 -99999.99 -99999.99
1/2/2022 3:30:00 PM -99999.99 -179968 -99999.99 -99999.99 -99999.99 -99999.99
1/2/2022 3:45:00 PM -99999.99 -179968 -99999.99 -99999.99 -99999.99 -99999.99
1/2/2022 4:00:00 PM -99999.99 -179968 -99999.99 -99999.99 -99999.99 -99999.99
1/2/2022 4:15:00 PM -99999.99 -179968 -99999.99 -99999.99 -99999.99 -99999.99
1/2/2022 4:30:00 PM -99999.99 -179968 -99999.99 -99999.99 -99999.99 -99999.99
1/2/2022 4:45:00 PM -99999.99 -179968 -99999.99 -99999.99 -99999.99 -99999.99
1/2/2022 5:00:00 PM -99999.99 -179968 -99999.99 -99999.99 -99999.99 -99999.99
1/2/2022 5:15:00 PM -99999.99 -179968 -99999.99 -99999.99 -99999.99 -99999.99
1/2/2022 5:30:00 PM -99999.99 -179968 -99999.99 -99999.99 -99999.99 -99999.99
1/2/2022 5:45:00 PM -99999.99 -179968 -99999.99 -99999.99 -99999.99 -99999.99
1/2/2022 6:00:00 PM -99999.99 -179968 -99999.99 -99999.99 -99999.99 -99999.99
1/2/2022 6:15:00 PM -99999.99 -179968 -99999.99 -99999.99 -99999.99 -99999.99
1/2/2022 6:30:00 PM -99999.99 -179968 -99999.99 -99999.99 -99999.99 -99999.99
1/2/2022 6:45:00 PM -99999.99 -179968 -99999.99 -99999.99 -99999.99 -99999.99
1/2/2022 7:00:00 PM -99999.99 -179968 -99999.99 -99999.99 -99999.99 -99999.99
1/2/2022 7:15:00 PM -99999.99 -179968 -99999.99 -99999.99 -99999.99 -99999.99
1/2/2022 7:30:00 PM -99999.99 -179968 -99999.99 -99999.99 -99999.99 -99999.99
1/2/2022 7:45:00 PM -99999.99 -179968 -99999.99 -99999.99 -99999.99 -99999.99
1/2/2022 8:00:00 PM -99999.99 -179968 -99999.99 -99999.99 -99999.99 -99999.99
1/2/2022 8:15:00 PM -99999.99 -179968 -99999.99 -99999.99 -99999.99 -99999.99
1/2/2022 8:30:00 PM -99999.99 -179968 -99999.99 -99999.99 -99999.99 -99999.99
1/2/2022 8:45:00 PM -99999.99 -179968 -99999.99 -99999.99 -99999.99 -99999.99
1/2/2022 9:00:00 PM -99999.99 -179968 -99999.99 -99999.99 -99999.99 -99999.99
1/2/2022 9:15:00 PM -99999.99 -179968 -99999.99 -99999.99 -99999.99 -99999.99
1/2/2022 9:30:00 PM -99999.99 -179968 -99999.99 -99999.99 -99999.99 -99999.99
1/2/2022 9:45:00 PM -99999.99 -179968 -99999.99 -99999.99 -99999.99 -99999.99
1/2/2022 10:00:00 PM -99999.99 -179968 -99999.99 -99999.99 -99999.99 -99999.99
1/2/2022 10:15:00 PM -99999.99 -179968 -99999.99 -99999.99 -99999.99 -99999.99
1/2/2022 10:30:00 PM -99999.99 -179968 -99999.99 -99999.99 -99999.99 -99999.99
1/2/2022 10:45:00 PM -99999.99 -179968 -99999.99 -99999.99 -99999.99 -99999.99
1/2/2022 11:00:00 PM -99999.99 -179968 -99999.99 -99999.99 -99999.99 -99999.99
1/2/2022 11:15:00 PM -99999.99 -179968 -99999.99 -99999.99 -99999.99 -99999.99
1/2/2022 11:30:00 PM -99999.99 -179968 -99999.99 -99999.99 -99999.99 -99999.99
1/2/2022 11:45:00 PM -99999.99 -179968 -99999.99 -99999.99 -99999.99 -99999.99
1/3/2022 12:00:00 AM -99999.99 -179968 -99999.99 -99999.99 -99999.99 -99999.99
1/3/2022 12:15:00 AM -99999.99 -179968 -99999.99 -99999.99 -99999.99 -99999.99
1/3/2022 12:30:00 AM -99999.99 -179968 -99999.99 -99999.99 -99999.99 -99999.99
1/3/2022 12:45:00 AM -99999.99 -179968 -99999.99 -99999.99 -99999.99 -99999.99
1/3/2022 1:00:00 AM -99999.99 -179968 -99999.99 -99999.99 -99999.99 -99999.99
1/3/2022 1:15:00 AM -99999.99 -179968 -99999.99 -99999.99 -99999.99 -99999.99
1/3/2022 1:30:00 AM -99999.99 -179968 -99999.99 -99999.99 -99999.99 -99999.99
1/3/2022 1:45:00 AM -99999.99 -179968 -99999.99 -99999.99 -99999.99 -99999.99
1/3/2022 2:00:00 AM -99999.99 -179968 -99999.99 -99999.99 -99999.99 -99999.99
1/3/2022 2:15:00 AM -99999.99 -179968 -99999.99 -99999.99 -99999.99 -99999.99
1/3/2022 2:30:00 AM -99999.99 -179968 -99999.99 -99999.99 -99999.99 -99999.99
1/3/2022 2:45:00 AM -99999.99 -179968 -99999.99 -99999.99 -99999.99 -99999.99
1/3/2022 3:00:00 AM -99999.99 -179968 -99999.99 -99999.99 -99999.99 -99999.99
1/3/2022 3:15:00 AM -99999.99 -179968 -99999.99 -99999.99 -99999.99 -99999.99
1/3/2022 3:30:00 AM -99999.99 -179968 -99999.99 -99999.99 -99999.99 -99999.99
1/3/2022 3:45:00 AM -99999.99 -179968 -99999.99 -99999.99 -99999.99 -99999.99
1/3/2022 4:00:00 AM -99999.99 -179968 -99999.99 -99999.99 -99999.99 -99999.99
1/3/2022 4:15:00 AM -99999.99 -179968 -99999.99 -99999.99 -99999.99 -99999.99
1/3/2022 4:30:00 AM -99999.99 -179968 -99999.99 -99999.99 -99999.99 -99999.99
1/3/2022 4:45:00 AM -99999.99 -179968 -99999.99 -99999.99 -99999.99 -99999.99
1/3/2022 5:00:00 AM -99999.99 -179968 -99999.99 -99999.99 -99999.99 -99999.99
1/3/2022 5:15:00 AM -99999.99 -179968 -99999.99 -99999.99 -99999.99 -99999.99
1/3/2022 5:30:00 AM -99999.99 -179968 -99999.99 -99999.99 -99999.99 -99999.99
1/3/2022 5:45:00 AM -99999.99 -179968 -99999.99 -99999.99 -99999.99 -99999.99
1/3/2022 6:00:00 AM -99999.99 -179968 -99999.99 -99999.99 -99999.99 -99999.99
1/3/2022 6:15:00 AM -99999.99 -179968 -99999.99 -99999.99 -99999.99 -99999.99
1/3/2022 6:30:00 AM -99999.99 -179968 -99999.99 -99999.99 -99999.99 -99999.99
1/3/2022 6:45:00 AM -99999.99 -179968 -99999.99 -99999.99 -99999.99 -99999.99
1/3/2022 7:00:00 AM -99999.99 -179968 -99999.99 -99999.99 -99999.99 -99999.99
1/3/2022 7:15:00 AM -99999.99 -179968 -99999.99 -99999.99 -99999.99 -99999.99
1/3/2022 7:30:00 AM -99999.99 -179968 -99999.99 -99999.99 -99999.99 -99999.99
1/3/2022 7:45:00 AM -99999.99 -179968 -99999.99 -99999.99 -99999.99 -99999.99
1/3/2022 8:00:00 AM -99999.99 -179968 -99999.99 -99999.99 -99999.99 -99999.99
1/3/2022 8:15:00 AM -99999.99 -179968 -99999.99 -99999.99 -99999.99 -99999.99
1/3/2022 8:30:00 AM -99999.99 -179968 -99999.99 -99999.99 -99999.99 -99999.99
1/3/2022 8:45:00 AM -99999.99 -179968 -99999.99 -99999.99 -99999.99 -99999.99
1/3/2022 9:00:00 AM -99999.99 -179968 -99999.99 -99999.99 -99999.99 -99999.99
1/3/2022 9:15:00 AM -99999.99 -179968 -99999.99 -99999.99 -99999.99 -99999.99
1/3/2022 9:30:00 AM -99999.99 -179968 -99999.99 -99999.99 -99999.99 -99999.99
1/3/2022 9:45:00 AM -99999.99 -179968 -99999.99 -99999.99 -99999.99 -99999.99
1/3/2022 10:00:00 AM -99999.99 -179968 -99999.99 -99999.99 -99999.99 -99999.99
1/3/2022 10:15:00 AM -99999.99 -179968 -99999.99 -99999.99 -99999.99 -99999.99
1/3/2022 10:30:00 AM -99999.99 -179968 -99999.99 -99999.99 -99999.99 -99999.99
1/3/2022 10:45:00 AM -99999.99 -179968 -99999.99 -99999.99 -99999.99 -99999.99
1/3/2022 11:00:00 AM -99999.99 -179968 -99999.99 -99999.99 -99999.99 -99999.99
1/3/2022 11:15:00 AM -99999.99 -179968 -99999.99 -99999.99 -99999.99 -99999.99
1/3/2022 11:30:00 AM -99999.99 -179968 -99999.99 -99999.99 -99999.99 -99999.99
1/3/2022 11:45:00 AM -99999.99 -179968 -99999.99 -99999.99 -99999.99 -99999.99
1/3/2022 12:00:00 PM -99999.99 -179968 -99999.99 -99999.99 -99999.99 -99999.99
1/3/2022 12:15:00 PM -99999.99 -179968 -99999.99 -99999.99 -99999.99 -99999.99
1/3/2022 12:30:00 PM -99999.99 -179968 -99999.99 -99999.99 -99999.99 -99999.99
1/3/2022 12:45:00 PM -99999.99 -179968 -99999.99 -99999.99 -99999.99 -99999.99
1/3/2022 1:00:00 PM -99999.99 -179968 -99999.99 -99999.99 -99999.99 -99999.99
1/3/2022 1:15:00 PM -99999.99 -179968 -99999.99 -99999.99 -99999.99 -99999.99
1/3/2022 1:30:00 PM -99999.99 -179968 -99999.99 -99999.99 -99999.99 -99999.99
1/3/2022 1:45:00 PM -99999.99 -179968 -99999.99 -99999.99 -99999.99 -99999.99
1/3/2022 2:00:00 PM -99999.99 -179968 -99999.99 -99999.99 -99999.99 -99999.99
1/3/2022 2:15:00 PM -99999.99 -179968 -99999.99 -99999.99 -99999.99 -99999.99
1/3/2022 2:30:00 PM 8.69 47.642 0.981 7.94 7.19 11.26
1/3/2022 2:45:00 PM 8.7 47.66 0.981 7.95 6.35 11.38
1/3/2022 3:00:00 PM 8.71 47.678 0.98 7.96 5.82 11.45
1/3/2022 3:15:00 PM -99999.99 -179968 -99999.99 -99999.99 -99999.99 -99999.99
1/3/2022 3:30:00 PM -99999.99 -179968 -99999.99 -99999.99 -99999.99 -99999.99
1/3/2022 3:45:00 PM -99999.99 -179968 -99999.99 -99999.99 -99999.99 -99999.99
1/3/2022 4:00:00 PM -99999.99 -179968 -99999.99 -99999.99 -99999.99 -99999.99
1/3/2022 4:15:00 PM -99999.99 -179968 -99999.99 -99999.99 -99999.99 -99999.99
1/3/2022 4:30:00 PM -99999.99 -179968 -99999.99 -99999.99 -99999.99 -99999.99
1/3/2022 4:45:00 PM -99999.99 -179968 -99999.99 -99999.99 -99999.99 -99999.99
1/3/2022 5:00:00 PM -99999.99 -179968 -99999.99 -99999.99 -99999.99 -99999.99
1/3/2022 5:15:00 PM -99999.99 -179968 -99999.99 -99999.99 -99999.99 -99999.99
1/3/2022 5:30:00 PM -99999.99 -179968 -99999.99 -99999.99 -99999.99 -99999.99
1/3/2022 5:45:00 PM -99999.99 -179968 -99999.99 -99999.99 -99999.99 -99999.99
1/3/2022 6:00:00 PM -99999.99 -179968 -99999.99 -99999.99 -99999.99 -99999.99
1/3/2022 6:15:00 PM -99999.99 -179968 -99999.99 -99999.99 -99999.99 -99999.99
1/3/2022 6:30:00 PM -99999.99 -179968 -99999.99 -99999.99 -99999.99 -99999.99
1/3/2022 6:45:00 PM -99999.99 -179968 -99999.99 -99999.99 -99999.99 -99999.99
1/3/2022 7:00:00 PM -99999.99 -179968 -99999.99 -99999.99 -99999.99 -99999.99
1/3/2022 7:15:00 PM -99999.99 -179968 -99999.99 -99999.99 -99999.99 -99999.99
1/3/2022 7:30:00 PM -99999.99 -179968 -99999.99 -99999.99 -99999.99 -99999.99
1/3/2022 7:45:00 PM -99999.99 -179968 -99999.99 -99999.99 -99999.99 -99999.99
1/3/2022 8:00:00 PM -99999.99 -179968 -99999.99 -99999.99 -99999.99 -99999.99
1/3/2022 8:15:00 PM -99999.99 -179968 -99999.99 -99999.99 -99999.99 -99999.99
1/3/2022 8:30:00 PM -99999.99 -179968 -99999.99 -99999.99 -99999.99 -99999.99
1/3/2022 8:45:00 PM -99999.99 -179968 -99999.99 -99999.99 -99999.99 -99999.99
1/3/2022 9:00:00 PM -99999.99 -179968 -99999.99 -99999.99 -99999.99 -99999.99
1/3/2022 9:15:00 PM -99999.99 -179968 -99999.99 -99999.99 -99999.99 -99999.99
1/3/2022 9:30:00 PM -99999.99 -179968 -99999.99 -99999.99 -99999.99 -99999.99
1/3/2022 9:45:00 PM -99999.99 -179968 -99999.99 -99999.99 -99999.99 -99999.99
1/3/2022 10:00:00 PM -99999.99 -179968 -99999.99 -99999.99 -99999.99 -99999.99
1/3/2022 10:15:00 PM -99999.99 -179968 -99999.99 -99999.99 -99999.99 -99999.99
1/3/2022 10:30:00 PM -99999.99 -179968 -99999.99 -99999.99 -99999.99 -99999.99
1/3/2022 10:45:00 PM -99999.99 -179968 -99999.99 -99999.99 -99999.99 -99999.99
1/3/2022 11:00:00 PM -99999.99 -179968 -99999.99 -99999.99 -99999.99 -99999.99
1/3/2022 11:15:00 PM -99999.99 -179968 -99999.99 -99999.99 -99999.99 -99999.99
1/3/2022 11:30:00 PM -99999.99 -179968 -99999.99 -99999.99 -99999.99 -99999.99
1/3/2022 11:45:00 PM -99999.99 -179968 -99999.99 -99999.99 -99999.99 -99999.99
1/4/2022 12:00:00 AM -99999.99 -179968 -99999.99 -99999.99 -99999.99 -99999.99
1/4/2022 12:15:00 AM -99999.99 -179968 -99999.99 -99999.99 -99999.99 -99999.99
1/4/2022 12:30:00 AM -99999.99 -179968 -99999.99 -99999.99 -99999.99 -99999.99
1/4/2022 12:45:00 AM -99999.99 -179968 -99999.99 -99999.99 -99999.99 -99999.99
1/4/2022 1:00:00 AM -99999.99 -179968 -99999.99 -99999.99 -99999.99 -99999.99
1/4/2022 1:15:00 AM -99999.99 -179968 -99999.99 -99999.99 -99999.99 -99999.99
1/4/2022 1:30:00 AM -99999.99 -179968 -99999.99 -99999.99 -99999.99 -99999.99
1/4/2022 1:45:00 AM -99999.99 -179968 -99999.99 -99999.99 -99999.99 -99999.99
1/4/2022 2:00:00 AM -99999.99 -179968 -99999.99 -99999.99 -99999.99 -99999.99
1/4/2022 2:15:00 AM -99999.99 -179968 -99999.99 -99999.99 -99999.99 -99999.99
1/4/2022 2:30:00 AM -99999.99 -179968 -99999.99 -99999.99 -99999.99 -99999.99
1/4/2022 2:45:00 AM -99999.99 -179968 -99999.99 -99999.99 -99999.99 -99999.99
1/4/2022 3:00:00 AM -99999.99 -179968 -99999.99 -99999.99 -99999.99 -99999.99
1/4/2022 3:15:00 AM -99999.99 -179968 -99999.99 -99999.99 -99999.99 -99999.99
1/4/2022 3:30:00 AM -99999.99 -179968 -99999.99 -99999.99 -99999.99 -99999.99
1/4/2022 3:45:00 AM -99999.99 -179968 -99999.99 -99999.99 -99999.99 -99999.99
1/4/2022 4:00:00 AM -99999.99 -179968 -99999.99 -99999.99 -99999.99 -99999.99
1/4/2022 4:15:00 AM -99999.99 -179968 -99999.99 -99999.99 -99999.99 -99999.99
1/4/2022 4:30:00 AM -99999.99 -179968 -99999.99 -99999.99 -99999.99 -99999.99
1/4/2022 4:45:00 AM -99999.99 -179968 -99999.99 -99999.99 -99999.99 -99999.99
1/4/2022 5:00:00 AM -99999.99 -179968 -99999.99 -99999.99 -99999.99 -99999.99
1/4/2022 5:15:00 AM -99999.99 -179968 -99999.99 -99999.99 -99999.99 -99999.99
1/4/2022 5:30:00 AM -99999.99 -179968 -99999.99 -99999.99 -99999.99 -99999.99
1/4/2022 5:45:00 AM -99999.99 -179968 -99999.99 -99999.99 -99999.99 -99999.99
1/4/2022 6:00:00 AM -99999.99 -179968 -99999.99 -99999.99 -99999.99 -99999.99
1/4/2022 6:15:00 AM -99999.99 -179968 -99999.99 -99999.99 -99999.99 -99999.99
1/4/2022 6:30:00 AM -99999.99 -179968 -99999.99 -99999.99 -99999.99 -99999.99
1/4/2022 6:45:00 AM -99999.99 -179968 -99999.99 -99999.99 -99999.99 -99999.99
1/4/2022 7:00:00 AM -99999.99 -179968 -99999.99 -99999.99 -99999.99 -99999.99
1/4/2022 7:15:00 AM -99999.99 -179968 -99999.99 -99999.99 -99999.99 -99999.99
1/4/2022 7:30:00 AM -99999.99 -179968 -99999.99 -99999.99 -99999.99 -99999.99
1/4/2022 7:45:00 AM -99999.99 -179968 -99999.99 -99999.99 -99999.99 -99999.99
1/4/2022 8:00:00 AM -99999.99 -179968 -99999.99 -99999.99 -99999.99 -99999.99
1/4/2022 8:15:00 AM -99999.99 -179968 -99999.99 -99999.99 -99999.99 -99999.99
1/4/2022 8:30:00 AM -99999.99 -179968 -99999.99 -99999.99 -99999.99 -99999.99
1/4/2022 8:45:00 AM -99999.99 -179968 -99999.99 -99999.99 -99999.99 -99999.99
1/4/2022 9:00:00 AM 6.28 43.304 0.914 7.92 9.25 11.3
1/4/2022 9:15:00 AM -99999.99 -179968 -99999.99 -99999.99 -99999.99 -99999.99
1/4/2022 9:30:00 AM 6.34 43.412 0.911 7.92 10.6 11.5
1/4/2022 9:45:00 AM 6.39 43.502 0.911 7.93 9.19 11.59
1/4/2022 10:00:00 AM 6.47 43.646 0.911 7.94 7.87 11.67
1/4/2022 10:15:00 AM 6.55 43.79 0.91 7.95 9.25 11.73
1/4/2022 10:30:00 AM 6.65 43.97 0.909 7.96 9.14 11.8
1/4/2022 10:45:00 AM 6.75 44.15 0.907 7.97 8.02 11.87
1/4/2022 11:00:00 AM 6.85 44.33 0.904 7.98 8.01 11.95
1/4/2022 11:15:00 AM 6.97 44.546 0.899 7.99 7.45 12.02
1/4/2022 11:30:00 AM 7.08 44.744 0.895 7.99 8.28 12.07
1/4/2022 11:45:00 AM 7.19 44.942 0.892 8 8.19 12.12
1/4/2022 12:00:00 PM 7.3 45.14 0.891 8.01 7.76 12.17
1/4/2022 12:15:00 PM 7.41 45.338 0.893 8.02 7.83 12.2
1/4/2022 12:30:00 PM 7.51 45.518 0.897 8.02 7.95 12.24
1/4/2022 12:45:00 PM 7.61 45.698 0.904 8.02 9.33 12.26
1/4/2022 1:00:00 PM 7.72 45.896 0.915 8.03 8.74 12.28
1/4/2022 1:15:00 PM 7.84 46.112 0.927 8.03 7.42 12.3
1/4/2022 1:30:00 PM 7.95 46.31 0.942 8.04 7.1 12.3
1/4/2022 1:45:00 PM 8.07 46.526 0.957 8.04 6.7 12.29
1/4/2022 2:00:00 PM 8.17 46.706 0.969 8.04 7.19 12.26
1/4/2022 2:15:00 PM 8.27 46.886 0.98 8.04 7.18 12.23
1/4/2022 2:30:00 PM 8.34 47.012 0.986 8.04 7.95 12.19
1/4/2022 2:45:00 PM 8.4 47.12 0.99 8.04 8.52 12.15
1/4/2022 3:00:00 PM 8.43 47.174 0.991 8.04 7.94 12.1
1/4/2022 3:15:00 PM 8.45 47.21 0.991 8.03 8.24 12.04
1/4/2022 3:30:00 PM 8.46 47.228 0.991 8.03 7.2 11.97
1/4/2022 3:45:00 PM 8.48 47.264 0.991 8.03 6.41 11.91
1/4/2022 4:00:00 PM 8.5 47.3 0.992 8.03 5.51 11.85
1/4/2022 4:15:00 PM 8.51 47.318 0.993 8.02 4.96 11.77
1/4/2022 4:30:00 PM 8.53 47.354 0.995 8.02 5.56 11.66
1/4/2022 4:45:00 PM 8.56 47.408 0.997 8.01 5.65 11.56
1/4/2022 5:00:00 PM 8.58 47.444 1 8 5.9 11.44
1/4/2022 5:15:00 PM 8.61 47.498 1.003 8 7.06 11.34
1/4/2022 5:30:00 PM 8.62 47.516 1.007 7.99 7.39 11.26
1/4/2022 5:45:00 PM 8.64 47.552 1.011 7.98 6.7 11.19
1/4/2022 6:00:00 PM 8.65 47.57 1.016 7.98 6.94 11.13
1/4/2022 6:15:00 PM 8.67 47.606 1.023 7.97 6.52 11.06
1/4/2022 6:30:00 PM 8.68 47.624 1.032 7.96 7.05 10.98
1/4/2022 6:45:00 PM 8.7 47.66 1.043 7.96 6.19 10.91
1/4/2022 7:00:00 PM 8.72 47.696 1.052 7.95 6.1 10.84
1/4/2022 7:15:00 PM 8.73 47.714 1.061 7.95 6.08 10.77
1/4/2022 7:30:00 PM 8.73 47.714 1.067 7.94 5.97 10.71
1/4/2022 7:45:00 PM 8.73 47.714 1.07 7.94 5.72 10.65
1/4/2022 8:00:00 PM 8.71 47.678 1.072 7.93 5.76 10.61
1/4/2022 8:15:00 PM 8.69 47.642 1.073 7.93 6.27 10.57
1/4/2022 8:30:00 PM 8.66 47.588 1.073 7.92 5.92 10.52
1/4/2022 8:45:00 PM 8.63 47.534 1.072 7.91 8.41 10.48
1/4/2022 9:00:00 PM 8.59 47.462 1.07 7.91 5.82 10.43
1/4/2022 9:15:00 PM 8.55 47.39 1.065 7.9 5.6 10.4
1/4/2022 9:30:00 PM 8.51 47.318 1.058 7.9 5.45 10.37
1/4/2022 9:45:00 PM -99999.99 -179968 -99999.99 -99999.99 -99999.99 -99999.99
1/4/2022 10:00:00 PM -99999.99 -179968 -99999.99 -99999.99 -99999.99 -99999.99
1/4/2022 10:15:00 PM -99999.99 -179968 -99999.99 -99999.99 -99999.99 -99999.99
1/4/2022 10:30:00 PM -99999.99 -179968 -99999.99 -99999.99 -99999.99 -99999.99
1/4/2022 10:45:00 PM -99999.99 -179968 -99999.99 -99999.99 -99999.99 -99999.99
1/4/2022 11:00:00 PM -99999.99 -179968 -99999.99 -99999.99 -99999.99 -99999.99
1/4/2022 11:15:00 PM -99999.99 -179968 -99999.99 -99999.99 -99999.99 -99999.99
1/4/2022 11:30:00 PM -99999.99 -179968 -99999.99 -99999.99 -99999.99 -99999.99
1/4/2022 11:45:00 PM -99999.99 -179968 -99999.99 -99999.99 -99999.99 -99999.99
1/5/2022 12:00:00 AM -99999.99 -179968 -99999.99 -99999.99 -99999.99 -99999.99
1/5/2022 12:15:00 AM -99999.99 -179968 -99999.99 -99999.99 -99999.99 -99999.99
1/5/2022 12:30:00 AM -99999.99 -179968 -99999.99 -99999.99 -99999.99 -99999.99
1/5/2022 12:45:00 AM -99999.99 -179968 -99999.99 -99999.99 -99999.99 -99999.99
1/5/2022 1:00:00 AM -99999.99 -179968 -99999.99 -99999.99 -99999.99 -99999.99
1/5/2022 1:15:00 AM -99999.99 -179968 -99999.99 -99999.99 -99999.99 -99999.99
1/5/2022 1:30:00 AM -99999.99 -179968 -99999.99 -99999.99 -99999.99 -99999.99
1/5/2022 1:45:00 AM -99999.99 -179968 -99999.99 -99999.99 -99999.99 -99999.99
1/5/2022 2:00:00 AM -99999.99 -179968 -99999.99 -99999.99 -99999.99 -99999.99
1/5/2022 2:15:00 AM -99999.99 -179968 -99999.99 -99999.99 -99999.99 -99999.99
1/5/2022 2:30:00 AM -99999.99 -179968 -99999.99 -99999.99 -99999.99 -99999.99
1/5/2022 2:45:00 AM -99999.99 -179968 -99999.99 -99999.99 -99999.99 -99999.99
1/5/2022 3:00:00 AM -99999.99 -179968 -99999.99 -99999.99 -99999.99 -99999.99
1/5/2022 3:15:00 AM -99999.99 -179968 -99999.99 -99999.99 -99999.99 -99999.99
1/5/2022 3:30:00 AM -99999.99 -179968 -99999.99 -99999.99 -99999.99 -99999.99
1/5/2022 3:45:00 AM -99999.99 -179968 -99999.99 -99999.99 -99999.99 -99999.99
1/5/2022 4:00:00 AM -99999.99 -179968 -99999.99 -99999.99 -99999.99 -99999.99
1/5/2022 4:15:00 AM -99999.99 -179968 -99999.99 -99999.99 -99999.99 -99999.99
1/5/2022 4:30:00 AM -99999.99 -179968 -99999.99 -99999.99 -99999.99 -99999.99
1/5/2022 4:45:00 AM -99999.99 -179968 -99999.99 -99999.99 -99999.99 -99999.99
1/5/2022 5:00:00 AM -99999.99 -179968 -99999.99 -99999.99 -99999.99 -99999.99
1/5/2022 5:15:00 AM -99999.99 -179968 -99999.99 -99999.99 -99999.99 -99999.99
1/5/2022 5:30:00 AM -99999.99 -179968 -99999.99 -99999.99 -99999.99 -99999.99
1/5/2022 5:45:00 AM -99999.99 -179968 -99999.99 -99999.99 -99999.99 -99999.99
1/5/2022 6:00:00 AM -99999.99 -179968 -99999.99 -99999.99 -99999.99 -99999.99
1/5/2022 6:15:00 AM -99999.99 -179968 -99999.99 -99999.99 -99999.99 -99999.99
1/5/2022 6:30:00 AM -99999.99 -179968 -99999.99 -99999.99 -99999.99 -99999.99
1/5/2022 6:45:00 AM -99999.99 -179968 -99999.99 -99999.99 -99999.99 -99999.99
1/5/2022 7:00:00 AM -99999.99 -179968 -99999.99 -99999.99 -99999.99 -99999.99
1/5/2022 7:15:00 AM -99999.99 -179968 -99999.99 -99999.99 -99999.99 -99999.99
1/5/2022 7:30:00 AM -99999.99 -179968 -99999.99 -99999.99 -99999.99 -99999.99
1/5/2022 7:45:00 AM -99999.99 -179968 -99999.99 -99999.99 -99999.99 -99999.99
1/5/2022 8:00:00 AM -99999.99 -179968 -99999.99 -99999.99 -99999.99 -99999.99
1/5/2022 8:15:00 AM -99999.99 -179968 -99999.99 -99999.99 -99999.99 -99999.99
1/5/2022 8:30:00 AM -99999.99 -179968 -99999.99 -99999.99 -99999.99 -99999.99
1/5/2022 8:45:00 AM -99999.99 -179968 -99999.99 -99999.99 -99999.99 -99999.99
1/5/2022 9:00:00 AM -99999.99 -179968 -99999.99 -99999.99 -99999.99 -99999.99
1/5/2022 9:15:00 AM -99999.99 -179968 -99999.99 -99999.99 -99999.99 -99999.99
1/5/2022 9:30:00 AM -99999.99 -179968 -99999.99 -99999.99 -99999.99 -99999.99
1/5/2022 9:45:00 AM -99999.99 -179968 -99999.99 -99999.99 -99999.99 -99999.99
1/5/2022 10:00:00 AM -99999.99 -179968 -99999.99 -99999.99 -99999.99 -99999.99
1/5/2022 10:15:00 AM -99999.99 -179968 -99999.99 -99999.99 -99999.99 -99999.99
1/5/2022 10:30:00 AM -99999.99 -179968 -99999.99 -99999.99 -99999.99 -99999.99
1/5/2022 10:45:00 AM 7.9 46.22 0.902 7.97 9.02 11.42
1/5/2022 11:00:00 AM 7.98 46.364 0.9 7.97 10.12 11.48
1/5/2022 11:15:00 AM 8.06 46.508 0.898 7.98 9.31 11.55
1/5/2022 11:30:00 AM 8.16 46.688 0.895 7.99 8.3 11.62
1/5/2022 11:45:00 AM 8.25 46.85 0.892 8 8.96 11.67
1/5/2022 12:00:00 PM 8.34 47.012 0.891 8.01 7.43 11.73
1/5/2022 12:15:00 PM 8.46 47.228 0.892 8.02 7.59 11.8
1/5/2022 12:30:00 PM 8.56 47.408 0.897 8.02 7.82 11.81
1/5/2022 12:45:00 PM 8.67 47.606 0.907 8.03 7.62 11.82
1/5/2022 1:00:00 PM 8.8 47.84 0.921 8.03 6.78 11.85
1/5/2022 1:15:00 PM 8.92 48.056 0.937 8.04 7.06 11.86
1/5/2022 1:30:00 PM 9.06 48.308 0.955 8.04 6.58 11.89
1/5/2022 1:45:00 PM 9.21 48.578 0.972 8.05 6.92 11.9
1/5/2022 2:00:00 PM 9.35 48.83 0.987 8.05 6.88 11.91
1/5/2022 2:15:00 PM 9.48 49.064 0.999 8.05 6.89 11.9
1/5/2022 2:30:00 PM 9.61 49.298 1.007 8.06 6.72 11.86
1/5/2022 2:45:00 PM 9.72 49.496 1.013 8.06 6.55 11.83
1/5/2022 3:00:00 PM 9.81 49.658 1.017 8.06 6.7 11.79
1/5/2022 3:15:00 PM 9.88 49.784 1.02 8.06 6.38 11.71
1/5/2022 3:30:00 PM 9.94 49.892 1.022 8.06 6.89 11.63
1/5/2022 3:45:00 PM 9.99 49.982 1.024 8.05 6.7 11.54
1/5/2022 4:00:00 PM 10.03 50.054 1.026 8.05 6.69 11.48
1/5/2022 4:15:00 PM 10.05 50.09 1.027 8.04 6.78 11.38
1/5/2022 4:30:00 PM 10.06 50.108 1.03 8.04 5.61 11.27
1/5/2022 4:45:00 PM 10.07 50.126 1.032 8.03 5.81 11.18
1/5/2022 5:00:00 PM 10.07 50.126 1.036 8.03 6.17 11.08
1/5/2022 5:15:00 PM 10.07 50.126 1.041 8.02 6.54 10.98
1/5/2022 5:30:00 PM -99999.99 -179968 -99999.99 -99999.99 -99999.99 -99999.99
1/5/2022 5:45:00 PM -99999.99 -179968 -99999.99 -99999.99 -99999.99 -99999.99
1/5/2022 6:00:00 PM -99999.99 -179968 -99999.99 -99999.99 -99999.99 -99999.99
1/5/2022 6:15:00 PM -99999.99 -179968 -99999.99 -99999.99 -99999.99 -99999.99
1/5/2022 6:30:00 PM -99999.99 -179968 -99999.99 -99999.99 -99999.99 -99999.99
1/5/2022 6:45:00 PM -99999.99 -179968 -99999.99 -99999.99 -99999.99 -99999.99
1/5/2022 7:00:00 PM -99999.99 -179968 -99999.99 -99999.99 -99999.99 -99999.99
1/5/2022 7:15:00 PM -99999.99 -179968 -99999.99 -99999.99 -99999.99 -99999.99
1/5/2022 7:30:00 PM -99999.99 -179968 -99999.99 -99999.99 -99999.99 -99999.99
1/5/2022 7:45:00 PM -99999.99 -179968 -99999.99 -99999.99 -99999.99 -99999.99
1/5/2022 8:00:00 PM -99999.99 -179968 -99999.99 -99999.99 -99999.99 -99999.99
1/5/2022 8:15:00 PM -99999.99 -179968 -99999.99 -99999.99 -99999.99 -99999.99
1/5/2022 8:30:00 PM -99999.99 -179968 -99999.99 -99999.99 -99999.99 -99999.99
1/5/2022 8:45:00 PM -99999.99 -179968 -99999.99 -99999.99 -99999.99 -99999.99
1/5/2022 9:00:00 PM -99999.99 -179968 -99999.99 -99999.99 -99999.99 -99999.99
1/5/2022 9:15:00 PM -99999.99 -179968 -99999.99 -99999.99 -99999.99 -99999.99
1/5/2022 9:30:00 PM -99999.99 -179968 -99999.99 -99999.99 -99999.99 -99999.99
1/5/2022 9:45:00 PM -99999.99 -179968 -99999.99 -99999.99 -99999.99 -99999.99
1/5/2022 10:00:00 PM -99999.99 -179968 -99999.99 -99999.99 -99999.99 -99999.99
1/5/2022 10:15:00 PM -99999.99 -179968 -99999.99 -99999.99 -99999.99 -99999.99
1/5/2022 10:30:00 PM -99999.99 -179968 -99999.99 -99999.99 -99999.99 -99999.99
1/5/2022 10:45:00 PM -99999.99 -179968 -99999.99 -99999.99 -99999.99 -99999.99
1/5/2022 11:00:00 PM -99999.99 -179968 -99999.99 -99999.99 -99999.99 -99999.99
1/5/2022 11:15:00 PM -99999.99 -179968 -99999.99 -99999.99 -99999.99 -99999.99
1/5/2022 11:30:00 PM -99999.99 -179968 -99999.99 -99999.99 -99999.99 -99999.99
1/5/2022 11:45:00 PM -99999.99 -179968 -99999.99 -99999.99 -99999.99 -99999.99
1/6/2022 12:00:00 AM -99999.99 -179968 -99999.99 -99999.99 -99999.99 -99999.99
1/6/2022 12:15:00 AM -99999.99 -179968 -99999.99 -99999.99 -99999.99 -99999.99
1/6/2022 12:30:00 AM -99999.99 -179968 -99999.99 -99999.99 -99999.99 -99999.99
1/6/2022 12:45:00 AM -99999.99 -179968 -99999.99 -99999.99 -99999.99 -99999.99
1/6/2022 1:00:00 AM -99999.99 -179968 -99999.99 -99999.99 -99999.99 -99999.99
1/6/2022 1:15:00 AM -99999.99 -179968 -99999.99 -99999.99 -99999.99 -99999.99
1/6/2022 1:30:00 AM -99999.99 -179968 -99999.99 -99999.99 -99999.99 -99999.99
1/6/2022 1:45:00 AM -99999.99 -179968 -99999.99 -99999.99 -99999.99 -99999.99
1/6/2022 2:00:00 AM -99999.99 -179968 -99999.99 -99999.99 -99999.99 -99999.99
1/6/2022 2:15:00 AM -99999.99 -179968 -99999.99 -99999.99 -99999.99 -99999.99
1/6/2022 2:30:00 AM -99999.99 -179968 -99999.99 -99999.99 -99999.99 -99999.99
1/6/2022 2:45:00 AM -99999.99 -179968 -99999.99 -99999.99 -99999.99 -99999.99
1/6/2022 3:00:00 AM -99999.99 -179968 -99999.99 -99999.99 -99999.99 -99999.99
1/6/2022 3:15:00 AM -99999.99 -179968 -99999.99 -99999.99 -99999.99 -99999.99
1/6/2022 3:30:00 AM -99999.99 -179968 -99999.99 -99999.99 -99999.99 -99999.99
1/6/2022 3:45:00 AM -99999.99 -179968 -99999.99 -99999.99 -99999.99 -99999.99
1/6/2022 4:00:00 AM -99999.99 -179968 -99999.99 -99999.99 -99999.99 -99999.99
1/6/2022 4:15:00 AM -99999.99 -179968 -99999.99 -99999.99 -99999.99 -99999.99
1/6/2022 4:30:00 AM -99999.99 -179968 -99999.99 -99999.99 -99999.99 -99999.99
1/6/2022 4:45:00 AM -99999.99 -179968 -99999.99 -99999.99 -99999.99 -99999.99
1/6/2022 5:00:00 AM -99999.99 -179968 -99999.99 -99999.99 -99999.99 -99999.99
1/6/2022 5:15:00 AM -99999.99 -179968 -99999.99 -99999.99 -99999.99 -99999.99
1/6/2022 5:30:00 AM -99999.99 -179968 -99999.99 -99999.99 -99999.99 -99999.99
1/6/2022 5:45:00 AM -99999.99 -179968 -99999.99 -99999.99 -99999.99 -99999.99
1/6/2022 6:00:00 AM -99999.99 -179968 -99999.99 -99999.99 -99999.99 -99999.99
1/6/2022 6:15:00 AM -99999.99 -179968 -99999.99 -99999.99 -99999.99 -99999.99
1/6/2022 6:30:00 AM -99999.99 -179968 -99999.99 -99999.99 -99999.99 -99999.99
1/6/2022 6:45:00 AM -99999.99 -179968 -99999.99 -99999.99 -99999.99 -99999.99
1/6/2022 7:00:00 AM -99999.99 -179968 -99999.99 -99999.99 -99999.99 -99999.99
1/6/2022 7:15:00 AM -99999.99 -179968 -99999.99 -99999.99 -99999.99 -99999.99
1/6/2022 7:30:00 AM -99999.99 -179968 -99999.99 -99999.99 -99999.99 -99999.99
1/6/2022 7:45:00 AM -99999.99 -179968 -99999.99 -99999.99 -99999.99 -99999.99
1/6/2022 8:00:00 AM -99999.99 -179968 -99999.99 -99999.99 -99999.99 -99999.99
1/6/2022 8:15:00 AM -99999.99 -179968 -99999.99 -99999.99 -99999.99 -99999.99
1/6/2022 8:30:00 AM -99999.99 -179968 -99999.99 -99999.99 -99999.99 -99999.99
1/6/2022 8:45:00 AM -99999.99 -179968 -99999.99 -99999.99 -99999.99 -99999.99
1/6/2022 9:00:00 AM -99999.99 -179968 -99999.99 -99999.99 -99999.99 -99999.99
1/6/2022 9:15:00 AM -99999.99 -179968 -99999.99 -99999.99 -99999.99 -99999.99
1/6/2022 9:30:00 AM -99999.99 -179968 -99999.99 -99999.99 -99999.99 -99999.99
1/6/2022 9:45:00 AM -99999.99 -179968 -99999.99 -99999.99 -99999.99 -99999.99
1/6/2022 10:00:00 AM -99999.99 -179968 -99999.99 -99999.99 -99999.99 -99999.99
1/6/2022 10:15:00 AM -99999.99 -179968 -99999.99 -99999.99 -99999.99 -99999.99
1/6/2022 10:30:00 AM -99999.99 -179968 -99999.99 -99999.99 -99999.99 -99999.99
1/6/2022 10:45:00 AM 7.91 46.238 0.928 7.96 13.75 11.34
1/6/2022 11:00:00 AM 7.95 46.31 0.926 7.97 8.56 11.41
1/6/2022 11:15:00 AM 8 46.4 0.924 7.98 8.51 11.47
1/6/2022 11:30:00 AM 8.06 46.508 0.923 7.99 8.01 11.53
1/6/2022 11:45:00 AM 8.11 46.598 0.923 8 8.47 11.61
1/6/2022 12:00:00 PM 8.17 46.706 0.923 8.01 8.17 11.68
1/6/2022 12:15:00 PM 8.25 46.85 0.926 8.02 7.64 11.77
1/6/2022 12:30:00 PM 8.39 47.102 0.931 8.03 7.53 11.91
1/6/2022 12:45:00 PM 8.51 47.318 0.941 8.04 6.78 11.98
1/6/2022 1:00:00 PM 8.63 47.534 0.955 8.05 7.35 11.99
1/6/2022 1:15:00 PM 8.74 47.732 0.974 8.05 7.04 12
1/6/2022 1:30:00 PM 8.85 47.93 0.997 8.05 7.09 11.98
1/6/2022 1:45:00 PM 8.96 48.128 1.019 8.06 6.55 12
1/6/2022 2:00:00 PM 9.08 48.344 1.039 8.06 6.89 11.99
1/6/2022 2:15:00 PM 9.15 48.47 1.055 8.06 7.23 11.95
1/6/2022 2:30:00 PM 9.21 48.578 1.069 8.06 8.14 11.92
1/6/2022 2:45:00 PM 9.24 48.632 1.081 8.07 7.14 11.91
1/6/2022 3:00:00 PM 9.28 48.704 1.093 8.07 7.2 11.89
1/6/2022 3:15:00 PM 9.32 48.776 1.105 8.07 6.63 11.86
1/6/2022 3:30:00 PM 9.35 48.83 1.116 8.07 7 11.8
1/6/2022 3:45:00 PM 9.39 48.902 1.123 8.06 6.97 11.73
1/6/2022 4:00:00 PM 9.43 48.974 1.127 8.06 6.7 11.64
1/6/2022 4:15:00 PM 9.44 48.992 1.129 8.06 6.96 11.54
1/6/2022 4:30:00 PM 9.44 48.992 1.132 8.05 6.85 11.43
1/6/2022 4:45:00 PM 9.43 48.974 1.136 8.04 7.65 11.33
1/6/2022 5:00:00 PM 9.43 48.974 1.141 8.03 7.21 11.23
1/6/2022 5:15:00 PM 9.44 48.992 1.147 8.03 7.49 11.14
1/6/2022 5:30:00 PM 9.45 49.01 1.153 8.02 7.17 11.06
1/6/2022 5:45:00 PM 9.46 49.028 1.157 8.02 7.19 11
1/6/2022 6:00:00 PM 9.47 49.046 1.16 8.01 7.64 10.93
1/6/2022 6:15:00 PM 9.48 49.064 1.162 8.01 7.64 10.87
1/6/2022 6:30:00 PM 9.48 49.064 1.163 8 6.55 10.81
1/6/2022 6:45:00 PM 9.48 49.064 1.163 8 6.15 10.76
1/6/2022 7:00:00 PM 9.47 49.046 1.163 7.99 5.91 10.69
1/6/2022 7:15:00 PM 9.46 49.028 1.162 7.99 5.66 10.62
1/6/2022 7:30:00 PM 9.44 48.992 1.161 7.98 6.16 10.56
1/6/2022 7:45:00 PM 9.42 48.956 1.157 7.97 5.78 10.49
1/6/2022 8:00:00 PM -99999.99 -179968 -99999.99 -99999.99 -99999.99 -99999.99
1/6/2022 8:15:00 PM -99999.99 -179968 -99999.99 -99999.99 -99999.99 -99999.99
1/6/2022 8:30:00 PM -99999.99 -179968 -99999.99 -99999.99 -99999.99 -99999.99
1/6/2022 8:45:00 PM -99999.99 -179968 -99999.99 -99999.99 -99999.99 -99999.99
1/6/2022 9:00:00 PM -99999.99 -179968 -99999.99 -99999.99 -99999.99 -99999.99
1/6/2022 9:15:00 PM -99999.99 -179968 -99999.99 -99999.99 -99999.99 -99999.99
1/6/2022 9:30:00 PM -99999.99 -179968 -99999.99 -99999.99 -99999.99 -99999.99
1/6/2022 9:45:00 PM -99999.99 -179968 -99999.99 -99999.99 -99999.99 -99999.99
1/6/2022 10:00:00 PM -99999.99 -179968 -99999.99 -99999.99 -99999.99 -99999.99
1/6/2022 10:15:00 PM -99999.99 -179968 -99999.99 -99999.99 -99999.99 -99999.99
1/6/2022 10:30:00 PM -99999.99 -179968 -99999.99 -99999.99 -99999.99 -99999.99
1/6/2022 10:45:00 PM -99999.99 -179968 -99999.99 -99999.99 -99999.99 -99999.99
1/6/2022 11:00:00 PM -99999.99 -179968 -99999.99 -99999.99 -99999.99 -99999.99
1/6/2022 11:15:00 PM -99999.99 -179968 -99999.99 -99999.99 -99999.99 -99999.99
1/6/2022 11:30:00 PM -99999.99 -179968 -99999.99 -99999.99 -99999.99 -99999.99
1/6/2022 11:45:00 PM -99999.99 -179968 -99999.99 -99999.99 -99999.99 -99999.99
1/7/2022 12:00:00 AM -99999.99 -179968 -99999.99 -99999.99 -99999.99 -99999.99
1/7/2022 12:15:00 AM -99999.99 -179968 -99999.99 -99999.99 -99999.99 -99999.99
1/7/2022 12:30:00 AM -99999.99 -179968 -99999.99 -99999.99 -99999.99 -99999.99
1/7/2022 12:45:00 AM -99999.99 -179968 -99999.99 -99999.99 -99999.99 -99999.99
1/7/2022 1:00:00 AM -99999.99 -179968 -99999.99 -99999.99 -99999.99 -99999.99
1/7/2022 1:15:00 AM -99999.99 -179968 -99999.99 -99999.99 -99999.99 -99999.99
1/7/2022 1:30:00 AM -99999.99 -179968 -99999.99 -99999.99 -99999.99 -99999.99
1/7/2022 1:45:00 AM -99999.99 -179968 -99999.99 -99999.99 -99999.99 -99999.99
1/7/2022 2:00:00 AM -99999.99 -179968 -99999.99 -99999.99 -99999.99 -99999.99
1/7/2022 2:15:00 AM -99999.99 -179968 -99999.99 -99999.99 -99999.99 -99999.99
1/7/2022 2:30:00 AM -99999.99 -179968 -99999.99 -99999.99 -99999.99 -99999.99
1/7/2022 2:45:00 AM -99999.99 -179968 -99999.99 -99999.99 -99999.99 -99999.99
1/7/2022 3:00:00 AM -99999.99 -179968 -99999.99 -99999.99 -99999.99 -99999.99
1/7/2022 3:15:00 AM -99999.99 -179968 -99999.99 -99999.99 -99999.99 -99999.99
1/7/2022 3:30:00 AM -99999.99 -179968 -99999.99 -99999.99 -99999.99 -99999.99
1/7/2022 3:45:00 AM -99999.99 -179968 -99999.99 -99999.99 -99999.99 -99999.99
1/7/2022 4:00:00 AM -99999.99 -179968 -99999.99 -99999.99 -99999.99 -99999.99
1/7/2022 4:15:00 AM -99999.99 -179968 -99999.99 -99999.99 -99999.99 -99999.99
1/7/2022 4:30:00 AM -99999.99 -179968 -99999.99 -99999.99 -99999.99 -99999.99
1/7/2022 4:45:00 AM -99999.99 -179968 -99999.99 -99999.99 -99999.99 -99999.99
1/7/2022 5:00:00 AM -99999.99 -179968 -99999.99 -99999.99 -99999.99 -99999.99
1/7/2022 5:15:00 AM -99999.99 -179968 -99999.99 -99999.99 -99999.99 -99999.99
1/7/2022 5:30:00 AM -99999.99 -179968 -99999.99 -99999.99 -99999.99 -99999.99
1/7/2022 5:45:00 AM -99999.99 -179968 -99999.99 -99999.99 -99999.99 -99999.99
1/7/2022 6:00:00 AM -99999.99 -179968 -99999.99 -99999.99 -99999.99 -99999.99
1/7/2022 6:15:00 AM -99999.99 -179968 -99999.99 -99999.99 -99999.99 -99999.99
1/7/2022 6:30:00 AM -99999.99 -179968 -99999.99 -99999.99 -99999.99 -99999.99
1/7/2022 6:45:00 AM -99999.99 -179968 -99999.99 -99999.99 -99999.99 -99999.99
1/7/2022 7:00:00 AM -99999.99 -179968 -99999.99 -99999.99 -99999.99 -99999.99
1/7/2022 7:15:00 AM -99999.99 -179968 -99999.99 -99999.99 -99999.99 -99999.99
1/7/2022 7:30:00 AM -99999.99 -179968 -99999.99 -99999.99 -99999.99 -99999.99
1/7/2022 7:45:00 AM -99999.99 -179968 -99999.99 -99999.99 -99999.99 -99999.99
1/7/2022 8:00:00 AM -99999.99 -179968 -99999.99 -99999.99 -99999.99 -99999.99
1/7/2022 8:15:00 AM -99999.99 -179968 -99999.99 -99999.99 -99999.99 -99999.99
1/7/2022 8:30:00 AM -99999.99 -179968 -99999.99 -99999.99 -99999.99 -99999.99
1/7/2022 8:45:00 AM -99999.99 -179968 -99999.99 -99999.99 -99999.99 -99999.99
1/7/2022 9:00:00 AM -99999.99 -179968 -99999.99 -99999.99 -99999.99 -99999.99
1/7/2022 9:15:00 AM -99999.99 -179968 -99999.99 -99999.99 -99999.99 -99999.99
1/7/2022 9:30:00 AM -99999.99 -179968 -99999.99 -99999.99 -99999.99 -99999.99
1/7/2022 9:45:00 AM -99999.99 -179968 -99999.99 -99999.99 -99999.99 -99999.99
1/7/2022 10:00:00 AM -99999.99 -179968 -99999.99 -99999.99 -99999.99 -99999.99
1/7/2022 10:15:00 AM -99999.99 -179968 -99999.99 -99999.99 -99999.99 -99999.99
1/7/2022 10:30:00 AM -99999.99 -179968 -99999.99 -99999.99 -99999.99 -99999.99
1/7/2022 10:45:00 AM -99999.99 -179968 -99999.99 -99999.99 -99999.99 -99999.99
1/7/2022 11:00:00 AM -99999.99 -179968 -99999.99 -99999.99 -99999.99 -99999.99
1/7/2022 11:15:00 AM -99999.99 -179968 -99999.99 -99999.99 -99999.99 -99999.99
1/7/2022 11:30:00 AM -99999.99 -179968 -99999.99 -99999.99 -99999.99 -99999.99
1/7/2022 11:45:00 AM -99999.99 -179968 -99999.99 -99999.99 -99999.99 -99999.99
1/7/2022 12:00:00 PM -99999.99 -179968 -99999.99 -99999.99 -99999.99 -99999.99
1/7/2022 12:15:00 PM -99999.99 -179968 -99999.99 -99999.99 -99999.99 -99999.99
1/7/2022 12:30:00 PM -99999.99 -179968 -99999.99 -99999.99 -99999.99 -99999.99
1/7/2022 12:45:00 PM -99999.99 -179968 -99999.99 -99999.99 -99999.99 -99999.99
1/7/2022 1:00:00 PM -99999.99 -179968 -99999.99 -99999.99 -99999.99 -99999.99
1/7/2022 1:15:00 PM -99999.99 -179968 -99999.99 -99999.99 -99999.99 -99999.99
1/7/2022 1:30:00 PM -99999.99 -179968 -99999.99 -99999.99 -99999.99 -99999.99
1/7/2022 1:45:00 PM -99999.99 -179968 -99999.99 -99999.99 -99999.99 -99999.99
1/7/2022 2:00:00 PM -99999.99 -179968 -99999.99 -99999.99 -99999.99 -99999.99
1/7/2022 2:15:00 PM -99999.99 -179968 -99999.99 -99999.99 -99999.99 -99999.99
1/7/2022 2:30:00 PM -99999.99 -179968 -99999.99 -99999.99 -99999.99 -99999.99
1/7/2022 2:45:00 PM -99999.99 -179968 -99999.99 -99999.99 -99999.99 -99999.99
1/7/2022 3:00:00 PM -99999.99 -179968 -99999.99 -99999.99 -99999.99 -99999.99
1/7/2022 3:15:00 PM -99999.99 -179968 -99999.99 -99999.99 -99999.99 -99999.99
1/7/2022 3:30:00 PM -99999.99 -179968 -99999.99 -99999.99 -99999.99 -99999.99
1/7/2022 3:45:00 PM -99999.99 -179968 -99999.99 -99999.99 -99999.99 -99999.99
1/7/2022 4:00:00 PM -99999.99 -179968 -99999.99 -99999.99 -99999.99 -99999.99
1/7/2022 4:15:00 PM -99999.99 -179968 -99999.99 -99999.99 -99999.99 -99999.99
1/7/2022 4:30:00 PM -99999.99 -179968 -99999.99 -99999.99 -99999.99 -99999.99
1/7/2022 4:45:00 PM -99999.99 -179968 -99999.99 -99999.99 -99999.99 -99999.99
1/7/2022 5:00:00 PM -99999.99 -179968 -99999.99 -99999.99 -99999.99 -99999.99
1/7/2022 5:15:00 PM -99999.99 -179968 -99999.99 -99999.99 -99999.99 -99999.99
1/7/2022 5:30:00 PM -99999.99 -179968 -99999.99 -99999.99 -99999.99 -99999.99
1/7/2022 5:45:00 PM -99999.99 -179968 -99999.99 -99999.99 -99999.99 -99999.99
1/7/2022 6:00:00 PM -99999.99 -179968 -99999.99 -99999.99 -99999.99 -99999.99
1/7/2022 6:15:00 PM -99999.99 -179968 -99999.99 -99999.99 -99999.99 -99999.99
1/7/2022 6:30:00 PM -99999.99 -179968 -99999.99 -99999.99 -99999.99 -99999.99
1/7/2022 6:45:00 PM -99999.99 -179968 -99999.99 -99999.99 -99999.99 -99999.99
1/7/2022 7:00:00 PM -99999.99 -179968 -99999.99 -99999.99 -99999.99 -99999.99
1/7/2022 7:15:00 PM -99999.99 -179968 -99999.99 -99999.99 -99999.99 -99999.99
1/7/2022 7:30:00 PM -99999.99 -179968 -99999.99 -99999.99 -99999.99 -99999.99
1/7/2022 7:45:00 PM -99999.99 -179968 -99999.99 -99999.99 -99999.99 -99999.99
1/7/2022 8:00:00 PM -99999.99 -179968 -99999.99 -99999.99 -99999.99 -99999.99
1/7/2022 8:15:00 PM -99999.99 -179968 -99999.99 -99999.99 -99999.99 -99999.99
1/7/2022 8:30:00 PM -99999.99 -179968 -99999.99 -99999.99 -99999.99 -99999.99
1/7/2022 8:45:00 PM -99999.99 -179968 -99999.99 -99999.99 -99999.99 -99999.99
1/7/2022 9:00:00 PM -99999.99 -179968 -99999.99 -99999.99 -99999.99 -99999.99
1/7/2022 9:15:00 PM -99999.99 -179968 -99999.99 -99999.99 -99999.99 -99999.99
1/7/2022 9:30:00 PM -99999.99 -179968 -99999.99 -99999.99 -99999.99 -99999.99
1/7/2022 9:45:00 PM -99999.99 -179968 -99999.99 -99999.99 -99999.99 -99999.99
1/7/2022 10:00:00 PM -99999.99 -179968 -99999.99 -99999.99 -99999.99 -99999.99
1/7/2022 10:15:00 PM -99999.99 -179968 -99999.99 -99999.99 -99999.99 -99999.99
1/7/2022 10:30:00 PM -99999.99 -179968 -99999.99 -99999.99 -99999.99 -99999.99
1/7/2022 10:45:00 PM -99999.99 -179968 -99999.99 -99999.99 -99999.99 -99999.99
1/7/2022 11:00:00 PM -99999.99 -179968 -99999.99 -99999.99 -99999.99 -99999.99
1/7/2022 11:15:00 PM -99999.99 -179968 -99999.99 -99999.99 -99999.99 -99999.99
1/7/2022 11:30:00 PM -99999.99 -179968 -99999.99 -99999.99 -99999.99 -99999.99
1/7/2022 11:45:00 PM -99999.99 -179968 -99999.99 -99999.99 -99999.99 -99999.99
1/8/2022 12:00:00 AM -99999.99 -179968 -99999.99 -99999.99 -99999.99 -99999.99
1/8/2022 12:15:00 AM -99999.99 -179968 -99999.99 -99999.99 -99999.99 -99999.99
1/8/2022 12:30:00 AM -99999.99 -179968 -99999.99 -99999.99 -99999.99 -99999.99
1/8/2022 12:45:00 AM -99999.99 -179968 -99999.99 -99999.99 -99999.99 -99999.99
1/8/2022 1:00:00 AM -99999.99 -179968 -99999.99 -99999.99 -99999.99 -99999.99
1/8/2022 1:15:00 AM -99999.99 -179968 -99999.99 -99999.99 -99999.99 -99999.99
1/8/2022 1:30:00 AM -99999.99 -179968 -99999.99 -99999.99 -99999.99 -99999.99
1/8/2022 1:45:00 AM -99999.99 -179968 -99999.99 -99999.99 -99999.99 -99999.99
1/8/2022 2:00:00 AM -99999.99 -179968 -99999.99 -99999.99 -99999.99 -99999.99
1/8/2022 2:15:00 AM -99999.99 -179968 -99999.99 -99999.99 -99999.99 -99999.99
1/8/2022 2:30:00 AM -99999.99 -179968 -99999.99 -99999.99 -99999.99 -99999.99
1/8/2022 2:45:00 AM -99999.99 -179968 -99999.99 -99999.99 -99999.99 -99999.99
1/8/2022 3:00:00 AM -99999.99 -179968 -99999.99 -99999.99 -99999.99 -99999.99
1/8/2022 3:15:00 AM -99999.99 -179968 -99999.99 -99999.99 -99999.99 -99999.99
1/8/2022 3:30:00 AM -99999.99 -179968 -99999.99 -99999.99 -99999.99 -99999.99
1/8/2022 3:45:00 AM -99999.99 -179968 -99999.99 -99999.99 -99999.99 -99999.99
1/8/2022 4:00:00 AM -99999.99 -179968 -99999.99 -99999.99 -99999.99 -99999.99
1/8/2022 4:15:00 AM -99999.99 -179968 -99999.99 -99999.99 -99999.99 -99999.99
1/8/2022 4:30:00 AM -99999.99 -179968 -99999.99 -99999.99 -99999.99 -99999.99
1/8/2022 4:45:00 AM -99999.99 -179968 -99999.99 -99999.99 -99999.99 -99999.99
1/8/2022 5:00:00 AM -99999.99 -179968 -99999.99 -99999.99 -99999.99 -99999.99
1/8/2022 5:15:00 AM -99999.99 -179968 -99999.99 -99999.99 -99999.99 -99999.99
1/8/2022 5:30:00 AM -99999.99 -179968 -99999.99 -99999.99 -99999.99 -99999.99
1/8/2022 5:45:00 AM -99999.99 -179968 -99999.99 -99999.99 -99999.99 -99999.99
1/8/2022 6:00:00 AM -99999.99 -179968 -99999.99 -99999.99 -99999.99 -99999.99
1/8/2022 6:15:00 AM -99999.99 -179968 -99999.99 -99999.99 -99999.99 -99999.99
1/8/2022 6:30:00 AM -99999.99 -179968 -99999.99 -99999.99 -99999.99 -99999.99
1/8/2022 6:45:00 AM -99999.99 -179968 -99999.99 -99999.99 -99999.99 -99999.99
1/8/2022 7:00:00 AM -99999.99 -179968 -99999.99 -99999.99 -99999.99 -99999.99
1/8/2022 7:15:00 AM -99999.99 -179968 -99999.99 -99999.99 -99999.99 -99999.99
1/8/2022 7:30:00 AM -99999.99 -179968 -99999.99 -99999.99 -99999.99 -99999.99
1/8/2022 7:45:00 AM -99999.99 -179968 -99999.99 -99999.99 -99999.99 -99999.99
1/8/2022 8:00:00 AM -99999.99 -179968 -99999.99 -99999.99 -99999.99 -99999.99
1/8/2022 8:15:00 AM -99999.99 -179968 -99999.99 -99999.99 -99999.99 -99999.99
1/8/2022 8:30:00 AM -99999.99 -179968 -99999.99 -99999.99 -99999.99 -99999.99
1/8/2022 8:45:00 AM -99999.99 -179968 -99999.99 -99999.99 -99999.99 -99999.99
1/8/2022 9:00:00 AM -99999.99 -179968 -99999.99 -99999.99 -99999.99 -99999.99
1/8/2022 9:15:00 AM -99999.99 -179968 -99999.99 -99999.99 -99999.99 -99999.99
1/8/2022 9:30:00 AM -99999.99 -179968 -99999.99 -99999.99 -99999.99 -99999.99
1/8/2022 9:45:00 AM -99999.99 -179968 -99999.99 -99999.99 -99999.99 -99999.99
1/8/2022 10:00:00 AM -99999.99 -179968 -99999.99 -99999.99 -99999.99 -99999.99
1/8/2022 10:15:00 AM -99999.99 -179968 -99999.99 -99999.99 -99999.99 -99999.99
1/8/2022 10:30:00 AM -99999.99 -179968 -99999.99 -99999.99 -99999.99 -99999.99
1/8/2022 10:45:00 AM -99999.99 -179968 -99999.99 -99999.99 -99999.99 -99999.99
1/8/2022 11:00:00 AM -99999.99 -179968 -99999.99 -99999.99 -99999.99 -99999.99
1/8/2022 11:15:00 AM -99999.99 -179968 -99999.99 -99999.99 -99999.99 -99999.99
1/8/2022 11:30:00 AM -99999.99 -179968 -99999.99 -99999.99 -99999.99 -99999.99
1/8/2022 11:45:00 AM -99999.99 -179968 -99999.99 -99999.99 -99999.99 -99999.99
1/8/2022 12:00:00 PM -99999.99 -179968 -99999.99 -99999.99 -99999.99 -99999.99
1/8/2022 12:15:00 PM -99999.99 -179968 -99999.99 -99999.99 -99999.99 -99999.99
1/8/2022 12:30:00 PM -99999.99 -179968 -99999.99 -99999.99 -99999.99 -99999.99
1/8/2022 12:45:00 PM -99999.99 -179968 -99999.99 -99999.99 -99999.99 -99999.99
1/8/2022 1:00:00 PM 6.51 43.718 0.974 8.08 9.15 12.74
1/8/2022 1:15:00 PM 6.6 43.88 0.981 8.07 7.91 12.77
1/8/2022 1:30:00 PM 6.7 44.06 0.994 8.07 7.73 12.78
1/8/2022 1:45:00 PM 6.81 44.258 1.011 8.07 7.93 12.76
1/8/2022 2:00:00 PM 6.91 44.438 1.028 8.08 8.84 12.75
1/8/2022 2:15:00 PM 7.01 44.618 1.044 8.08 7.94 12.73
1/8/2022 2:30:00 PM 7.11 44.798 1.06 8.08 7.31 12.71
1/8/2022 2:45:00 PM 7.18 44.924 1.075 8.08 6.72 12.66
1/8/2022 3:00:00 PM -99999.99 -179968 -99999.99 -99999.99 -99999.99 -99999.99
1/8/2022 3:15:00 PM -99999.99 -179968 -99999.99 -99999.99 -99999.99 -99999.99
1/8/2022 3:30:00 PM -99999.99 -179968 -99999.99 -99999.99 -99999.99 -99999.99
1/8/2022 3:45:00 PM -99999.99 -179968 -99999.99 -99999.99 -99999.99 -99999.99
1/8/2022 4:00:00 PM -99999.99 -179968 -99999.99 -99999.99 -99999.99 -99999.99
1/8/2022 4:15:00 PM -99999.99 -179968 -99999.99 -99999.99 -99999.99 -99999.99
1/8/2022 4:30:00 PM -99999.99 -179968 -99999.99 -99999.99 -99999.99 -99999.99
1/8/2022 4:45:00 PM -99999.99 -179968 -99999.99 -99999.99 -99999.99 -99999.99
1/8/2022 5:00:00 PM -99999.99 -179968 -99999.99 -99999.99 -99999.99 -99999.99
1/8/2022 5:15:00 PM -99999.99 -179968 -99999.99 -99999.99 -99999.99 -99999.99
1/8/2022 5:30:00 PM -99999.99 -179968 -99999.99 -99999.99 -99999.99 -99999.99
1/8/2022 5:45:00 PM -99999.99 -179968 -99999.99 -99999.99 -99999.99 -99999.99
1/8/2022 6:00:00 PM -99999.99 -179968 -99999.99 -99999.99 -99999.99 -99999.99
1/8/2022 6:15:00 PM -99999.99 -179968 -99999.99 -99999.99 -99999.99 -99999.99
1/8/2022 6:30:00 PM -99999.99 -179968 -99999.99 -99999.99 -99999.99 -99999.99
1/8/2022 6:45:00 PM -99999.99 -179968 -99999.99 -99999.99 -99999.99 -99999.99
1/8/2022 7:00:00 PM -99999.99 -179968 -99999.99 -99999.99 -99999.99 -99999.99
1/8/2022 7:15:00 PM -99999.99 -179968 -99999.99 -99999.99 -99999.99 -99999.99
1/8/2022 7:30:00 PM -99999.99 -179968 -99999.99 -99999.99 -99999.99 -99999.99
1/8/2022 7:45:00 PM -99999.99 -179968 -99999.99 -99999.99 -99999.99 -99999.99
1/8/2022 8:00:00 PM -99999.99 -179968 -99999.99 -99999.99 -99999.99 -99999.99
1/8/2022 8:15:00 PM -99999.99 -179968 -99999.99 -99999.99 -99999.99 -99999.99
1/8/2022 8:30:00 PM -99999.99 -179968 -99999.99 -99999.99 -99999.99 -99999.99
1/8/2022 8:45:00 PM -99999.99 -179968 -99999.99 -99999.99 -99999.99 -99999.99
1/8/2022 9:00:00 PM -99999.99 -179968 -99999.99 -99999.99 -99999.99 -99999.99
1/8/2022 9:15:00 PM -99999.99 -179968 -99999.99 -99999.99 -99999.99 -99999.99
1/8/2022 9:30:00 PM -99999.99 -179968 -99999.99 -99999.99 -99999.99 -99999.99
1/8/2022 9:45:00 PM -99999.99 -179968 -99999.99 -99999.99 -99999.99 -99999.99
1/8/2022 10:00:00 PM -99999.99 -179968 -99999.99 -99999.99 -99999.99 -99999.99
1/8/2022 10:15:00 PM -99999.99 -179968 -99999.99 -99999.99 -99999.99 -99999.99
1/8/2022 10:30:00 PM -99999.99 -179968 -99999.99 -99999.99 -99999.99 -99999.99
1/8/2022 10:45:00 PM -99999.99 -179968 -99999.99 -99999.99 -99999.99 -99999.99
1/8/2022 11:00:00 PM -99999.99 -179968 -99999.99 -99999.99 -99999.99 -99999.99
1/8/2022 11:15:00 PM -99999.99 -179968 -99999.99 -99999.99 -99999.99 -99999.99
1/8/2022 11:30:00 PM -99999.99 -179968 -99999.99 -99999.99 -99999.99 -99999.99
1/8/2022 11:45:00 PM -99999.99 -179968 -99999.99 -99999.99 -99999.99 -99999.99
1/9/2022 12:00:00 AM -99999.99 -179968 -99999.99 -99999.99 -99999.99 -99999.99
1/9/2022 12:15:00 AM -99999.99 -179968 -99999.99 -99999.99 -99999.99 -99999.99
1/9/2022 12:30:00 AM -99999.99 -179968 -99999.99 -99999.99 -99999.99 -99999.99
1/9/2022 12:45:00 AM -99999.99 -179968 -99999.99 -99999.99 -99999.99 -99999.99
1/9/2022 1:00:00 AM -99999.99 -179968 -99999.99 -99999.99 -99999.99 -99999.99
1/9/2022 1:15:00 AM -99999.99 -179968 -99999.99 -99999.99 -99999.99 -99999.99
1/9/2022 1:30:00 AM -99999.99 -179968 -99999.99 -99999.99 -99999.99 -99999.99
1/9/2022 1:45:00 AM -99999.99 -179968 -99999.99 -99999.99 -99999.99 -99999.99
1/9/2022 2:00:00 AM -99999.99 -179968 -99999.99 -99999.99 -99999.99 -99999.99
1/9/2022 2:15:00 AM -99999.99 -179968 -99999.99 -99999.99 -99999.99 -99999.99
1/9/2022 2:30:00 AM -99999.99 -179968 -99999.99 -99999.99 -99999.99 -99999.99
1/9/2022 2:45:00 AM -99999.99 -179968 -99999.99 -99999.99 -99999.99 -99999.99
1/9/2022 3:00:00 AM -99999.99 -179968 -99999.99 -99999.99 -99999.99 -99999.99
1/9/2022 3:15:00 AM -99999.99 -179968 -99999.99 -99999.99 -99999.99 -99999.99
1/9/2022 3:30:00 AM -99999.99 -179968 -99999.99 -99999.99 -99999.99 -99999.99
1/9/2022 3:45:00 AM -99999.99 -179968 -99999.99 -99999.99 -99999.99 -99999.99
1/9/2022 4:00:00 AM -99999.99 -179968 -99999.99 -99999.99 -99999.99 -99999.99
1/9/2022 4:15:00 AM -99999.99 -179968 -99999.99 -99999.99 -99999.99 -99999.99
1/9/2022 4:30:00 AM -99999.99 -179968 -99999.99 -99999.99 -99999.99 -99999.99
1/9/2022 4:45:00 AM -99999.99 -179968 -99999.99 -99999.99 -99999.99 -99999.99
1/9/2022 5:00:00 AM -99999.99 -179968 -99999.99 -99999.99 -99999.99 -99999.99
1/9/2022 5:15:00 AM -99999.99 -179968 -99999.99 -99999.99 -99999.99 -99999.99
1/9/2022 5:30:00 AM -99999.99 -179968 -99999.99 -99999.99 -99999.99 -99999.99
1/9/2022 5:45:00 AM -99999.99 -179968 -99999.99 -99999.99 -99999.99 -99999.99
1/9/2022 6:00:00 AM -99999.99 -179968 -99999.99 -99999.99 -99999.99 -99999.99
1/9/2022 6:15:00 AM -99999.99 -179968 -99999.99 -99999.99 -99999.99 -99999.99
1/9/2022 6:30:00 AM -99999.99 -179968 -99999.99 -99999.99 -99999.99 -99999.99
1/9/2022 6:45:00 AM -99999.99 -179968 -99999.99 -99999.99 -99999.99 -99999.99
1/9/2022 7:00:00 AM -99999.99 -179968 -99999.99 -99999.99 -99999.99 -99999.99
1/9/2022 7:15:00 AM -99999.99 -179968 -99999.99 -99999.99 -99999.99 -99999.99
1/9/2022 7:30:00 AM -99999.99 -179968 -99999.99 -99999.99 -99999.99 -99999.99
1/9/2022 7:45:00 AM -99999.99 -179968 -99999.99 -99999.99 -99999.99 -99999.99
1/9/2022 8:00:00 AM -99999.99 -179968 -99999.99 -99999.99 -99999.99 -99999.99
1/9/2022 8:15:00 AM -99999.99 -179968 -99999.99 -99999.99 -99999.99 -99999.99
1/9/2022 8:30:00 AM -99999.99 -179968 -99999.99 -99999.99 -99999.99 -99999.99
1/9/2022 8:45:00 AM -99999.99 -179968 -99999.99 -99999.99 -99999.99 -99999.99
1/9/2022 9:00:00 AM -99999.99 -179968 -99999.99 -99999.99 -99999.99 -99999.99
1/9/2022 9:15:00 AM -99999.99 -179968 -99999.99 -99999.99 -99999.99 -99999.99
1/9/2022 9:30:00 AM -99999.99 -179968 -99999.99 -99999.99 -99999.99 -99999.99
1/9/2022 9:45:00 AM -99999.99 -179968 -99999.99 -99999.99 -99999.99 -99999.99
1/9/2022 10:00:00 AM -99999.99 -179968 -99999.99 -99999.99 -99999.99 -99999.99
1/9/2022 10:15:00 AM -99999.99 -179968 -99999.99 -99999.99 -99999.99 -99999.99
1/9/2022 10:30:00 AM -99999.99 -179968 -99999.99 -99999.99 -99999.99 -99999.99
1/9/2022 10:45:00 AM -99999.99 -179968 -99999.99 -99999.99 -99999.99 -99999.99
1/9/2022 11:00:00 AM -99999.99 -179968 -99999.99 -99999.99 -99999.99 -99999.99
1/9/2022 11:15:00 AM -99999.99 -179968 -99999.99 -99999.99 -99999.99 -99999.99
1/9/2022 11:30:00 AM -99999.99 -179968 -99999.99 -99999.99 -99999.99 -99999.99
1/9/2022 11:45:00 AM -99999.99 -179968 -99999.99 -99999.99 -99999.99 -99999.99
1/9/2022 12:00:00 PM -99999.99 -179968 -99999.99 -99999.99 -99999.99 -99999.99
1/9/2022 12:15:00 PM -99999.99 -179968 -99999.99 -99999.99 -99999.99 -99999.99
1/9/2022 12:30:00 PM -99999.99 -179968 -99999.99 -99999.99 -99999.99 -99999.99
1/9/2022 12:45:00 PM -99999.99 -179968 -99999.99 -99999.99 -99999.99 -99999.99
1/9/2022 1:00:00 PM -99999.99 -179968 -99999.99 -99999.99 -99999.99 -99999.99
1/9/2022 1:15:00 PM -99999.99 -179968 -99999.99 -99999.99 -99999.99 -99999.99
1/9/2022 1:30:00 PM -99999.99 -179968 -99999.99 -99999.99 -99999.99 -99999.99
1/9/2022 1:45:00 PM -99999.99 -179968 -99999.99 -99999.99 -99999.99 -99999.99
1/9/2022 2:00:00 PM -99999.99 -179968 -99999.99 -99999.99 -99999.99 -99999.99
1/9/2022 2:15:00 PM -99999.99 -179968 -99999.99 -99999.99 -99999.99 -99999.99
1/9/2022 2:30:00 PM -99999.99 -179968 -99999.99 -99999.99 -99999.99 -99999.99
1/9/2022 2:45:00 PM -99999.99 -179968 -99999.99 -99999.99 -99999.99 -99999.99
1/9/2022 3:00:00 PM -99999.99 -179968 -99999.99 -99999.99 -99999.99 -99999.99
1/9/2022 3:15:00 PM -99999.99 -179968 -99999.99 -99999.99 -99999.99 -99999.99
1/9/2022 3:30:00 PM -99999.99 -179968 -99999.99 -99999.99 -99999.99 -99999.99
1/9/2022 3:45:00 PM -99999.99 -179968 -99999.99 -99999.99 -99999.99 -99999.99
1/9/2022 4:00:00 PM -99999.99 -179968 -99999.99 -99999.99 -99999.99 -99999.99
1/9/2022 4:15:00 PM -99999.99 -179968 -99999.99 -99999.99 -99999.99 -99999.99
1/9/2022 4:30:00 PM -99999.99 -179968 -99999.99 -99999.99 -99999.99 -99999.99
1/9/2022 4:45:00 PM -99999.99 -179968 -99999.99 -99999.99 -99999.99 -99999.99
1/9/2022 5:00:00 PM -99999.99 -179968 -99999.99 -99999.99 -99999.99 -99999.99
1/9/2022 5:15:00 PM -99999.99 -179968 -99999.99 -99999.99 -99999.99 -99999.99
1/9/2022 5:30:00 PM -99999.99 -179968 -99999.99 -99999.99 -99999.99 -99999.99
1/9/2022 5:45:00 PM -99999.99 -179968 -99999.99 -99999.99 -99999.99 -99999.99
1/9/2022 6:00:00 PM -99999.99 -179968 -99999.99 -99999.99 -99999.99 -99999.99
1/9/2022 6:15:00 PM -99999.99 -179968 -99999.99 -99999.99 -99999.99 -99999.99
1/9/2022 6:30:00 PM -99999.99 -179968 -99999.99 -99999.99 -99999.99 -99999.99
1/9/2022 6:45:00 PM -99999.99 -179968 -99999.99 -99999.99 -99999.99 -99999.99
1/9/2022 7:00:00 PM -99999.99 -179968 -99999.99 -99999.99 -99999.99 -99999.99
1/9/2022 7:15:00 PM -99999.99 -179968 -99999.99 -99999.99 -99999.99 -99999.99
1/9/2022 7:30:00 PM -99999.99 -179968 -99999.99 -99999.99 -99999.99 -99999.99
1/9/2022 7:45:00 PM -99999.99 -179968 -99999.99 -99999.99 -99999.99 -99999.99
1/9/2022 8:00:00 PM -99999.99 -179968 -99999.99 -99999.99 -99999.99 -99999.99
1/9/2022 8:15:00 PM -99999.99 -179968 -99999.99 -99999.99 -99999.99 -99999.99
1/9/2022 8:30:00 PM -99999.99 -179968 -99999.99 -99999.99 -99999.99 -99999.99
1/9/2022 8:45:00 PM -99999.99 -179968 -99999.99 -99999.99 -99999.99 -99999.99
1/9/2022 9:00:00 PM -99999.99 -179968 -99999.99 -99999.99 -99999.99 -99999.99
1/9/2022 9:15:00 PM -99999.99 -179968 -99999.99 -99999.99 -99999.99 -99999.99
1/9/2022 9:30:00 PM -99999.99 -179968 -99999.99 -99999.99 -99999.99 -99999.99
1/9/2022 9:45:00 PM -99999.99 -179968 -99999.99 -99999.99 -99999.99 -99999.99
1/9/2022 10:00:00 PM -99999.99 -179968 -99999.99 -99999.99 -99999.99 -99999.99
1/9/2022 10:15:00 PM -99999.99 -179968 -99999.99 -99999.99 -99999.99 -99999.99
1/9/2022 10:30:00 PM -99999.99 -179968 -99999.99 -99999.99 -99999.99 -99999.99
1/9/2022 10:45:00 PM -99999.99 -179968 -99999.99 -99999.99 -99999.99 -99999.99
1/9/2022 11:00:00 PM -99999.99 -179968 -99999.99 -99999.99 -99999.99 -99999.99
1/9/2022 11:15:00 PM -99999.99 -179968 -99999.99 -99999.99 -99999.99 -99999.99
1/9/2022 11:30:00 PM -99999.99 -179968 -99999.99 -99999.99 -99999.99 -99999.99
1/9/2022 11:45:00 PM -99999.99 -179968 -99999.99 -99999.99 -99999.99 -99999.99
1/10/2022 12:00:00 AM -99999.99 -179968 -99999.99 -99999.99 -99999.99 -99999.99
1/10/2022 12:15:00 AM -99999.99 -179968 -99999.99 -99999.99 -99999.99 -99999.99
1/10/2022 12:30:00 AM -99999.99 -179968 -99999.99 -99999.99 -99999.99 -99999.99
1/10/2022 12:45:00 AM -99999.99 -179968 -99999.99 -99999.99 -99999.99 -99999.99
1/10/2022 1:00:00 AM -99999.99 -179968 -99999.99 -99999.99 -99999.99 -99999.99
1/10/2022 1:15:00 AM -99999.99 -179968 -99999.99 -99999.99 -99999.99 -99999.99
1/10/2022 1:30:00 AM -99999.99 -179968 -99999.99 -99999.99 -99999.99 -99999.99
1/10/2022 1:45:00 AM -99999.99 -179968 -99999.99 -99999.99 -99999.99 -99999.99
1/10/2022 2:00:00 AM -99999.99 -179968 -99999.99 -99999.99 -99999.99 -99999.99
1/10/2022 2:15:00 AM -99999.99 -179968 -99999.99 -99999.99 -99999.99 -99999.99
1/10/2022 2:30:00 AM -99999.99 -179968 -99999.99 -99999.99 -99999.99 -99999.99
1/10/2022 2:45:00 AM -99999.99 -179968 -99999.99 -99999.99 -99999.99 -99999.99
1/10/2022 3:00:00 AM -99999.99 -179968 -99999.99 -99999.99 -99999.99 -99999.99
1/10/2022 3:15:00 AM -99999.99 -179968 -99999.99 -99999.99 -99999.99 -99999.99
1/10/2022 3:30:00 AM -99999.99 -179968 -99999.99 -99999.99 -99999.99 -99999.99
1/10/2022 3:45:00 AM -99999.99 -179968 -99999.99 -99999.99 -99999.99 -99999.99
1/10/2022 4:00:00 AM -99999.99 -179968 -99999.99 -99999.99 -99999.99 -99999.99
1/10/2022 4:15:00 AM -99999.99 -179968 -99999.99 -99999.99 -99999.99 -99999.99
1/10/2022 4:30:00 AM -99999.99 -179968 -99999.99 -99999.99 -99999.99 -99999.99
1/10/2022 4:45:00 AM -99999.99 -179968 -99999.99 -99999.99 -99999.99 -99999.99
1/10/2022 5:00:00 AM -99999.99 -179968 -99999.99 -99999.99 -99999.99 -99999.99
1/10/2022 5:15:00 AM -99999.99 -179968 -99999.99 -99999.99 -99999.99 -99999.99
1/10/2022 5:30:00 AM -99999.99 -179968 -99999.99 -99999.99 -99999.99 -99999.99
1/10/2022 5:45:00 AM -99999.99 -179968 -99999.99 -99999.99 -99999.99 -99999.99
1/10/2022 6:00:00 AM -99999.99 -179968 -99999.99 -99999.99 -99999.99 -99999.99
1/10/2022 6:15:00 AM -99999.99 -179968 -99999.99 -99999.99 -99999.99 -99999.99
1/10/2022 6:30:00 AM -99999.99 -179968 -99999.99 -99999.99 -99999.99 -99999.99
1/10/2022 6:45:00 AM -99999.99 -179968 -99999.99 -99999.99 -99999.99 -99999.99
1/10/2022 7:00:00 AM -99999.99 -179968 -99999.99 -99999.99 -99999.99 -99999.99
1/10/2022 7:15:00 AM -99999.99 -179968 -99999.99 -99999.99 -99999.99 -99999.99
1/10/2022 7:30:00 AM -99999.99 -179968 -99999.99 -99999.99 -99999.99 -99999.99
1/10/2022 7:45:00 AM -99999.99 -179968 -99999.99 -99999.99 -99999.99 -99999.99
1/10/2022 8:00:00 AM -99999.99 -179968 -99999.99 -99999.99 -99999.99 -99999.99
1/10/2022 8:15:00 AM -99999.99 -179968 -99999.99 -99999.99 -99999.99 -99999.99
1/10/2022 8:30:00 AM -99999.99 -179968 -99999.99 -99999.99 -99999.99 -99999.99
1/10/2022 8:45:00 AM -99999.99 -179968 -99999.99 -99999.99 -99999.99 -99999.99
1/10/2022 9:00:00 AM 6.64 43.952 0.99 7.83 10.64 10.85
1/10/2022 9:15:00 AM 6.61 43.898 0.99 7.84 10 10.95
1/10/2022 9:30:00 AM 6.58 43.844 0.99 7.85 9.12 11.03
1/10/2022 9:45:00 AM 6.58 43.844 0.992 7.86 8.26 11.13
1/10/2022 10:00:00 AM 6.6 43.88 0.992 7.87 7.08 11.27
1/10/2022 10:15:00 AM 6.63 43.934 0.992 7.88 7.27 11.38
1/10/2022 10:30:00 AM 6.63 43.934 0.989 7.89 6.41 11.48
1/10/2022 10:45:00 AM 6.69 44.042 0.984 7.9 6.18 11.57
1/10/2022 11:00:00 AM 6.75 44.15 0.979 7.91 5.79 11.68
1/10/2022 11:15:00 AM 6.8 44.24 0.973 7.92 5.69 11.84
1/10/2022 11:30:00 AM 6.82 44.276 0.968 7.93 5.64 11.88
1/10/2022 11:45:00 AM 6.88 44.384 0.964 7.94 5.56 11.97
1/10/2022 12:00:00 PM 6.96 44.528 0.962 7.95 5.74 12.06
1/10/2022 12:15:00 PM 7.03 44.654 0.964 7.96 5.79 12.14
1/10/2022 12:30:00 PM 7.09 44.762 0.969 7.98 5.7 12.23
1/10/2022 12:45:00 PM 7.14 44.852 0.979 7.98 5.63 12.25
1/10/2022 1:00:00 PM 7.23 45.014 0.992 7.99 5.69 12.31
1/10/2022 1:15:00 PM 7.31 45.158 1.007 8 5.81 12.36
1/10/2022 1:30:00 PM 7.37 45.266 1.023 8 5.77 12.38
1/10/2022 1:45:00 PM 7.43 45.374 1.039 8.01 5.84 12.4
1/10/2022 2:00:00 PM 7.42 45.356 1.053 8 5.35 12.36
1/10/2022 2:15:00 PM 7.46 45.428 1.064 8.01 5.7 12.41
1/10/2022 2:30:00 PM 7.5 45.5 1.073 8.02 5.35 12.44
1/10/2022 2:45:00 PM 7.49 45.482 1.078 8.02 5.54 12.44
1/10/2022 3:00:00 PM 7.5 45.5 1.081 8.03 5.97 12.45
1/10/2022 3:15:00 PM 7.48 45.464 1.082 8.03 6.18 12.43
1/10/2022 3:30:00 PM 7.47 45.446 1.084 8.03 5.84 12.36
1/10/2022 3:45:00 PM 7.47 45.446 1.086 8.02 6.97 12.28
1/10/2022 4:00:00 PM 7.48 45.464 1.09 8.02 7.89 12.23
1/10/2022 4:15:00 PM 7.46 45.428 1.093 8.02 8.91 12.13
1/10/2022 4:30:00 PM 7.45 45.41 1.096 8.01 7.91 12.02
1/10/2022 4:45:00 PM 7.44 45.392 1.099 8 7.75 11.92
1/10/2022 5:00:00 PM 7.43 45.374 1.102 8 9.33 11.83
1/10/2022 5:15:00 PM 7.44 45.392 1.105 7.99 8.41 11.75
1/10/2022 5:30:00 PM 7.44 45.392 1.108 7.98 6.96 11.66
1/10/2022 5:45:00 PM 7.44 45.392 1.112 7.98 6.5 11.58
1/10/2022 6:00:00 PM 7.44 45.392 1.115 7.97 7.32 11.5
1/10/2022 6:15:00 PM 7.44 45.392 1.118 7.96 7.44 11.44
1/10/2022 6:30:00 PM 7.44 45.392 1.119 7.96 7.14 11.36
1/10/2022 6:45:00 PM 7.43 45.374 1.121 7.95 7.08 11.3
1/10/2022 7:00:00 PM 7.42 45.356 1.121 7.95 8.05 11.24
1/10/2022 7:15:00 PM 7.42 45.356 1.122 7.94 7.61 11.18
1/10/2022 7:30:00 PM 7.41 45.338 1.122 7.94 7.52 11.13
1/10/2022 7:45:00 PM 7.38 45.284 1.123 7.93 8.4 11.07
1/10/2022 8:00:00 PM 7.36 45.248 1.124 7.92 9.3 11.01
1/10/2022 8:15:00 PM 7.34 45.212 1.125 7.91 9.84 10.94
1/10/2022 8:30:00 PM 7.32 45.176 1.125 7.91 9.43 10.87
1/10/2022 8:45:00 PM -99999.99 -179968 -99999.99 -99999.99 -99999.99 -99999.99
1/10/2022 9:00:00 PM -99999.99 -179968 -99999.99 -99999.99 -99999.99 -99999.99
1/10/2022 9:15:00 PM -99999.99 -179968 -99999.99 -99999.99 -99999.99 -99999.99
1/10/2022 9:30:00 PM -99999.99 -179968 -99999.99 -99999.99 -99999.99 -99999.99
1/10/2022 9:45:00 PM -99999.99 -179968 -99999.99 -99999.99 -99999.99 -99999.99
1/10/2022 10:00:00 PM -99999.99 -179968 -99999.99 -99999.99 -99999.99 -99999.99
1/10/2022 10:15:00 PM -99999.99 -179968 -99999.99 -99999.99 -99999.99 -99999.99
1/10/2022 10:30:00 PM -99999.99 -179968 -99999.99 -99999.99 -99999.99 -99999.99
1/10/2022 10:45:00 PM -99999.99 -179968 -99999.99 -99999.99 -99999.99 -99999.99
1/10/2022 11:00:00 PM -99999.99 -179968 -99999.99 -99999.99 -99999.99 -99999.99
1/10/2022 11:15:00 PM -99999.99 -179968 -99999.99 -99999.99 -99999.99 -99999.99
1/10/2022 11:30:00 PM -99999.99 -179968 -99999.99 -99999.99 -99999.99 -99999.99
1/10/2022 11:45:00 PM -99999.99 -179968 -99999.99 -99999.99 -99999.99 -99999.99
1/11/2022 12:00:00 AM -99999.99 -179968 -99999.99 -99999.99 -99999.99 -99999.99
1/11/2022 12:15:00 AM -99999.99 -179968 -99999.99 -99999.99 -99999.99 -99999.99
1/11/2022 12:30:00 AM -99999.99 -179968 -99999.99 -99999.99 -99999.99 -99999.99
1/11/2022 12:45:00 AM -99999.99 -179968 -99999.99 -99999.99 -99999.99 -99999.99
1/11/2022 1:00:00 AM -99999.99 -179968 -99999.99 -99999.99 -99999.99 -99999.99
1/11/2022 1:15:00 AM -99999.99 -179968 -99999.99 -99999.99 -99999.99 -99999.99
1/11/2022 1:30:00 AM -99999.99 -179968 -99999.99 -99999.99 -99999.99 -99999.99
1/11/2022 1:45:00 AM -99999.99 -179968 -99999.99 -99999.99 -99999.99 -99999.99
1/11/2022 2:00:00 AM -99999.99 -179968 -99999.99 -99999.99 -99999.99 -99999.99
1/11/2022 2:15:00 AM -99999.99 -179968 -99999.99 -99999.99 -99999.99 -99999.99
1/11/2022 2:30:00 AM -99999.99 -179968 -99999.99 -99999.99 -99999.99 -99999.99
1/11/2022 2:45:00 AM -99999.99 -179968 -99999.99 -99999.99 -99999.99 -99999.99
1/11/2022 3:00:00 AM -99999.99 -179968 -99999.99 -99999.99 -99999.99 -99999.99
1/11/2022 3:15:00 AM -99999.99 -179968 -99999.99 -99999.99 -99999.99 -99999.99
1/11/2022 3:30:00 AM -99999.99 -179968 -99999.99 -99999.99 -99999.99 -99999.99
1/11/2022 3:45:00 AM -99999.99 -179968 -99999.99 -99999.99 -99999.99 -99999.99
1/11/2022 4:00:00 AM -99999.99 -179968 -99999.99 -99999.99 -99999.99 -99999.99
1/11/2022 4:15:00 AM -99999.99 -179968 -99999.99 -99999.99 -99999.99 -99999.99
1/11/2022 4:30:00 AM -99999.99 -179968 -99999.99 -99999.99 -99999.99 -99999.99
1/11/2022 4:45:00 AM -99999.99 -179968 -99999.99 -99999.99 -99999.99 -99999.99
1/11/2022 5:00:00 AM -99999.99 -179968 -99999.99 -99999.99 -99999.99 -99999.99
1/11/2022 5:15:00 AM -99999.99 -179968 -99999.99 -99999.99 -99999.99 -99999.99
1/11/2022 5:30:00 AM -99999.99 -179968 -99999.99 -99999.99 -99999.99 -99999.99
1/11/2022 5:45:00 AM -99999.99 -179968 -99999.99 -99999.99 -99999.99 -99999.99
1/11/2022 6:00:00 AM -99999.99 -179968 -99999.99 -99999.99 -99999.99 -99999.99
1/11/2022 6:15:00 AM -99999.99 -179968 -99999.99 -99999.99 -99999.99 -99999.99
1/11/2022 6:30:00 AM -99999.99 -179968 -99999.99 -99999.99 -99999.99 -99999.99
1/11/2022 6:45:00 AM -99999.99 -179968 -99999.99 -99999.99 -99999.99 -99999.99
1/11/2022 7:00:00 AM -99999.99 -179968 -99999.99 -99999.99 -99999.99 -99999.99
1/11/2022 7:15:00 AM -99999.99 -179968 -99999.99 -99999.99 -99999.99 -99999.99
1/11/2022 7:30:00 AM -99999.99 -179968 -99999.99 -99999.99 -99999.99 -99999.99
1/11/2022 7:45:00 AM -99999.99 -179968 -99999.99 -99999.99 -99999.99 -99999.99
1/11/2022 8:00:00 AM -99999.99 -179968 -99999.99 -99999.99 -99999.99 -99999.99
1/11/2022 8:15:00 AM -99999.99 -179968 -99999.99 -99999.99 -99999.99 -99999.99
1/11/2022 8:30:00 AM -99999.99 -179968 -99999.99 -99999.99 -99999.99 -99999.99
1/11/2022 8:45:00 AM -99999.99 -179968 -99999.99 -99999.99 -99999.99 -99999.99
1/11/2022 9:00:00 AM -99999.99 -179968 -99999.99 -99999.99 -99999.99 -99999.99
1/11/2022 9:15:00 AM 4.93 40.874 1.025 7.88 9.78 11.42
1/11/2022 9:30:00 AM 4.93 40.874 1.02 7.88 11.03 11.53
1/11/2022 9:45:00 AM 4.94 40.892 1.014 7.88 11.42 11.62
1/11/2022 10:00:00 AM 5 41 1.01 7.89 10.5 11.72
1/11/2022 10:15:00 AM 5.05 41.09 1.006 7.9 10.21 11.81
1/11/2022 10:30:00 AM 5.14 41.252 1.002 7.91 10.16 11.92
1/11/2022 10:45:00 AM 5.23 41.414 0.998 7.92 10.8 12.02
1/11/2022 11:00:00 AM 5.31 41.558 0.994 7.92 12.3 12.06
1/11/2022 11:15:00 AM 5.38 41.684 0.989 7.93 12.57 12.1
1/11/2022 11:30:00 AM 5.47 41.846 0.985 7.94 11.52 12.19
1/11/2022 11:45:00 AM 5.59 42.062 0.981 7.95 8.62 12.29
1/11/2022 12:00:00 PM 5.68 42.224 0.979 7.96 7.68 12.4
1/11/2022 12:15:00 PM 5.78 42.404 0.978 7.97 6.63 12.48
1/11/2022 12:30:00 PM 5.87 42.566 0.982 7.98 6.38 12.53
1/11/2022 12:45:00 PM 5.97 42.746 0.99 7.98 6.5 12.56
1/11/2022 1:00:00 PM 6.07 42.926 1.004 7.99 7.76 12.56
1/11/2022 1:15:00 PM 6.19 43.142 1.021 7.99 9.07 12.56
1/11/2022 1:30:00 PM 6.29 43.322 1.042 7.99 8.38 12.58
1/11/2022 1:45:00 PM 6.39 43.502 1.064 7.99 8.6 12.56
1/11/2022 2:00:00 PM 6.49 43.682 1.082 7.99 8.35 12.58
1/11/2022 2:15:00 PM 6.61 43.898 1.096 8 7.7 12.66
1/11/2022 2:30:00 PM 6.68 44.024 1.105 8 7.24 12.7
1/11/2022 2:45:00 PM 6.72 44.096 1.111 8 7.48 12.66
1/11/2022 3:00:00 PM 6.73 44.114 1.116 8 7.7 12.59
1/11/2022 3:15:00 PM 6.72 44.096 1.119 8 6.65 12.49
1/11/2022 3:30:00 PM 6.72 44.096 1.124 8 7.15 12.42
1/11/2022 3:45:00 PM 6.72 44.096 1.131 8 8.03 12.36
1/11/2022 4:00:00 PM 6.7 44.06 1.139 7.99 7.97 12.28
1/11/2022 4:15:00 PM 6.69 44.042 1.148 7.98 8.16 12.2
1/11/2022 4:30:00 PM 6.69 44.042 1.157 7.98 7.91 12.13
1/11/2022 4:45:00 PM 6.72 44.096 1.166 7.97 7.32 12.06
1/11/2022 5:00:00 PM 6.74 44.132 1.176 7.96 7.14 11.97
1/11/2022 5:15:00 PM 6.76 44.168 1.184 7.96 7.79 11.87
1/11/2022 5:30:00 PM 6.78 44.204 1.191 7.95 8.1 11.78
1/11/2022 5:45:00 PM 6.79 44.222 1.195 7.95 7.73 11.7
1/11/2022 6:00:00 PM 6.79 44.222 1.195 7.95 8.13 11.64
1/11/2022 6:15:00 PM 6.78 44.204 1.191 7.94 9.26 11.59
1/11/2022 6:30:00 PM 6.75 44.15 1.183 7.93 8.15 11.55
1/11/2022 6:45:00 PM 6.72 44.096 1.173 7.93 6.8 11.51
1/11/2022 7:00:00 PM 6.68 44.024 1.161 7.93 6.29 11.48
1/11/2022 7:15:00 PM 6.64 43.952 1.149 7.93 5.93 11.45
1/11/2022 7:30:00 PM 6.58 43.844 1.139 7.92 5.71 11.4
1/11/2022 7:45:00 PM 6.52 43.736 1.133 7.92 5.81 11.34
1/11/2022 8:00:00 PM 6.46 43.628 1.129 7.91 5.33 11.28
1/11/2022 8:15:00 PM 6.41 43.538 1.129 7.91 5.16 11.21
1/11/2022 8:30:00 PM 6.36 43.448 1.129 7.9 4.93 11.15
1/11/2022 8:45:00 PM 6.31 43.358 1.129 7.89 5.17 11.1
1/11/2022 9:00:00 PM 6.26 43.268 1.128 7.88 5.03 11.05
1/11/2022 9:15:00 PM 6.21 43.178 1.126 7.88 5.2 10.99
1/11/2022 9:30:00 PM 6.17 43.106 1.123 7.87 5.26 10.94
1/11/2022 9:45:00 PM 6.12 43.016 1.121 7.86 5.17 10.89
1/11/2022 10:00:00 PM 6.09 42.962 1.119 7.86 5.61 10.84
1/11/2022 10:15:00 PM 6.05 42.89 1.117 7.85 4.89 10.8
1/11/2022 10:30:00 PM 6.02 42.836 1.116 7.85 5.03 10.76
1/11/2022 10:45:00 PM 5.99 42.782 1.115 7.84 5.03 10.73
1/11/2022 11:00:00 PM 5.96 42.728 1.115 7.84 4.94 10.7
1/11/2022 11:15:00 PM 5.94 42.692 1.116 7.83 4.88 10.68
1/11/2022 11:30:00 PM 5.92 42.656 1.116 7.82 4.8 10.67
1/11/2022 11:45:00 PM -99999.99 -179968 -99999.99 -99999.99 -99999.99 -99999.99
1/12/2022 12:00:00 AM -99999.99 -179968 -99999.99 -99999.99 -99999.99 -99999.99
1/12/2022 12:15:00 AM -99999.99 -179968 -99999.99 -99999.99 -99999.99 -99999.99
1/12/2022 12:30:00 AM -99999.99 -179968 -99999.99 -99999.99 -99999.99 -99999.99
1/12/2022 12:45:00 AM -99999.99 -179968 -99999.99 -99999.99 -99999.99 -99999.99
1/12/2022 1:00:00 AM -99999.99 -179968 -99999.99 -99999.99 -99999.99 -99999.99
1/12/2022 1:15:00 AM -99999.99 -179968 -99999.99 -99999.99 -99999.99 -99999.99
1/12/2022 1:30:00 AM -99999.99 -179968 -99999.99 -99999.99 -99999.99 -99999.99
1/12/2022 1:45:00 AM -99999.99 -179968 -99999.99 -99999.99 -99999.99 -99999.99
1/12/2022 2:00:00 AM -99999.99 -179968 -99999.99 -99999.99 -99999.99 -99999.99
1/12/2022 2:15:00 AM -99999.99 -179968 -99999.99 -99999.99 -99999.99 -99999.99
1/12/2022 2:30:00 AM -99999.99 -179968 -99999.99 -99999.99 -99999.99 -99999.99
1/12/2022 2:45:00 AM -99999.99 -179968 -99999.99 -99999.99 -99999.99 -99999.99
1/12/2022 3:00:00 AM -99999.99 -179968 -99999.99 -99999.99 -99999.99 -99999.99
1/12/2022 3:15:00 AM -99999.99 -179968 -99999.99 -99999.99 -99999.99 -99999.99
1/12/2022 3:30:00 AM -99999.99 -179968 -99999.99 -99999.99 -99999.99 -99999.99
1/12/2022 3:45:00 AM -99999.99 -179968 -99999.99 -99999.99 -99999.99 -99999.99
1/12/2022 4:00:00 AM -99999.99 -179968 -99999.99 -99999.99 -99999.99 -99999.99
1/12/2022 4:15:00 AM -99999.99 -179968 -99999.99 -99999.99 -99999.99 -99999.99
1/12/2022 4:30:00 AM -99999.99 -179968 -99999.99 -99999.99 -99999.99 -99999.99
1/12/2022 4:45:00 AM -99999.99 -179968 -99999.99 -99999.99 -99999.99 -99999.99
1/12/2022 5:00:00 AM -99999.99 -179968 -99999.99 -99999.99 -99999.99 -99999.99
1/12/2022 5:15:00 AM -99999.99 -179968 -99999.99 -99999.99 -99999.99 -99999.99
1/12/2022 5:30:00 AM -99999.99 -179968 -99999.99 -99999.99 -99999.99 -99999.99
1/12/2022 5:45:00 AM -99999.99 -179968 -99999.99 -99999.99 -99999.99 -99999.99
1/12/2022 6:00:00 AM -99999.99 -179968 -99999.99 -99999.99 -99999.99 -99999.99
1/12/2022 6:15:00 AM -99999.99 -179968 -99999.99 -99999.99 -99999.99 -99999.99
1/12/2022 6:30:00 AM -99999.99 -179968 -99999.99 -99999.99 -99999.99 -99999.99
1/12/2022 6:45:00 AM -99999.99 -179968 -99999.99 -99999.99 -99999.99 -99999.99
1/12/2022 7:00:00 AM -99999.99 -179968 -99999.99 -99999.99 -99999.99 -99999.99
1/12/2022 7:15:00 AM -99999.99 -179968 -99999.99 -99999.99 -99999.99 -99999.99
1/12/2022 7:30:00 AM -99999.99 -179968 -99999.99 -99999.99 -99999.99 -99999.99
1/12/2022 7:45:00 AM -99999.99 -179968 -99999.99 -99999.99 -99999.99 -99999.99
1/12/2022 8:00:00 AM -99999.99 -179968 -99999.99 -99999.99 -99999.99 -99999.99
1/12/2022 8:15:00 AM -99999.99 -179968 -99999.99 -99999.99 -99999.99 -99999.99
1/12/2022 8:30:00 AM -99999.99 -179968 -99999.99 -99999.99 -99999.99 -99999.99
1/12/2022 8:45:00 AM 5.21 41.378 1.011 7.87 7.95 11.35
1/12/2022 9:00:00 AM 5.26 41.468 1.005 7.88 7.74 11.45
1/12/2022 9:15:00 AM 5.32 41.576 1 7.89 7.7 11.54
1/12/2022 9:30:00 AM 5.47 41.846 1.016 7.82 6.27 11.51
1/12/2022 9:45:00 AM 5.55 41.99 1.005 7.83 6.38 11.58
1/12/2022 10:00:00 AM 5.63 42.134 0.999 7.84 6.62 11.59
1/12/2022 10:15:00 AM 5.71 42.278 0.992 7.84 7.09 11.6
1/12/2022 10:30:00 AM 5.82 42.476 0.989 7.85 6.67 11.72
1/12/2022 10:45:00 AM 5.93 42.674 0.983 7.87 5.67 11.86
1/12/2022 11:00:00 AM 6.03 42.854 0.979 7.88 5.54 11.96
1/12/2022 11:15:00 AM 6.15 43.07 0.973 7.89 5.78 12.05
1/12/2022 11:30:00 AM 6.28 43.304 0.968 7.9 5.36 12.15
1/12/2022 11:45:00 AM 6.41 43.538 0.962 7.91 5.16 12.22
1/12/2022 12:00:00 PM 6.51 43.718 0.96 7.92 4.97 12.27
1/12/2022 12:15:00 PM 6.61 43.898 0.959 7.93 5.04 12.29
1/12/2022 12:30:00 PM 6.71 44.078 0.96 7.94 5.03 12.33
1/12/2022 12:45:00 PM 6.82 44.276 0.965 7.94 6.34 12.37
1/12/2022 1:00:00 PM 6.95 44.51 0.976 7.95 6.63 12.43
1/12/2022 1:15:00 PM 7.08 44.744 0.991 7.96 6.05 12.48
1/12/2022 1:30:00 PM 7.22 44.996 1.009 7.96 5.94 12.49
1/12/2022 1:45:00 PM 7.37 45.266 1.028 7.97 7.02 12.47
1/12/2022 2:00:00 PM 7.52 45.536 1.048 7.97 7.48 12.46
1/12/2022 2:15:00 PM 7.67 45.806 1.065 7.97 7.94 12.45
1/12/2022 2:30:00 PM 7.81 46.058 1.077 7.98 8.42 12.46
1/12/2022 2:45:00 PM 7.95 46.31 1.087 7.99 7.61 12.48
1/12/2022 3:00:00 PM 8.06 46.508 1.091 7.99 7.01 12.47
1/12/2022 3:15:00 PM 8.15 46.67 1.093 7.99 7.49 12.41
1/12/2022 3:30:00 PM 8.22 46.796 1.092 7.99 8.16 12.31
1/12/2022 3:45:00 PM 8.29 46.922 1.09 7.99 7.96 12.24
1/12/2022 4:00:00 PM 8.35 47.03 1.09 7.98 7.43 12.17
1/12/2022 4:15:00 PM 8.39 47.102 1.088 7.98 7.03 12.07
1/12/2022 4:30:00 PM 8.41 47.138 1.089 7.97 7.31 11.95
1/12/2022 4:45:00 PM 8.43 47.174 1.089 7.96 7.98 11.82
1/12/2022 5:00:00 PM 8.43 47.174 1.093 7.95 7.78 11.7
1/12/2022 5:15:00 PM 8.43 47.174 1.098 7.95 7.44 11.58
1/12/2022 5:30:00 PM 8.43 47.174 1.106 7.94 7.49 11.48
1/12/2022 5:45:00 PM 8.43 47.174 1.114 7.93 8.18 11.37
1/12/2022 6:00:00 PM 8.43 47.174 1.122 7.92 8.12 11.28
1/12/2022 6:15:00 PM 8.43 47.174 1.128 7.91 7.76 11.19
1/12/2022 6:30:00 PM 8.43 47.174 1.132 7.9 6.43 11.1
1/12/2022 6:45:00 PM 8.43 47.174 1.135 7.9 5.76 11.02
1/12/2022 7:00:00 PM 8.42 47.156 1.135 7.89 5.22 10.93
1/12/2022 7:15:00 PM 8.42 47.156 1.137 7.88 5.01 10.84
1/12/2022 7:30:00 PM 8.42 47.156 1.137 7.87 5.05 10.75
1/12/2022 7:45:00 PM 8.42 47.156 1.137 7.86 4.85 10.66
1/12/2022 8:00:00 PM 8.41 47.138 1.138 7.86 4.77 10.57
1/12/2022 8:15:00 PM 8.4 47.12 1.136 7.85 4.87 10.49
1/12/2022 8:30:00 PM 8.38 47.084 1.13 7.84 4.87 10.41
1/12/2022 8:45:00 PM 8.36 47.048 1.123 7.83 4.92 10.33
1/12/2022 9:00:00 PM 8.33 46.994 1.114 7.82 4.85 10.26
1/12/2022 9:15:00 PM 8.3 46.94 1.104 7.81 4.73 10.19
1/12/2022 9:30:00 PM 8.27 46.886 1.096 7.81 4.72 10.13
1/12/2022 9:45:00 PM 8.25 46.85 1.088 7.8 4.64 10.07
1/12/2022 10:00:00 PM 8.22 46.796 1.084 7.79 4.45 10.01
1/12/2022 10:15:00 PM 8.19 46.742 1.083 7.78 4.56 9.96
1/12/2022 10:30:00 PM 8.17 46.706 1.082 7.78 4.73 9.91
1/12/2022 10:45:00 PM 8.15 46.67 1.082 7.77 4.65 9.87
1/13/2022 8:00:00 AM 7.38 45.284 0.996 7.77 4.96 10.04
1/13/2022 9:30:00 AM 7.37 45.266 0.963 7.82 6.47 10.7
1/13/2022 9:45:00 AM 7.43 45.374 0.958 7.83 6 10.8
1/13/2022 10:00:00 AM 7.51 45.518 0.956 7.84 5.93 10.92
1/13/2022 10:30:00 AM 7.7 45.86 0.959 7.86 6.1 11.1
1/13/2022 10:45:00 AM 7.82 46.076 0.958 7.87 6.24 11.2
1/13/2022 11:00:00 AM 7.94 46.292 0.956 7.89 6.14 11.3
1/13/2022 11:15:00 AM 8.06 46.508 0.954 7.9 6.52 11.4
1/13/2022 11:30:00 AM 8.18 46.724 0.951 7.91 6.11 11.49
1/13/2022 11:45:00 AM 8.28 46.904 0.949 7.92 5.89 11.56
1/13/2022 12:00:00 PM 8.36 47.048 0.948 7.93 6.12 11.6
1/13/2022 12:15:00 PM 8.43 47.174 0.95 7.94 6.23 11.64
1/13/2022 12:30:00 PM 8.51 47.318 0.955 7.95 5.92 11.74
1/13/2022 12:45:00 PM 8.61 47.498 0.965 7.96 5.55 11.84
1/13/2022 1:00:00 PM 8.71 47.678 0.981 7.97 5.82 11.92
1/13/2022 1:15:00 PM 8.83 47.894 1 7.97 5.69 11.98
1/13/2022 1:30:00 PM 8.94 48.092 1.02 7.98 5.51 12.03
1/13/2022 1:45:00 PM 9.06 48.308 1.042 7.99 5.28 12.05
1/13/2022 2:00:00 PM 9.18 48.524 1.062 7.99 5.41 12.05
1/13/2022 2:15:00 PM 9.28 48.704 1.078 7.99 5.2 12.06
1/13/2022 2:30:00 PM 9.38 48.884 1.093 8 5.39 12.08
1/13/2022 2:45:00 PM 9.48 49.064 1.104 8 5.45 12.09
1/13/2022 3:00:00 PM 9.56 49.208 1.114 8.01 5.19 12.06
1/13/2022 3:15:00 PM 9.63 49.334 1.121 8 5.4 11.99
1/13/2022 3:30:00 PM 9.71 49.478 1.123 8 5.05 11.93
1/13/2022 3:45:00 PM 9.77 49.586 1.123 8 4.78 11.86
1/13/2022 4:00:00 PM 9.82 49.676 1.12 8 4.58 11.78
1/13/2022 4:15:00 PM 9.83 49.694 1.114 8 4.42 11.68
1/13/2022 4:30:00 PM 9.84 49.712 1.109 7.99 4.45 11.56
1/13/2022 4:45:00 PM 9.83 49.694 1.106 7.98 4.5 11.43
1/13/2022 5:00:00 PM 9.82 49.676 1.106 7.98 4.54 11.3
1/13/2022 5:15:00 PM 9.8 49.64 1.108 7.97 4.61 11.18
1/13/2022 5:30:00 PM 9.79 49.622 1.115 7.96 4.93 11.07
1/13/2022 5:45:00 PM 9.77 49.586 1.121 7.95 5.31 10.96
1/13/2022 6:00:00 PM 9.76 49.568 1.128 7.94 5.77 10.87
1/13/2022 6:15:00 PM 9.75 49.55 1.133 7.93 5.75 10.77
1/13/2022 6:30:00 PM 9.73 49.514 1.135 7.92 5.27 10.68
1/13/2022 6:45:00 PM 9.71 49.478 1.136 7.91 4.98 10.6
1/13/2022 7:00:00 PM 9.69 49.442 1.136 7.9 4.74 10.51
1/13/2022 7:15:00 PM 9.67 49.406 1.135 7.89 4.57 10.42
1/13/2022 7:30:00 PM 9.64 49.352 1.134 7.89 4.44 10.33
1/13/2022 7:45:00 PM 9.6 49.28 1.13 7.88 4.68 10.24
1/13/2022 8:00:00 PM 9.56 49.208 1.126 7.87 4.62 10.15
1/13/2022 8:15:00 PM 9.53 49.154 1.119 7.86 4.59 10.07
1/13/2022 8:30:00 PM 9.48 49.064 1.11 7.85 4.63 9.99
1/13/2022 8:45:00 PM 9.43 48.974 1.099 7.84 4.54 9.92
1/13/2022 9:00:00 PM 9.39 48.902 1.087 7.83 4.51 9.85
1/13/2022 9:15:00 PM 9.34 48.812 1.077 7.83 4.54 9.79
1/13/2022 9:30:00 PM 9.29 48.722 1.069 7.82 4.37 9.73
1/13/2022 9:45:00 PM 9.25 48.65 1.063 7.81 4.56 9.67
1/13/2022 10:00:00 PM 9.2 48.56 1.059 7.8 4.42 9.62
1/13/2022 10:15:00 PM 9.15 48.47 1.057 7.8 4.48 9.57
1/13/2022 10:30:00 PM 9.11 48.398 1.057 7.79 4.33 9.53
1/13/2022 10:45:00 PM 9.08 48.344 1.058 7.79 4.16 9.5
1/13/2022 11:00:00 PM 9.05 48.29 1.059 7.78 4.28 9.47
1/13/2022 11:15:00 PM 9.02 48.236 1.062 7.78 4.53 9.45
1/13/2022 11:30:00 PM 9 48.2 1.066 7.77 4.6 9.43
1/13/2022 11:45:00 PM 8.98 48.164 1.069 7.77 4.38 9.41
1/14/2022 12:00:00 AM 8.96 48.128 1.075 7.77 5.34 9.39
1/14/2022 12:15:00 AM 8.93 48.074 1.08 7.76 4.69 9.39
1/14/2022 12:30:00 AM 8.9 48.02 1.085 7.76 4.7 9.38
1/14/2022 12:45:00 AM 8.87 47.966 1.091 7.76 4.57 9.37
1/14/2022 1:00:00 AM 8.83 47.894 1.097 7.76 4.34 9.37
1/14/2022 1:15:00 AM 8.8 47.84 1.103 7.76 4.59 9.37
1/14/2022 1:30:00 AM 8.75 47.75 1.108 7.75 4.5 9.37
1/14/2022 1:45:00 AM 8.71 47.678 1.112 7.75 4.26 9.37
1/14/2022 2:00:00 AM 8.67 47.606 1.116 7.75 4.38 9.37
1/14/2022 2:15:00 AM 8.64 47.552 1.119 7.75 4.32 9.38
1/14/2022 2:30:00 AM 8.61 47.498 1.121 7.75 4.29 9.39
1/14/2022 2:45:00 AM 8.58 47.444 1.122 7.75 4.49 9.4
1/14/2022 3:00:00 AM 8.56 47.408 1.123 7.75 4.87 9.4
1/14/2022 3:15:00 AM 8.54 47.372 1.124 7.75 4.97 9.41
1/14/2022 3:30:00 AM 8.52 47.336 1.124 7.75 4.87 9.42
1/14/2022 3:45:00 AM 8.5 47.3 1.124 7.75 4.81 9.42
1/14/2022 4:00:00 AM 8.48 47.264 1.123 7.75 5.07 9.43
1/14/2022 4:15:00 AM 8.46 47.228 1.121 7.75 5.4 9.44
1/14/2022 4:30:00 AM 8.43 47.174 1.118 7.75 5.15 9.45
1/14/2022 4:45:00 AM 8.39 47.102 1.115 7.75 4.82 9.46
1/14/2022 5:00:00 AM 8.36 47.048 1.111 7.76 4.59 9.48
1/14/2022 5:15:00 AM 8.32 46.976 1.106 7.76 4.88 9.49
1/14/2022 5:30:00 AM 8.29 46.922 1.101 7.76 5.13 9.5
1/14/2022 5:45:00 AM 8.24 46.832 1.094 7.76 5 9.52
1/14/2022 6:00:00 AM 8.2 46.76 1.086 7.76 5.03 9.53
1/14/2022 6:15:00 AM 8.15 46.67 1.077 7.76 5.68 9.55
1/14/2022 6:30:00 AM 8.11 46.598 1.068 7.76 6.27 9.57
1/14/2022 6:45:00 AM 8.06 46.508 1.058 7.76 6.01 9.6
1/14/2022 7:00:00 AM 8.01 46.418 1.049 7.76 5.33 9.62
1/14/2022 7:15:00 AM 7.97 46.346 1.039 7.76 5.15 9.64
1/14/2022 7:30:00 AM 7.93 46.274 1.03 7.76 4.9 9.67
1/14/2022 7:45:00 AM 7.9 46.22 1.021 7.77 4.95 9.71
1/14/2022 8:00:00 AM 7.89 46.202 1.011 7.77 4.77 9.77
1/14/2022 8:15:00 AM 7.89 46.202 1.003 7.78 4.97 9.83
1/14/2022 8:30:00 AM 7.91 46.238 0.995 7.79 5.13 10
1/14/2022 8:45:00 AM 7.95 46.31 0.986 7.81 5.33 10.2
1/14/2022 9:00:00 AM 8 46.4 0.979 7.82 5.35 10.34
1/14/2022 9:15:00 AM 8.07 46.526 0.974 7.83 5.03 10.49
1/14/2022 9:30:00 AM 8.15 46.67 0.97 7.84 5.26 10.6
1/14/2022 9:45:00 AM 8.22 46.796 0.968 7.85 5.42 10.65
1/14/2022 10:00:00 AM 8.28 46.904 0.968 7.85 6 10.64
1/14/2022 10:15:00 AM 8.33 46.994 0.968 7.85 6.09 10.6
1/14/2022 10:30:00 AM 8.37 47.066 0.968 7.85 5.78 10.58
1/14/2022 10:45:00 AM 8.41 47.138 0.968 7.86 5.62 10.61
1/14/2022 11:00:00 AM 8.44 47.192 0.965 7.86 5.82 10.68
1/14/2022 11:15:00 AM 8.49 47.282 0.961 7.87 5.9 10.83
1/14/2022 11:30:00 AM 8.56 47.408 0.956 7.89 5.92 11.04
1/14/2022 11:45:00 AM 8.69 47.642 0.951 7.91 6.03 11.26
1/14/2022 12:00:00 PM 8.81 47.858 0.948 7.93 7.43 11.43
1/14/2022 12:15:00 PM 8.92 48.056 0.948 7.94 6.55 11.52
1/14/2022 12:30:00 PM 9.01 48.218 0.951 7.95 5.57 11.57
1/14/2022 12:45:00 PM 9.12 48.416 0.959 7.96 7.78 11.58
1/14/2022 1:00:00 PM 9.24 48.632 0.973 7.96 6.06 11.63
1/14/2022 1:15:00 PM 9.36 48.848 0.992 7.97 5.91 11.68
1/14/2022 1:30:00 PM 9.46 49.028 1.013 7.98 5.56 11.72
1/14/2022 1:45:00 PM 9.53 49.154 1.034 7.98 5.37 11.74
1/14/2022 2:00:00 PM 9.6 49.28 1.055 7.98 4.86 11.77
1/14/2022 2:15:00 PM 9.64 49.352 1.072 7.99 4.6 11.8
1/14/2022 2:30:00 PM 9.65 49.37 1.086 7.99 4.64 11.79
1/14/2022 2:45:00 PM 9.64 49.352 1.097 7.99 4.57 11.76
1/14/2022 3:00:00 PM 9.6 49.28 1.107 7.99 4.36 11.73
1/14/2022 3:15:00 PM 9.56 49.208 1.115 7.98 4.4 11.67
1/14/2022 3:30:00 PM 9.51 49.118 1.121 7.98 4.37 11.61
1/14/2022 3:45:00 PM 9.43 48.974 1.125 7.97 4.33 11.52
1/14/2022 4:00:00 PM 9.36 48.848 1.125 7.96 4.43 11.42
1/14/2022 4:15:00 PM 9.29 48.722 1.12 7.96 4.32 11.34
1/14/2022 4:30:00 PM 9.21 48.578 1.114 7.95 4.44 11.27
1/14/2022 4:45:00 PM 9.15 48.47 1.108 7.95 4.63 11.19
1/14/2022 5:00:00 PM 9.08 48.344 1.102 7.94 4.53 11.12
1/14/2022 5:15:00 PM 9.03 48.254 1.098 7.93 4.49 11.03
1/14/2022 5:30:00 PM 8.96 48.128 1.095 7.92 4.73 10.95
1/14/2022 5:45:00 PM 8.9 48.02 1.093 7.92 4.68 10.88
1/14/2022 6:00:00 PM 8.86 47.948 1.09 7.91 4.8 10.82
1/14/2022 6:15:00 PM 8.81 47.858 1.089 7.91 4.79 10.77
1/14/2022 6:30:00 PM 8.75 47.75 1.088 7.9 4.86 10.7
1/14/2022 6:45:00 PM 8.69 47.642 1.087 7.9 4.8 10.65
1/14/2022 7:00:00 PM 8.62 47.516 1.086 7.89 4.76 10.59
1/14/2022 7:15:00 PM 8.57 47.426 1.085 7.89 4.83 10.53
1/14/2022 7:30:00 PM 8.49 47.282 1.085 7.88 4.71 10.48
1/14/2022 7:45:00 PM 8.41 47.138 1.085 7.87 4.53 10.42
1/14/2022 8:00:00 PM 8.33 46.994 1.086 7.86 4.39 10.37
1/14/2022 8:15:00 PM 8.24 46.832 1.087 7.86 4.24 10.31
1/14/2022 8:30:00 PM 8.16 46.688 1.088 7.85 4.36 10.26
1/14/2022 8:45:00 PM 8.07 46.526 1.09 7.84 4.28 10.21
1/14/2022 9:00:00 PM 7.96 46.328 1.093 7.83 4.28 10.16
1/14/2022 9:15:00 PM 7.86 46.148 1.096 7.82 4.32 10.12
1/14/2022 9:30:00 PM 7.74 45.932 1.097 7.81 4.32 10.08
1/14/2022 9:45:00 PM 7.61 45.698 1.096 7.81 4.91 10.05
1/14/2022 10:00:00 PM 7.48 45.464 1.094 7.8 4.65 10.04
1/14/2022 10:15:00 PM 7.38 45.284 1.091 7.8 4.42 10.02
1/14/2022 10:30:00 PM 7.28 45.104 1.088 7.79 4.63 10.02
1/14/2022 10:45:00 PM 7.18 44.924 1.086 7.79 4.59 10.01
1/14/2022 11:00:00 PM 7.05 44.69 1.086 7.78 4.6 10.01
1/14/2022 11:15:00 PM 6.93 44.474 1.087 7.78 4.33 10.01
1/14/2022 11:30:00 PM 6.84 44.312 1.088 7.78 4.47 10.02
1/14/2022 11:45:00 PM 6.76 44.168 1.09 7.77 4.3 10.03
1/15/2022 12:00:00 AM 6.67 44.006 1.093 7.77 4.15 10.04
1/15/2022 12:15:00 AM 6.57 43.826 1.096 7.77 4.1 10.05
1/15/2022 12:30:00 AM 6.47 43.646 1.1 7.77 4.27 10.08
1/15/2022 12:45:00 AM 6.38 43.484 1.103 7.77 4.45 10.09
1/15/2022 1:00:00 AM 6.31 43.358 1.107 7.77 4.54 10.11
1/15/2022 1:15:00 AM 6.25 43.25 1.11 7.76 4.63 10.13
1/15/2022 1:30:00 AM 6.17 43.106 1.113 7.76 4.46 10.14
1/15/2022 1:45:00 AM 6.11 42.998 1.114 7.76 5.6 10.16
1/15/2022 2:00:00 AM 6.04 42.872 1.116 7.77 5.23 10.18
1/15/2022 2:15:00 AM 5.97 42.746 1.117 7.77 4.79 10.21
1/15/2022 2:30:00 AM 5.9 42.62 1.118 7.77 4.39 10.23
1/15/2022 2:45:00 AM 5.84 42.512 1.117 7.77 4.25 10.26
1/15/2022 3:00:00 AM 5.77 42.386 1.116 7.77 4.06 10.28
1/15/2022 3:15:00 AM 5.69 42.242 1.114 7.77 4.29 10.31
1/15/2022 3:30:00 AM 5.6 42.08 1.112 7.77 4.29 10.35
1/15/2022 3:45:00 AM 5.52 41.936 1.11 7.77 4.46 10.38
1/15/2022 4:00:00 AM 5.44 41.792 1.108 7.78 4.49 10.41
1/15/2022 4:15:00 AM 5.37 41.666 1.105 7.78 4.61 10.44
1/15/2022 4:30:00 AM 5.29 41.522 1.102 7.78 4.57 10.47
1/15/2022 4:45:00 AM 5.21 41.378 1.1 7.78 4.63 10.5
1/15/2022 5:00:00 AM 5.13 41.234 1.098 7.78 4.83 10.53
1/15/2022 5:15:00 AM 5.07 41.126 1.096 7.78 4.66 10.55
1/15/2022 5:30:00 AM 5.01 41.018 1.093 7.78 4.71 10.57
1/15/2022 5:45:00 AM 4.94 40.892 1.09 7.79 5.48 10.61
1/15/2022 6:00:00 AM 4.87 40.766 1.086 7.79 5.25 10.63
1/15/2022 6:15:00 AM 4.8 40.64 1.082 7.79 5.06 10.66
1/15/2022 6:30:00 AM 4.74 40.532 1.078 7.79 4.73 10.68
1/15/2022 6:45:00 AM 4.68 40.424 1.073 7.79 4.98 10.71
1/15/2022 7:00:00 AM 4.63 40.334 1.069 7.8 4.73 10.74
1/15/2022 7:15:00 AM 4.58 40.244 1.064 7.8 4.8 10.76
1/15/2022 7:30:00 AM 4.53 40.154 1.059 7.8 4.84 10.8
1/15/2022 7:45:00 AM 4.49 40.082 1.052 7.81 4.78 10.86
1/15/2022 8:00:00 AM 4.45 40.01 1.046 7.81 5.03 10.94
1/15/2022 8:15:00 AM 4.41 39.938 1.038 7.82 6.06 11.04
1/15/2022 8:30:00 AM 4.37 39.866 1.03 7.83 7.2 11.13
1/15/2022 8:45:00 AM 4.35 39.83 1.022 7.84 7 11.23
1/15/2022 9:00:00 AM 4.32 39.776 1.015 7.85 6.82 11.35
1/15/2022 9:15:00 AM 4.31 39.758 1.007 7.86 6.89 11.49
1/15/2022 9:30:00 AM 4.31 39.758 1.001 7.87 6.87 11.62
1/15/2022 9:45:00 AM 4.31 39.758 0.995 7.88 6.92 11.74
1/15/2022 10:00:00 AM 4.35 39.83 0.991 7.89 7.83 11.84
1/15/2022 10:15:00 AM 4.39 39.902 0.988 7.9 7.54 11.94
1/15/2022 10:30:00 AM 4.47 40.046 0.985 7.91 7.37 12.02
1/15/2022 10:45:00 AM 4.56 40.208 0.983 7.92 7.3 12.09
1/15/2022 11:00:00 AM 4.64 40.352 0.982 7.93 7.43 12.16
1/15/2022 11:15:00 AM 4.74 40.532 0.98 7.94 6.57 12.24
1/15/2022 11:30:00 AM 4.84 40.712 0.978 7.95 6.99 12.33
1/15/2022 11:45:00 AM 4.94 40.892 0.976 7.96 6.87 12.43
1/15/2022 12:00:00 PM 5.02 41.036 0.973 7.97 6.42 12.52
1/15/2022 12:15:00 PM 5.11 41.198 0.97 7.98 6.24 12.59
1/15/2022 12:30:00 PM 5.19 41.342 0.968 7.99 6.65 12.67
1/15/2022 12:45:00 PM 5.3 41.54 0.967 8 5.96 12.75
1/15/2022 1:00:00 PM 5.4 41.72 0.968 8.01 5.22 12.84
1/15/2022 1:15:00 PM 5.49 41.882 0.973 8.02 5.22 12.9
1/15/2022 1:30:00 PM 5.58 42.044 0.986 8.02 6.04 12.92
1/15/2022 1:45:00 PM 5.68 42.224 1.004 8.03 5.93 12.93
1/15/2022 2:00:00 PM 5.8 42.44 1.028 8.03 5.66 12.97
1/15/2022 2:15:00 PM 5.91 42.638 1.054 8.04 5.78 12.97
1/15/2022 2:30:00 PM 6.02 42.836 1.078 8.04 5.77 12.99
1/15/2022 2:45:00 PM 6.09 42.962 1.095 8.04 5.49 12.99
1/15/2022 3:00:00 PM 6.14 43.052 1.107 8.04 5.61 12.95
1/15/2022 3:15:00 PM 6.2 43.16 1.116 8.04 6.26 12.88
1/15/2022 3:30:00 PM 6.27 43.286 1.121 8.04 7.37 12.82
1/15/2022 3:45:00 PM 6.32 43.376 1.125 8.04 7.36 12.79
1/15/2022 4:00:00 PM 6.35 43.43 1.129 8.04 7.31 12.76
1/15/2022 4:15:00 PM 6.39 43.502 1.131 8.04 5.54 12.7
1/15/2022 4:30:00 PM 6.42 43.556 1.131 8.04 5.69 12.61
1/15/2022 4:45:00 PM 6.44 43.592 1.13 8.03 6.17 12.5
1/15/2022 5:00:00 PM 6.45 43.61 1.13 8.02 6.81 12.39
1/15/2022 5:15:00 PM 6.45 43.61 1.129 8.02 6.73 12.29
1/15/2022 5:30:00 PM 6.45 43.61 1.128 8.01 6.75 12.2
1/15/2022 5:45:00 PM 6.44 43.592 1.126 8 6.17 12.12
1/15/2022 6:00:00 PM 6.43 43.574 1.125 8 6.13 12.05
1/15/2022 6:15:00 PM 6.41 43.538 1.123 7.99 6.34 11.98
1/15/2022 6:30:00 PM 6.39 43.502 1.121 7.98 6.58 11.9
1/15/2022 6:45:00 PM 6.36 43.448 1.12 7.98 5.94 11.82
1/15/2022 7:00:00 PM 6.32 43.376 1.118 7.97 5.38 11.74
1/15/2022 7:15:00 PM 6.29 43.322 1.116 7.96 4.86 11.66
1/15/2022 7:30:00 PM 6.25 43.25 1.113 7.95 4.83 11.58
1/15/2022 7:45:00 PM 6.21 43.178 1.112 7.94 4.72 11.5
1/15/2022 8:00:00 PM 6.17 43.106 1.112 7.93 4.65 11.42
1/15/2022 8:15:00 PM 6.13 43.034 1.112 7.92 4.47 11.34
1/15/2022 8:30:00 PM 6.08 42.944 1.113 7.92 4.49 11.26
1/15/2022 8:45:00 PM 6.04 42.872 1.114 7.91 4.43 11.18
1/15/2022 9:00:00 PM 5.99 42.782 1.115 7.9 4.43 11.11
1/15/2022 9:15:00 PM 5.94 42.692 1.115 7.89 4.48 11.04
1/15/2022 9:30:00 PM 5.89 42.602 1.114 7.88 4.31 10.98
1/15/2022 9:45:00 PM 5.83 42.494 1.113 7.87 4.14 10.92
1/15/2022 10:00:00 PM 5.78 42.404 1.113 7.87 4.26 10.87
1/15/2022 10:15:00 PM 5.73 42.314 1.113 7.86 4.12 10.82
1/15/2022 10:30:00 PM 5.68 42.224 1.114 7.85 4.16 10.78
1/15/2022 10:45:00 PM 5.62 42.116 1.115 7.85 4.61 10.74
1/15/2022 11:00:00 PM 5.57 42.026 1.116 7.84 4.86 10.71
1/15/2022 11:15:00 PM 5.52 41.936 1.117 7.84 4.86 10.69
1/15/2022 11:30:00 PM 5.47 41.846 1.118 7.83 4.38 10.67
1/15/2022 11:45:00 PM 5.42 41.756 1.12 7.83 4.24 10.66
1/16/2022 12:00:00 AM 5.36 41.648 1.121 7.83 4.19 10.65
1/16/2022 12:15:00 AM 5.31 41.558 1.122 7.82 4.15 10.65
1/16/2022 12:30:00 AM 5.25 41.45 1.123 7.82 5.33 10.66
1/16/2022 12:45:00 AM 5.2 41.36 1.124 7.82 5.12 10.66
1/16/2022 1:00:00 AM 5.15 41.27 1.124 7.81 4.35 10.66
1/16/2022 1:15:00 AM 5.09 41.162 1.123 7.81 4.36 10.67
1/16/2022 1:30:00 AM 5.04 41.072 1.123 7.81 4.31 10.69
1/16/2022 1:45:00 AM 4.99 40.982 1.123 7.81 4.11 10.69
1/16/2022 2:00:00 AM 4.94 40.892 1.123 7.81 4.26 10.7
1/16/2022 2:15:00 AM 4.89 40.802 1.123 7.81 4.38 10.71
1/16/2022 2:30:00 AM 4.85 40.73 1.122 7.81 4.28 10.73
1/16/2022 2:45:00 AM 4.81 40.658 1.122 7.8 4.38 10.74
1/16/2022 3:00:00 AM 4.76 40.568 1.121 7.8 4.13 10.75
1/16/2022 3:30:00 AM 4.68 40.424 1.119 7.8 3.86 10.78
1/16/2022 3:45:00 AM 4.64 40.352 1.118 7.8 3.85 10.79
1/16/2022 4:00:00 AM 4.59 40.262 1.115 7.8 3.83 10.81
1/16/2022 4:15:00 AM 4.54 40.172 1.113 7.8 3.89 10.82
1/16/2022 4:30:00 AM 4.49 40.082 1.11 7.81 3.67 10.84
1/16/2022 4:45:00 AM 4.44 39.992 1.107 7.81 3.82 10.86
1/16/2022 5:00:00 AM 4.39 39.902 1.102 7.81 4.18 10.88
1/16/2022 5:15:00 AM 4.34 39.812 1.098 7.81 4.54 10.91
1/16/2022 5:30:00 AM 4.28 39.704 1.093 7.81 4.33 10.93
1/16/2022 5:45:00 AM 4.23 39.614 1.089 7.81 4.61 10.95
1/16/2022 6:00:00 AM 4.18 39.524 1.084 7.81 4.49 10.97
1/16/2022 6:15:00 AM 4.13 39.434 1.08 7.81 4.84 10.99
1/16/2022 6:30:00 AM 4.09 39.362 1.076 7.81 4.29 11.01
1/16/2022 6:45:00 AM 4.05 39.29 1.073 7.81 4.2 11.03
1/16/2022 7:00:00 AM 4.01 39.218 1.07 7.82 4.21 11.04
1/16/2022 7:15:00 AM 3.98 39.164 1.068 7.82 4.22 11.05
1/16/2022 7:30:00 AM 3.95 39.11 1.066 7.82 4.1 11.08
1/16/2022 7:45:00 AM 3.93 39.074 1.064 7.82 4.38 11.11
1/16/2022 8:00:00 AM 3.91 39.038 1.061 7.83 4.6 11.17
1/16/2022 8:15:00 AM 3.89 39.002 1.058 7.83 4.71 11.25
1/16/2022 8:30:00 AM 3.88 38.984 1.052 7.84 6.53 11.32
1/16/2022 8:45:00 AM 3.88 38.984 1.045 7.84 7.86